<?xml version="1.0" encoding="UTF-8" standalone="no" ?>
<gpx xmlns="http://www.topografix.com/GPX/1/1" xmlns:xsi="http://www.w3.org/2001/XMLSchema-instance" xsi:schemaLocation="http://www.topografix.com/GPX/1/1 http://www.topografix.com/GPX/1/1/gpx.xsd" version="1.1" creator="VisuGPX - https://www.visugpx.com">
  <metadata>
    <name>Rocles ( Palhere) - Laubert  32km</name>
    <desc><![CDATA[J1]]></desc>
  </metadata>
  <wpt lat="44.73387" lon="3.78191">
    <ele>1037.2</ele>
    <name><![CDATA[Ralais de Palhere]]></name>
    <type><![CDATA[hotel]]></type>
    <extensions>
      <visugpx:TrackPointExtension xmlns:visugpx="https://www.visugpx.com/editgpx/">
        <visugpx:dec>-73,-119</visugpx:dec>
      </visugpx:TrackPointExtension>
    </extensions>
  </wpt>
  <wpt lat="44.58411" lon="3.63452">
    <ele>1203.6</ele>
    <name><![CDATA[La Pontiere]]></name>
    <cmt><![CDATA[foyer de ski de fond - gite - restau]]></cmt>
    <type><![CDATA[hotel]]></type>
    <extensions>
      <visugpx:TrackPointExtension xmlns:visugpx="https://www.visugpx.com/editgpx/">
        <visugpx:dec>-118,-123</visugpx:dec>
      </visugpx:TrackPointExtension>
    </extensions>
  </wpt>
  <trk>
    <name><![CDATA[Rocles ( Palhere) - Laubert  32km_1]]></name>
    <trkseg>
      <trkpt lat="44.58327" lon="3.6346">
        <ele>1211.88</ele>
        <time>2025-07-12T17:10:44Z</time>
      </trkpt>
      <trkpt lat="44.58328" lon="3.63458">
        <ele>1209.96</ele>
        <time>2025-07-12T17:10:32Z</time>
      </trkpt>
      <trkpt lat="44.58329" lon="3.63458">
        <ele>1209.96</ele>
        <time>2025-07-12T17:10:22Z</time>
      </trkpt>
      <trkpt lat="44.5833" lon="3.63457">
        <ele>1211.4</ele>
        <time>2025-07-12T17:10:06Z</time>
      </trkpt>
      <trkpt lat="44.5833" lon="3.63456">
        <ele>1211.88</ele>
        <time>2025-07-12T17:09:51Z</time>
      </trkpt>
      <trkpt lat="44.58329" lon="3.63459">
        <ele>1211.4</ele>
        <time>2025-07-12T17:09:35Z</time>
      </trkpt>
      <trkpt lat="44.58327" lon="3.63458">
        <ele>1212.84</ele>
        <time>2025-07-12T17:09:24Z</time>
      </trkpt>
      <trkpt lat="44.58326" lon="3.63455">
        <ele>1212.84</ele>
        <time>2025-07-12T17:09:10Z</time>
      </trkpt>
      <trkpt lat="44.58326" lon="3.63457">
        <ele>1212.84</ele>
        <time>2025-07-12T17:08:58Z</time>
      </trkpt>
      <trkpt lat="44.58327" lon="3.63455">
        <ele>1212.36</ele>
        <time>2025-07-12T17:08:42Z</time>
      </trkpt>
      <trkpt lat="44.58326" lon="3.63457">
        <ele>1211.4</ele>
        <time>2025-07-12T17:08:30Z</time>
      </trkpt>
      <trkpt lat="44.58326" lon="3.63457">
        <ele>1210.92</ele>
        <time>2025-07-12T17:08:17Z</time>
      </trkpt>
      <trkpt lat="44.58327" lon="3.63459">
        <ele>1211.88</ele>
        <time>2025-07-12T17:07:59Z</time>
      </trkpt>
      <trkpt lat="44.58328" lon="3.63462">
        <ele>1211.88</ele>
        <time>2025-07-12T17:07:43Z</time>
      </trkpt>
      <trkpt lat="44.58327" lon="3.63463">
        <ele>1211.4</ele>
        <time>2025-07-12T17:07:28Z</time>
      </trkpt>
      <trkpt lat="44.58328" lon="3.63465">
        <ele>1211.4</ele>
        <time>2025-07-12T17:07:16Z</time>
      </trkpt>
      <trkpt lat="44.58327" lon="3.63459">
        <ele>1212.36</ele>
        <time>2025-07-12T17:07:02Z</time>
      </trkpt>
      <trkpt lat="44.58326" lon="3.63461">
        <ele>1211.88</ele>
        <time>2025-07-12T17:06:50Z</time>
      </trkpt>
      <trkpt lat="44.58326" lon="3.63463">
        <ele>1210.92</ele>
        <time>2025-07-12T17:06:34Z</time>
      </trkpt>
      <trkpt lat="44.58327" lon="3.63465">
        <ele>1210.44</ele>
        <time>2025-07-12T17:06:18Z</time>
      </trkpt>
      <trkpt lat="44.58329" lon="3.63462">
        <ele>1209.96</ele>
        <time>2025-07-12T17:05:59Z</time>
      </trkpt>
      <trkpt lat="44.58328" lon="3.63464">
        <ele>1211.4</ele>
        <time>2025-07-12T17:05:47Z</time>
      </trkpt>
      <trkpt lat="44.58326" lon="3.63458">
        <ele>1212.36</ele>
        <time>2025-07-12T17:05:34Z</time>
      </trkpt>
      <trkpt lat="44.58326" lon="3.6346">
        <ele>1212.84</ele>
        <time>2025-07-12T17:05:17Z</time>
      </trkpt>
      <trkpt lat="44.58324" lon="3.63463">
        <ele>1212.84</ele>
        <time>2025-07-12T17:05:04Z</time>
      </trkpt>
      <trkpt lat="44.58319" lon="3.63463">
        <ele>1214.76</ele>
        <time>2025-07-12T17:04:51Z</time>
      </trkpt>
      <trkpt lat="44.58311" lon="3.63464">
        <ele>1213.8</ele>
        <time>2025-07-12T17:04:37Z</time>
      </trkpt>
      <trkpt lat="44.58303" lon="3.63469">
        <ele>1211.88</ele>
        <time>2025-07-12T17:04:28Z</time>
      </trkpt>
      <trkpt lat="44.58286" lon="3.63485">
        <ele>1208.51</ele>
        <time>2025-07-12T17:04:09Z</time>
      </trkpt>
      <trkpt lat="44.58279" lon="3.635">
        <ele>1209.48</ele>
        <time>2025-07-12T17:03:59Z</time>
      </trkpt>
      <trkpt lat="44.58279" lon="3.63501">
        <ele>1209.48</ele>
        <time>2025-07-12T17:03:58Z</time>
      </trkpt>
      <trkpt lat="44.5828" lon="3.63512">
        <ele>1209.48</ele>
        <time>2025-07-12T17:03:51Z</time>
      </trkpt>
      <trkpt lat="44.58281" lon="3.63514">
        <ele>1209.48</ele>
        <time>2025-07-12T17:03:50Z</time>
      </trkpt>
      <trkpt lat="44.58279" lon="3.6352">
        <ele>1209.96</ele>
        <time>2025-07-12T17:03:45Z</time>
      </trkpt>
      <trkpt lat="44.58275" lon="3.63519">
        <ele>1210.92</ele>
        <time>2025-07-12T17:03:38Z</time>
      </trkpt>
      <trkpt lat="44.58276" lon="3.6352">
        <ele>1211.4</ele>
        <time>2025-07-12T17:03:17Z</time>
      </trkpt>
      <trkpt lat="44.58276" lon="3.63522">
        <ele>1211.88</ele>
        <time>2025-07-12T17:02:59Z</time>
      </trkpt>
      <trkpt lat="44.58276" lon="3.63522">
        <ele>1212.36</ele>
        <time>2025-07-12T17:02:42Z</time>
      </trkpt>
      <trkpt lat="44.58279" lon="3.63527">
        <ele>1212.36</ele>
        <time>2025-07-12T17:02:31Z</time>
      </trkpt>
      <trkpt lat="44.58282" lon="3.63531">
        <ele>1211.4</ele>
        <time>2025-07-12T17:02:13Z</time>
      </trkpt>
      <trkpt lat="44.58284" lon="3.63531">
        <ele>1210.92</ele>
        <time>2025-07-12T17:01:56Z</time>
      </trkpt>
      <trkpt lat="44.58281" lon="3.63529">
        <ele>1214.28</ele>
        <time>2025-07-12T17:01:43Z</time>
      </trkpt>
      <trkpt lat="44.58277" lon="3.63529">
        <ele>1218.61</ele>
        <time>2025-07-12T17:01:30Z</time>
      </trkpt>
      <trkpt lat="44.58274" lon="3.6354">
        <ele>1231.11</ele>
        <time>2025-07-12T17:01:15Z</time>
      </trkpt>
      <trkpt lat="44.58267" lon="3.63575">
        <ele>1245.04</ele>
        <time>2025-07-12T17:00:58Z</time>
      </trkpt>
      <trkpt lat="44.58274" lon="3.63592">
        <ele>1233.03</ele>
        <time>2025-07-12T17:00:42Z</time>
      </trkpt>
      <trkpt lat="44.58284" lon="3.63604">
        <ele>1226.78</ele>
        <time>2025-07-12T17:00:30Z</time>
      </trkpt>
      <trkpt lat="44.58285" lon="3.63606">
        <ele>1226.3</ele>
        <time>2025-07-12T17:00:29Z</time>
      </trkpt>
      <trkpt lat="44.58285" lon="3.63607">
        <ele>1225.82</ele>
        <time>2025-07-12T17:00:28Z</time>
      </trkpt>
      <trkpt lat="44.58286" lon="3.63609">
        <ele>1225.34</ele>
        <time>2025-07-12T17:00:27Z</time>
      </trkpt>
      <trkpt lat="44.58287" lon="3.6361">
        <ele>1224.38</ele>
        <time>2025-07-12T17:00:26Z</time>
      </trkpt>
      <trkpt lat="44.58287" lon="3.63612">
        <ele>1223.42</ele>
        <time>2025-07-12T17:00:25Z</time>
      </trkpt>
      <trkpt lat="44.58296" lon="3.6363">
        <ele>1215.24</ele>
        <time>2025-07-12T17:00:10Z</time>
      </trkpt>
      <trkpt lat="44.58301" lon="3.63664">
        <ele>1213.8</ele>
        <time>2025-07-12T16:59:54Z</time>
      </trkpt>
      <trkpt lat="44.58312" lon="3.63688">
        <ele>1210.92</ele>
        <time>2025-07-12T16:59:39Z</time>
      </trkpt>
      <trkpt lat="44.58325" lon="3.63712">
        <ele>1206.59</ele>
        <time>2025-07-12T16:59:23Z</time>
      </trkpt>
      <trkpt lat="44.58338" lon="3.63742">
        <ele>1207.07</ele>
        <time>2025-07-12T16:59:06Z</time>
      </trkpt>
      <trkpt lat="44.58344" lon="3.6376">
        <ele>1207.07</ele>
        <time>2025-07-12T16:58:54Z</time>
      </trkpt>
      <trkpt lat="44.58354" lon="3.63786">
        <ele>1208.03</ele>
        <time>2025-07-12T16:58:40Z</time>
      </trkpt>
      <trkpt lat="44.58364" lon="3.63814">
        <ele>1208.03</ele>
        <time>2025-07-12T16:58:24Z</time>
      </trkpt>
      <trkpt lat="44.58376" lon="3.63845">
        <ele>1207.55</ele>
        <time>2025-07-12T16:58:06Z</time>
      </trkpt>
      <trkpt lat="44.58376" lon="3.63847">
        <ele>1207.55</ele>
        <time>2025-07-12T16:58:05Z</time>
      </trkpt>
      <trkpt lat="44.58377" lon="3.63849">
        <ele>1208.03</ele>
        <time>2025-07-12T16:58:04Z</time>
      </trkpt>
      <trkpt lat="44.58378" lon="3.63857">
        <ele>1208.03</ele>
        <time>2025-07-12T16:58:00Z</time>
      </trkpt>
      <trkpt lat="44.58382" lon="3.63863">
        <ele>1208.51</ele>
        <time>2025-07-12T16:57:56Z</time>
      </trkpt>
      <trkpt lat="44.5839" lon="3.63892">
        <ele>1207.55</ele>
        <time>2025-07-12T16:57:42Z</time>
      </trkpt>
      <trkpt lat="44.58395" lon="3.63922">
        <ele>1208.03</ele>
        <time>2025-07-12T16:57:27Z</time>
      </trkpt>
      <trkpt lat="44.58405" lon="3.63949">
        <ele>1206.59</ele>
        <time>2025-07-12T16:57:12Z</time>
      </trkpt>
      <trkpt lat="44.58413" lon="3.63974">
        <ele>1203.71</ele>
        <time>2025-07-12T16:56:58Z</time>
      </trkpt>
      <trkpt lat="44.58409" lon="3.64003">
        <ele>1203.71</ele>
        <time>2025-07-12T16:56:43Z</time>
      </trkpt>
      <trkpt lat="44.58399" lon="3.64015">
        <ele>1205.15</ele>
        <time>2025-07-12T16:56:34Z</time>
      </trkpt>
      <trkpt lat="44.58396" lon="3.6405">
        <ele>1206.59</ele>
        <time>2025-07-12T16:56:18Z</time>
      </trkpt>
      <trkpt lat="44.58392" lon="3.64081">
        <ele>1207.07</ele>
        <time>2025-07-12T16:56:02Z</time>
      </trkpt>
      <trkpt lat="44.58382" lon="3.64108">
        <ele>1207.55</ele>
        <time>2025-07-12T16:55:46Z</time>
      </trkpt>
      <trkpt lat="44.5838" lon="3.64129">
        <ele>1209.48</ele>
        <time>2025-07-12T16:55:34Z</time>
      </trkpt>
      <trkpt lat="44.58373" lon="3.64161">
        <ele>1209</ele>
        <time>2025-07-12T16:55:19Z</time>
      </trkpt>
      <trkpt lat="44.58373" lon="3.64184">
        <ele>1207.55</ele>
        <time>2025-07-12T16:55:06Z</time>
      </trkpt>
      <trkpt lat="44.58373" lon="3.64186">
        <ele>1208.03</ele>
        <time>2025-07-12T16:55:05Z</time>
      </trkpt>
      <trkpt lat="44.5837" lon="3.642">
        <ele>1208.03</ele>
        <time>2025-07-12T16:54:57Z</time>
      </trkpt>
      <trkpt lat="44.5837" lon="3.64202">
        <ele>1208.03</ele>
        <time>2025-07-12T16:54:56Z</time>
      </trkpt>
      <trkpt lat="44.5837" lon="3.64204">
        <ele>1208.03</ele>
        <time>2025-07-12T16:54:55Z</time>
      </trkpt>
      <trkpt lat="44.58371" lon="3.64206">
        <ele>1208.51</ele>
        <time>2025-07-12T16:54:54Z</time>
      </trkpt>
      <trkpt lat="44.58371" lon="3.64207">
        <ele>1208.51</ele>
        <time>2025-07-12T16:54:53Z</time>
      </trkpt>
      <trkpt lat="44.58371" lon="3.64209">
        <ele>1209</ele>
        <time>2025-07-12T16:54:52Z</time>
      </trkpt>
      <trkpt lat="44.58371" lon="3.64211">
        <ele>1209.48</ele>
        <time>2025-07-12T16:54:51Z</time>
      </trkpt>
      <trkpt lat="44.58365" lon="3.64231">
        <ele>1212.84</ele>
        <time>2025-07-12T16:54:39Z</time>
      </trkpt>
      <trkpt lat="44.58364" lon="3.64232">
        <ele>1212.84</ele>
        <time>2025-07-12T16:54:38Z</time>
      </trkpt>
      <trkpt lat="44.58364" lon="3.64234">
        <ele>1213.32</ele>
        <time>2025-07-12T16:54:37Z</time>
      </trkpt>
      <trkpt lat="44.58365" lon="3.64242">
        <ele>1213.8</ele>
        <time>2025-07-12T16:54:32Z</time>
      </trkpt>
      <trkpt lat="44.58365" lon="3.64245">
        <ele>1214.28</ele>
        <time>2025-07-12T16:54:31Z</time>
      </trkpt>
      <trkpt lat="44.58361" lon="3.64275">
        <ele>1216.21</ele>
        <time>2025-07-12T16:54:16Z</time>
      </trkpt>
      <trkpt lat="44.58355" lon="3.64303">
        <ele>1217.65</ele>
        <time>2025-07-12T16:54:01Z</time>
      </trkpt>
      <trkpt lat="44.58346" lon="3.64329">
        <ele>1218.13</ele>
        <time>2025-07-12T16:53:46Z</time>
      </trkpt>
      <trkpt lat="44.58333" lon="3.64355">
        <ele>1218.61</ele>
        <time>2025-07-12T16:53:29Z</time>
      </trkpt>
      <trkpt lat="44.58317" lon="3.64385">
        <ele>1221.01</ele>
        <time>2025-07-12T16:53:11Z</time>
      </trkpt>
      <trkpt lat="44.583" lon="3.64413">
        <ele>1223.9</ele>
        <time>2025-07-12T16:52:54Z</time>
      </trkpt>
      <trkpt lat="44.58288" lon="3.64438">
        <ele>1225.34</ele>
        <time>2025-07-12T16:52:40Z</time>
      </trkpt>
      <trkpt lat="44.58282" lon="3.64464">
        <ele>1223.9</ele>
        <time>2025-07-12T16:52:24Z</time>
      </trkpt>
      <trkpt lat="44.58274" lon="3.64486">
        <ele>1225.34</ele>
        <time>2025-07-12T16:52:09Z</time>
      </trkpt>
      <trkpt lat="44.5827" lon="3.64512">
        <ele>1226.78</ele>
        <time>2025-07-12T16:51:54Z</time>
      </trkpt>
      <trkpt lat="44.58271" lon="3.6455">
        <ele>1232.07</ele>
        <time>2025-07-12T16:51:35Z</time>
      </trkpt>
      <trkpt lat="44.58281" lon="3.64577">
        <ele>1233.51</ele>
        <time>2025-07-12T16:51:23Z</time>
      </trkpt>
      <trkpt lat="44.58289" lon="3.64584">
        <ele>1232.55</ele>
        <time>2025-07-12T16:51:15Z</time>
      </trkpt>
      <trkpt lat="44.58311" lon="3.6459">
        <ele>1233.03</ele>
        <time>2025-07-12T16:51:01Z</time>
      </trkpt>
      <trkpt lat="44.58325" lon="3.64589">
        <ele>1233.03</ele>
        <time>2025-07-12T16:50:47Z</time>
      </trkpt>
      <trkpt lat="44.58326" lon="3.64596">
        <ele>1233.51</ele>
        <time>2025-07-12T16:50:43Z</time>
      </trkpt>
      <trkpt lat="44.58322" lon="3.64641">
        <ele>1235.43</ele>
        <time>2025-07-12T16:50:22Z</time>
      </trkpt>
      <trkpt lat="44.58324" lon="3.64676">
        <ele>1237.83</ele>
        <time>2025-07-12T16:50:06Z</time>
      </trkpt>
      <trkpt lat="44.58328" lon="3.64711">
        <ele>1244.08</ele>
        <time>2025-07-12T16:49:50Z</time>
      </trkpt>
      <trkpt lat="44.58328" lon="3.6475">
        <ele>1248.89</ele>
        <time>2025-07-12T16:49:33Z</time>
      </trkpt>
      <trkpt lat="44.58329" lon="3.64789">
        <ele>1254.18</ele>
        <time>2025-07-12T16:49:17Z</time>
      </trkpt>
      <trkpt lat="44.58332" lon="3.64825">
        <ele>1255.14</ele>
        <time>2025-07-12T16:49:02Z</time>
      </trkpt>
      <trkpt lat="44.58339" lon="3.64851">
        <ele>1252.25</ele>
        <time>2025-07-12T16:48:46Z</time>
      </trkpt>
      <trkpt lat="44.5834" lon="3.64853">
        <ele>1252.25</ele>
        <time>2025-07-12T16:48:45Z</time>
      </trkpt>
      <trkpt lat="44.5834" lon="3.64854">
        <ele>1252.25</ele>
        <time>2025-07-12T16:48:44Z</time>
      </trkpt>
      <trkpt lat="44.58341" lon="3.64856">
        <ele>1252.25</ele>
        <time>2025-07-12T16:48:43Z</time>
      </trkpt>
      <trkpt lat="44.58342" lon="3.64875">
        <ele>1253.22</ele>
        <time>2025-07-12T16:48:32Z</time>
      </trkpt>
      <trkpt lat="44.58344" lon="3.64886">
        <ele>1253.22</ele>
        <time>2025-07-12T16:48:18Z</time>
      </trkpt>
      <trkpt lat="44.58346" lon="3.64911">
        <ele>1251.77</ele>
        <time>2025-07-12T16:48:04Z</time>
      </trkpt>
      <trkpt lat="44.58349" lon="3.64937">
        <ele>1252.74</ele>
        <time>2025-07-12T16:47:50Z</time>
      </trkpt>
      <trkpt lat="44.58346" lon="3.64968">
        <ele>1254.18</ele>
        <time>2025-07-12T16:47:34Z</time>
      </trkpt>
      <trkpt lat="44.5834" lon="3.65002">
        <ele>1253.7</ele>
        <time>2025-07-12T16:47:17Z</time>
      </trkpt>
      <trkpt lat="44.58332" lon="3.65032">
        <ele>1254.66</ele>
        <time>2025-07-12T16:47:02Z</time>
      </trkpt>
      <trkpt lat="44.58324" lon="3.65066">
        <ele>1255.14</ele>
        <time>2025-07-12T16:46:46Z</time>
      </trkpt>
      <trkpt lat="44.58316" lon="3.65103">
        <ele>1256.1</ele>
        <time>2025-07-12T16:46:28Z</time>
      </trkpt>
      <trkpt lat="44.58308" lon="3.65143">
        <ele>1255.14</ele>
        <time>2025-07-12T16:46:09Z</time>
      </trkpt>
      <trkpt lat="44.58298" lon="3.65179">
        <ele>1255.14</ele>
        <time>2025-07-12T16:45:52Z</time>
      </trkpt>
      <trkpt lat="44.5829" lon="3.65217">
        <ele>1255.14</ele>
        <time>2025-07-12T16:45:34Z</time>
      </trkpt>
      <trkpt lat="44.58278" lon="3.65257">
        <ele>1256.58</ele>
        <time>2025-07-12T16:45:20Z</time>
      </trkpt>
      <trkpt lat="44.58273" lon="3.65274">
        <ele>1256.58</ele>
        <time>2025-07-12T16:45:06Z</time>
      </trkpt>
      <trkpt lat="44.5826" lon="3.65312">
        <ele>1255.62</ele>
        <time>2025-07-12T16:44:45Z</time>
      </trkpt>
      <trkpt lat="44.58246" lon="3.65353">
        <ele>1256.1</ele>
        <time>2025-07-12T16:44:25Z</time>
      </trkpt>
      <trkpt lat="44.58235" lon="3.65392">
        <ele>1257.06</ele>
        <time>2025-07-12T16:44:04Z</time>
      </trkpt>
      <trkpt lat="44.58221" lon="3.65427">
        <ele>1257.54</ele>
        <time>2025-07-12T16:43:44Z</time>
      </trkpt>
      <trkpt lat="44.58207" lon="3.65456">
        <ele>1257.06</ele>
        <time>2025-07-12T16:43:28Z</time>
      </trkpt>
      <trkpt lat="44.58197" lon="3.65481">
        <ele>1257.54</ele>
        <time>2025-07-12T16:43:14Z</time>
      </trkpt>
      <trkpt lat="44.58186" lon="3.65505">
        <ele>1258.02</ele>
        <time>2025-07-12T16:43:03Z</time>
      </trkpt>
      <trkpt lat="44.58174" lon="3.65535">
        <ele>1258.02</ele>
        <time>2025-07-12T16:42:47Z</time>
      </trkpt>
      <trkpt lat="44.58161" lon="3.65566">
        <ele>1258.5</ele>
        <time>2025-07-12T16:42:30Z</time>
      </trkpt>
      <trkpt lat="44.58151" lon="3.65595">
        <ele>1258.98</ele>
        <time>2025-07-12T16:42:16Z</time>
      </trkpt>
      <trkpt lat="44.58139" lon="3.65621">
        <ele>1259.46</ele>
        <time>2025-07-12T16:42:03Z</time>
      </trkpt>
      <trkpt lat="44.58125" lon="3.65657">
        <ele>1259.94</ele>
        <time>2025-07-12T16:41:51Z</time>
      </trkpt>
      <trkpt lat="44.58114" lon="3.65687">
        <ele>1258.5</ele>
        <time>2025-07-12T16:41:38Z</time>
      </trkpt>
      <trkpt lat="44.58108" lon="3.657">
        <ele>1258.5</ele>
        <time>2025-07-12T16:41:24Z</time>
      </trkpt>
      <trkpt lat="44.58097" lon="3.65731">
        <ele>1259.46</ele>
        <time>2025-07-12T16:41:06Z</time>
      </trkpt>
      <trkpt lat="44.58085" lon="3.65762">
        <ele>1258.98</ele>
        <time>2025-07-12T16:40:49Z</time>
      </trkpt>
      <trkpt lat="44.58071" lon="3.65792">
        <ele>1258.02</ele>
        <time>2025-07-12T16:40:32Z</time>
      </trkpt>
      <trkpt lat="44.58056" lon="3.65821">
        <ele>1258.02</ele>
        <time>2025-07-12T16:40:14Z</time>
      </trkpt>
      <trkpt lat="44.58047" lon="3.65852">
        <ele>1256.58</ele>
        <time>2025-07-12T16:39:58Z</time>
      </trkpt>
      <trkpt lat="44.58041" lon="3.6588">
        <ele>1255.14</ele>
        <time>2025-07-12T16:39:45Z</time>
      </trkpt>
      <trkpt lat="44.58032" lon="3.6595">
        <ele>1249.85</ele>
        <time>2025-07-12T16:39:29Z</time>
      </trkpt>
      <trkpt lat="44.58027" lon="3.66018">
        <ele>1245.53</ele>
        <time>2025-07-12T16:39:13Z</time>
      </trkpt>
      <trkpt lat="44.58024" lon="3.66068">
        <ele>1241.68</ele>
        <time>2025-07-12T16:38:59Z</time>
      </trkpt>
      <trkpt lat="44.58024" lon="3.66107">
        <ele>1239.76</ele>
        <time>2025-07-12T16:38:46Z</time>
      </trkpt>
      <trkpt lat="44.58025" lon="3.66151">
        <ele>1239.28</ele>
        <time>2025-07-12T16:38:34Z</time>
      </trkpt>
      <trkpt lat="44.58029" lon="3.66189">
        <ele>1239.28</ele>
        <time>2025-07-12T16:38:20Z</time>
      </trkpt>
      <trkpt lat="44.58032" lon="3.66212">
        <ele>1239.28</ele>
        <time>2025-07-12T16:38:07Z</time>
      </trkpt>
      <trkpt lat="44.58031" lon="3.66253">
        <ele>1238.32</ele>
        <time>2025-07-12T16:37:54Z</time>
      </trkpt>
      <trkpt lat="44.58033" lon="3.66307">
        <ele>1236.39</ele>
        <time>2025-07-12T16:37:39Z</time>
      </trkpt>
      <trkpt lat="44.58037" lon="3.66353">
        <ele>1234.95</ele>
        <time>2025-07-12T16:37:24Z</time>
      </trkpt>
      <trkpt lat="44.58042" lon="3.66387">
        <ele>1233.03</ele>
        <time>2025-07-12T16:37:05Z</time>
      </trkpt>
      <trkpt lat="44.58043" lon="3.66397">
        <ele>1232.07</ele>
        <time>2025-07-12T16:36:59Z</time>
      </trkpt>
      <trkpt lat="44.5804" lon="3.66424">
        <ele>1228.22</ele>
        <time>2025-07-12T16:36:44Z</time>
      </trkpt>
      <trkpt lat="44.58044" lon="3.66458">
        <ele>1228.7</ele>
        <time>2025-07-12T16:36:31Z</time>
      </trkpt>
      <trkpt lat="44.58056" lon="3.66484">
        <ele>1227.74</ele>
        <time>2025-07-12T16:36:15Z</time>
      </trkpt>
      <trkpt lat="44.58069" lon="3.6651">
        <ele>1225.82</ele>
        <time>2025-07-12T16:36:00Z</time>
      </trkpt>
      <trkpt lat="44.58086" lon="3.6654">
        <ele>1221.01</ele>
        <time>2025-07-12T16:35:43Z</time>
      </trkpt>
      <trkpt lat="44.58087" lon="3.66541">
        <ele>1221.01</ele>
        <time>2025-07-12T16:35:42Z</time>
      </trkpt>
      <trkpt lat="44.58088" lon="3.66542">
        <ele>1220.53</ele>
        <time>2025-07-12T16:35:41Z</time>
      </trkpt>
      <trkpt lat="44.5809" lon="3.66544">
        <ele>1220.53</ele>
        <time>2025-07-12T16:35:40Z</time>
      </trkpt>
      <trkpt lat="44.58091" lon="3.66544">
        <ele>1220.05</ele>
        <time>2025-07-12T16:35:39Z</time>
      </trkpt>
      <trkpt lat="44.58097" lon="3.66552">
        <ele>1219.57</ele>
        <time>2025-07-12T16:35:33Z</time>
      </trkpt>
      <trkpt lat="44.581" lon="3.6656">
        <ele>1218.61</ele>
        <time>2025-07-12T16:35:29Z</time>
      </trkpt>
      <trkpt lat="44.58118" lon="3.66584">
        <ele>1217.65</ele>
        <time>2025-07-12T16:35:10Z</time>
      </trkpt>
      <trkpt lat="44.58135" lon="3.66608">
        <ele>1216.69</ele>
        <time>2025-07-12T16:34:52Z</time>
      </trkpt>
      <trkpt lat="44.58148" lon="3.66629">
        <ele>1216.21</ele>
        <time>2025-07-12T16:34:38Z</time>
      </trkpt>
      <trkpt lat="44.58163" lon="3.66663">
        <ele>1214.76</ele>
        <time>2025-07-12T16:34:18Z</time>
      </trkpt>
      <trkpt lat="44.58165" lon="3.66667">
        <ele>1214.76</ele>
        <time>2025-07-12T16:34:15Z</time>
      </trkpt>
      <trkpt lat="44.58169" lon="3.66682">
        <ele>1214.28</ele>
        <time>2025-07-12T16:34:05Z</time>
      </trkpt>
      <trkpt lat="44.58174" lon="3.66708">
        <ele>1212.36</ele>
        <time>2025-07-12T16:33:51Z</time>
      </trkpt>
      <trkpt lat="44.58187" lon="3.66751">
        <ele>1210.92</ele>
        <time>2025-07-12T16:33:35Z</time>
      </trkpt>
      <trkpt lat="44.58193" lon="3.66777">
        <ele>1208.03</ele>
        <time>2025-07-12T16:33:20Z</time>
      </trkpt>
      <trkpt lat="44.58204" lon="3.66814">
        <ele>1207.55</ele>
        <time>2025-07-12T16:33:06Z</time>
      </trkpt>
      <trkpt lat="44.58211" lon="3.66844">
        <ele>1208.03</ele>
        <time>2025-07-12T16:32:52Z</time>
      </trkpt>
      <trkpt lat="44.58209" lon="3.66882">
        <ele>1206.11</ele>
        <time>2025-07-12T16:32:39Z</time>
      </trkpt>
      <trkpt lat="44.58206" lon="3.66925">
        <ele>1206.11</ele>
        <time>2025-07-12T16:32:27Z</time>
      </trkpt>
      <trkpt lat="44.58202" lon="3.66998">
        <ele>1205.15</ele>
        <time>2025-07-12T16:32:13Z</time>
      </trkpt>
      <trkpt lat="44.58204" lon="3.67093">
        <ele>1206.59</ele>
        <time>2025-07-12T16:31:58Z</time>
      </trkpt>
      <trkpt lat="44.58205" lon="3.671">
        <ele>1206.59</ele>
        <time>2025-07-12T16:31:57Z</time>
      </trkpt>
      <trkpt lat="44.58205" lon="3.67114">
        <ele>1207.07</ele>
        <time>2025-07-12T16:31:55Z</time>
      </trkpt>
      <trkpt lat="44.58201" lon="3.67159">
        <ele>1207.55</ele>
        <time>2025-07-12T16:31:47Z</time>
      </trkpt>
      <trkpt lat="44.58191" lon="3.67217">
        <ele>1206.11</ele>
        <time>2025-07-12T16:31:37Z</time>
      </trkpt>
      <trkpt lat="44.58179" lon="3.67278">
        <ele>1204.19</ele>
        <time>2025-07-12T16:31:27Z</time>
      </trkpt>
      <trkpt lat="44.58166" lon="3.6733">
        <ele>1204.19</ele>
        <time>2025-07-12T16:31:15Z</time>
      </trkpt>
      <trkpt lat="44.58158" lon="3.67358">
        <ele>1204.19</ele>
        <time>2025-07-12T16:30:58Z</time>
      </trkpt>
      <trkpt lat="44.5815" lon="3.67383">
        <ele>1204.19</ele>
        <time>2025-07-12T16:30:42Z</time>
      </trkpt>
      <trkpt lat="44.58144" lon="3.67413">
        <ele>1204.19</ele>
        <time>2025-07-12T16:30:25Z</time>
      </trkpt>
      <trkpt lat="44.58144" lon="3.67426">
        <ele>1203.23</ele>
        <time>2025-07-12T16:30:03Z</time>
      </trkpt>
      <trkpt lat="44.58141" lon="3.67436">
        <ele>1202.27</ele>
        <time>2025-07-12T16:29:47Z</time>
      </trkpt>
      <trkpt lat="44.5814" lon="3.67437">
        <ele>1202.27</ele>
        <time>2025-07-12T16:29:46Z</time>
      </trkpt>
      <trkpt lat="44.5814" lon="3.67439">
        <ele>1202.27</ele>
        <time>2025-07-12T16:29:45Z</time>
      </trkpt>
      <trkpt lat="44.58136" lon="3.67464">
        <ele>1201.79</ele>
        <time>2025-07-12T16:29:30Z</time>
      </trkpt>
      <trkpt lat="44.58129" lon="3.675">
        <ele>1199.38</ele>
        <time>2025-07-12T16:29:13Z</time>
      </trkpt>
      <trkpt lat="44.58132" lon="3.67509">
        <ele>1199.38</ele>
        <time>2025-07-12T16:29:07Z</time>
      </trkpt>
      <trkpt lat="44.58133" lon="3.6751">
        <ele>1199.38</ele>
        <time>2025-07-12T16:29:06Z</time>
      </trkpt>
      <trkpt lat="44.58141" lon="3.67534">
        <ele>1199.38</ele>
        <time>2025-07-12T16:28:53Z</time>
      </trkpt>
      <trkpt lat="44.58142" lon="3.67536">
        <ele>1199.86</ele>
        <time>2025-07-12T16:28:52Z</time>
      </trkpt>
      <trkpt lat="44.58151" lon="3.67564">
        <ele>1204.67</ele>
        <time>2025-07-12T16:28:34Z</time>
      </trkpt>
      <trkpt lat="44.58154" lon="3.67578">
        <ele>1206.59</ele>
        <time>2025-07-12T16:28:26Z</time>
      </trkpt>
      <trkpt lat="44.58155" lon="3.67586">
        <ele>1207.55</ele>
        <time>2025-07-12T16:28:22Z</time>
      </trkpt>
      <trkpt lat="44.58157" lon="3.67617">
        <ele>1208.03</ele>
        <time>2025-07-12T16:28:06Z</time>
      </trkpt>
      <trkpt lat="44.58157" lon="3.67646">
        <ele>1209.48</ele>
        <time>2025-07-12T16:27:48Z</time>
      </trkpt>
      <trkpt lat="44.58156" lon="3.6768">
        <ele>1212.84</ele>
        <time>2025-07-12T16:27:32Z</time>
      </trkpt>
      <trkpt lat="44.58151" lon="3.67711">
        <ele>1211.88</ele>
        <time>2025-07-12T16:27:16Z</time>
      </trkpt>
      <trkpt lat="44.5815" lon="3.67727">
        <ele>1211.4</ele>
        <time>2025-07-12T16:27:04Z</time>
      </trkpt>
      <trkpt lat="44.58144" lon="3.67754">
        <ele>1211.4</ele>
        <time>2025-07-12T16:26:49Z</time>
      </trkpt>
      <trkpt lat="44.58144" lon="3.67755">
        <ele>1211.4</ele>
        <time>2025-07-12T16:26:48Z</time>
      </trkpt>
      <trkpt lat="44.5814" lon="3.6778">
        <ele>1212.36</ele>
        <time>2025-07-12T16:26:34Z</time>
      </trkpt>
      <trkpt lat="44.58137" lon="3.67805">
        <ele>1214.28</ele>
        <time>2025-07-12T16:26:19Z</time>
      </trkpt>
      <trkpt lat="44.58131" lon="3.67833">
        <ele>1218.13</ele>
        <time>2025-07-12T16:26:05Z</time>
      </trkpt>
      <trkpt lat="44.5812" lon="3.67863">
        <ele>1216.21</ele>
        <time>2025-07-12T16:25:48Z</time>
      </trkpt>
      <trkpt lat="44.58116" lon="3.67892">
        <ele>1211.4</ele>
        <time>2025-07-12T16:25:30Z</time>
      </trkpt>
      <trkpt lat="44.58111" lon="3.67915">
        <ele>1208.03</ele>
        <time>2025-07-12T16:25:16Z</time>
      </trkpt>
      <trkpt lat="44.58106" lon="3.67935">
        <ele>1205.15</ele>
        <time>2025-07-12T16:25:04Z</time>
      </trkpt>
      <trkpt lat="44.58099" lon="3.67964">
        <ele>1201.79</ele>
        <time>2025-07-12T16:24:46Z</time>
      </trkpt>
      <trkpt lat="44.5809" lon="3.67993">
        <ele>1201.3</ele>
        <time>2025-07-12T16:24:29Z</time>
      </trkpt>
      <trkpt lat="44.58082" lon="3.68024">
        <ele>1201.79</ele>
        <time>2025-07-12T16:24:12Z</time>
      </trkpt>
      <trkpt lat="44.58072" lon="3.68057">
        <ele>1201.3</ele>
        <time>2025-07-12T16:23:53Z</time>
      </trkpt>
      <trkpt lat="44.58066" lon="3.68082">
        <ele>1201.3</ele>
        <time>2025-07-12T16:23:38Z</time>
      </trkpt>
      <trkpt lat="44.5806" lon="3.68108">
        <ele>1201.3</ele>
        <time>2025-07-12T16:23:23Z</time>
      </trkpt>
      <trkpt lat="44.58055" lon="3.68139">
        <ele>1202.27</ele>
        <time>2025-07-12T16:23:06Z</time>
      </trkpt>
      <trkpt lat="44.5805" lon="3.68169">
        <ele>1203.23</ele>
        <time>2025-07-12T16:22:48Z</time>
      </trkpt>
      <trkpt lat="44.58047" lon="3.68198">
        <ele>1204.67</ele>
        <time>2025-07-12T16:22:32Z</time>
      </trkpt>
      <trkpt lat="44.58042" lon="3.68233">
        <ele>1206.59</ele>
        <time>2025-07-12T16:22:12Z</time>
      </trkpt>
      <trkpt lat="44.58036" lon="3.68259">
        <ele>1207.55</ele>
        <time>2025-07-12T16:21:57Z</time>
      </trkpt>
      <trkpt lat="44.58033" lon="3.68282">
        <ele>1208.51</ele>
        <time>2025-07-12T16:21:43Z</time>
      </trkpt>
      <trkpt lat="44.58028" lon="3.6831">
        <ele>1210.44</ele>
        <time>2025-07-12T16:21:26Z</time>
      </trkpt>
      <trkpt lat="44.58024" lon="3.68338">
        <ele>1211.4</ele>
        <time>2025-07-12T16:21:11Z</time>
      </trkpt>
      <trkpt lat="44.58021" lon="3.68363">
        <ele>1213.8</ele>
        <time>2025-07-12T16:20:55Z</time>
      </trkpt>
      <trkpt lat="44.5802" lon="3.68383">
        <ele>1211.88</ele>
        <time>2025-07-12T16:20:38Z</time>
      </trkpt>
      <trkpt lat="44.5802" lon="3.68402">
        <ele>1208.51</ele>
        <time>2025-07-12T16:20:24Z</time>
      </trkpt>
      <trkpt lat="44.58021" lon="3.68409">
        <ele>1209.96</ele>
        <time>2025-07-12T16:20:12Z</time>
      </trkpt>
      <trkpt lat="44.58017" lon="3.68401">
        <ele>1213.8</ele>
        <time>2025-07-12T16:19:55Z</time>
      </trkpt>
      <trkpt lat="44.58015" lon="3.68401">
        <ele>1210.92</ele>
        <time>2025-07-12T16:19:40Z</time>
      </trkpt>
      <trkpt lat="44.58016" lon="3.68404">
        <ele>1210.44</ele>
        <time>2025-07-12T16:19:16Z</time>
      </trkpt>
      <trkpt lat="44.58017" lon="3.68408">
        <ele>1208.03</ele>
        <time>2025-07-12T16:18:51Z</time>
      </trkpt>
      <trkpt lat="44.58018" lon="3.6842">
        <ele>1202.75</ele>
        <time>2025-07-12T16:18:32Z</time>
      </trkpt>
      <trkpt lat="44.58013" lon="3.68433">
        <ele>1198.42</ele>
        <time>2025-07-12T16:18:06Z</time>
      </trkpt>
      <trkpt lat="44.58015" lon="3.68451">
        <ele>1200.34</ele>
        <time>2025-07-12T16:17:51Z</time>
      </trkpt>
      <trkpt lat="44.58017" lon="3.68456">
        <ele>1200.34</ele>
        <time>2025-07-12T16:17:47Z</time>
      </trkpt>
      <trkpt lat="44.58017" lon="3.68483">
        <ele>1199.38</ele>
        <time>2025-07-12T16:17:31Z</time>
      </trkpt>
      <trkpt lat="44.58014" lon="3.68518">
        <ele>1197.94</ele>
        <time>2025-07-12T16:17:16Z</time>
      </trkpt>
      <trkpt lat="44.58013" lon="3.68549">
        <ele>1198.9</ele>
        <time>2025-07-12T16:16:59Z</time>
      </trkpt>
      <trkpt lat="44.58018" lon="3.68569">
        <ele>1201.79</ele>
        <time>2025-07-12T16:16:43Z</time>
      </trkpt>
      <trkpt lat="44.58019" lon="3.68573">
        <ele>1201.79</ele>
        <time>2025-07-12T16:16:40Z</time>
      </trkpt>
      <trkpt lat="44.58018" lon="3.68575">
        <ele>1201.79</ele>
        <time>2025-07-12T16:16:39Z</time>
      </trkpt>
      <trkpt lat="44.58018" lon="3.68577">
        <ele>1201.79</ele>
        <time>2025-07-12T16:16:38Z</time>
      </trkpt>
      <trkpt lat="44.58019" lon="3.68594">
        <ele>1201.79</ele>
        <time>2025-07-12T16:16:29Z</time>
      </trkpt>
      <trkpt lat="44.58019" lon="3.68596">
        <ele>1201.79</ele>
        <time>2025-07-12T16:16:28Z</time>
      </trkpt>
      <trkpt lat="44.58019" lon="3.68598">
        <ele>1201.79</ele>
        <time>2025-07-12T16:16:27Z</time>
      </trkpt>
      <trkpt lat="44.58019" lon="3.686">
        <ele>1201.79</ele>
        <time>2025-07-12T16:16:26Z</time>
      </trkpt>
      <trkpt lat="44.58019" lon="3.68601">
        <ele>1201.79</ele>
        <time>2025-07-12T16:16:25Z</time>
      </trkpt>
      <trkpt lat="44.58019" lon="3.68603">
        <ele>1202.27</ele>
        <time>2025-07-12T16:16:24Z</time>
      </trkpt>
      <trkpt lat="44.58019" lon="3.68618">
        <ele>1202.27</ele>
        <time>2025-07-12T16:16:15Z</time>
      </trkpt>
      <trkpt lat="44.58021" lon="3.68645">
        <ele>1201.79</ele>
        <time>2025-07-12T16:16:00Z</time>
      </trkpt>
      <trkpt lat="44.58021" lon="3.68647">
        <ele>1201.79</ele>
        <time>2025-07-12T16:15:59Z</time>
      </trkpt>
      <trkpt lat="44.58021" lon="3.68649">
        <ele>1201.79</ele>
        <time>2025-07-12T16:15:58Z</time>
      </trkpt>
      <trkpt lat="44.58023" lon="3.68675">
        <ele>1202.27</ele>
        <time>2025-07-12T16:15:43Z</time>
      </trkpt>
      <trkpt lat="44.58024" lon="3.68707">
        <ele>1202.75</ele>
        <time>2025-07-12T16:15:26Z</time>
      </trkpt>
      <trkpt lat="44.58024" lon="3.68738">
        <ele>1203.23</ele>
        <time>2025-07-12T16:15:09Z</time>
      </trkpt>
      <trkpt lat="44.58019" lon="3.68774">
        <ele>1205.63</ele>
        <time>2025-07-12T16:14:52Z</time>
      </trkpt>
      <trkpt lat="44.58013" lon="3.68815">
        <ele>1206.59</ele>
        <time>2025-07-12T16:14:32Z</time>
      </trkpt>
      <trkpt lat="44.58011" lon="3.68847">
        <ele>1204.67</ele>
        <time>2025-07-12T16:14:15Z</time>
      </trkpt>
      <trkpt lat="44.58011" lon="3.68875">
        <ele>1205.15</ele>
        <time>2025-07-12T16:13:57Z</time>
      </trkpt>
      <trkpt lat="44.58007" lon="3.68907">
        <ele>1206.59</ele>
        <time>2025-07-12T16:13:42Z</time>
      </trkpt>
      <trkpt lat="44.58007" lon="3.68911">
        <ele>1207.55</ele>
        <time>2025-07-12T16:13:39Z</time>
      </trkpt>
      <trkpt lat="44.58008" lon="3.68913">
        <ele>1207.55</ele>
        <time>2025-07-12T16:13:38Z</time>
      </trkpt>
      <trkpt lat="44.58009" lon="3.68914">
        <ele>1207.55</ele>
        <time>2025-07-12T16:13:37Z</time>
      </trkpt>
      <trkpt lat="44.58009" lon="3.68922">
        <ele>1208.03</ele>
        <time>2025-07-12T16:13:31Z</time>
      </trkpt>
      <trkpt lat="44.58007" lon="3.68953">
        <ele>1208.03</ele>
        <time>2025-07-12T16:13:15Z</time>
      </trkpt>
      <trkpt lat="44.58006" lon="3.68963">
        <ele>1208.03</ele>
        <time>2025-07-12T16:13:10Z</time>
      </trkpt>
      <trkpt lat="44.58007" lon="3.68992">
        <ele>1206.11</ele>
        <time>2025-07-12T16:12:53Z</time>
      </trkpt>
      <trkpt lat="44.58007" lon="3.68994">
        <ele>1206.11</ele>
        <time>2025-07-12T16:12:52Z</time>
      </trkpt>
      <trkpt lat="44.58007" lon="3.69016">
        <ele>1205.15</ele>
        <time>2025-07-12T16:12:37Z</time>
      </trkpt>
      <trkpt lat="44.58002" lon="3.69048">
        <ele>1202.27</ele>
        <time>2025-07-12T16:12:22Z</time>
      </trkpt>
      <trkpt lat="44.58003" lon="3.69081">
        <ele>1200.82</ele>
        <time>2025-07-12T16:12:04Z</time>
      </trkpt>
      <trkpt lat="44.58008" lon="3.69117">
        <ele>1196.02</ele>
        <time>2025-07-12T16:11:45Z</time>
      </trkpt>
      <trkpt lat="44.58012" lon="3.69153">
        <ele>1193.13</ele>
        <time>2025-07-12T16:11:25Z</time>
      </trkpt>
      <trkpt lat="44.58014" lon="3.6919">
        <ele>1196.98</ele>
        <time>2025-07-12T16:11:05Z</time>
      </trkpt>
      <trkpt lat="44.5802" lon="3.69225">
        <ele>1200.82</ele>
        <time>2025-07-12T16:10:44Z</time>
      </trkpt>
      <trkpt lat="44.58022" lon="3.69248">
        <ele>1199.86</ele>
        <time>2025-07-12T16:10:29Z</time>
      </trkpt>
      <trkpt lat="44.58024" lon="3.69275">
        <ele>1199.86</ele>
        <time>2025-07-12T16:10:12Z</time>
      </trkpt>
      <trkpt lat="44.58026" lon="3.69303">
        <ele>1199.86</ele>
        <time>2025-07-12T16:09:57Z</time>
      </trkpt>
      <trkpt lat="44.58021" lon="3.69329">
        <ele>1201.3</ele>
        <time>2025-07-12T16:09:41Z</time>
      </trkpt>
      <trkpt lat="44.58018" lon="3.69357">
        <ele>1203.23</ele>
        <time>2025-07-12T16:09:23Z</time>
      </trkpt>
      <trkpt lat="44.58016" lon="3.69382">
        <ele>1198.9</ele>
        <time>2025-07-12T16:09:09Z</time>
      </trkpt>
      <trkpt lat="44.58015" lon="3.69416">
        <ele>1197.46</ele>
        <time>2025-07-12T16:08:52Z</time>
      </trkpt>
      <trkpt lat="44.58014" lon="3.69453">
        <ele>1198.9</ele>
        <time>2025-07-12T16:08:34Z</time>
      </trkpt>
      <trkpt lat="44.58016" lon="3.6949">
        <ele>1204.67</ele>
        <time>2025-07-12T16:08:15Z</time>
      </trkpt>
      <trkpt lat="44.58019" lon="3.69519">
        <ele>1208.03</ele>
        <time>2025-07-12T16:07:59Z</time>
      </trkpt>
      <trkpt lat="44.58019" lon="3.69521">
        <ele>1208.03</ele>
        <time>2025-07-12T16:07:58Z</time>
      </trkpt>
      <trkpt lat="44.58025" lon="3.69541">
        <ele>1209</ele>
        <time>2025-07-12T16:07:45Z</time>
      </trkpt>
      <trkpt lat="44.58025" lon="3.69575">
        <ele>1211.4</ele>
        <time>2025-07-12T16:07:28Z</time>
      </trkpt>
      <trkpt lat="44.58026" lon="3.69607">
        <ele>1212.84</ele>
        <time>2025-07-12T16:07:11Z</time>
      </trkpt>
      <trkpt lat="44.58025" lon="3.69637">
        <ele>1214.28</ele>
        <time>2025-07-12T16:06:56Z</time>
      </trkpt>
      <trkpt lat="44.58021" lon="3.69675">
        <ele>1217.17</ele>
        <time>2025-07-12T16:06:39Z</time>
      </trkpt>
      <trkpt lat="44.5802" lon="3.69712">
        <ele>1215.72</ele>
        <time>2025-07-12T16:06:21Z</time>
      </trkpt>
      <trkpt lat="44.58016" lon="3.69747">
        <ele>1211.4</ele>
        <time>2025-07-12T16:06:06Z</time>
      </trkpt>
      <trkpt lat="44.58019" lon="3.69772">
        <ele>1210.44</ele>
        <time>2025-07-12T16:05:48Z</time>
      </trkpt>
      <trkpt lat="44.58018" lon="3.69805">
        <ele>1210.92</ele>
        <time>2025-07-12T16:05:32Z</time>
      </trkpt>
      <trkpt lat="44.58015" lon="3.69835">
        <ele>1209.96</ele>
        <time>2025-07-12T16:05:17Z</time>
      </trkpt>
      <trkpt lat="44.58018" lon="3.6987">
        <ele>1206.59</ele>
        <time>2025-07-12T16:04:58Z</time>
      </trkpt>
      <trkpt lat="44.58019" lon="3.69896">
        <ele>1205.15</ele>
        <time>2025-07-12T16:04:43Z</time>
      </trkpt>
      <trkpt lat="44.5802" lon="3.69925">
        <ele>1204.19</ele>
        <time>2025-07-12T16:04:26Z</time>
      </trkpt>
      <trkpt lat="44.58021" lon="3.69954">
        <ele>1204.67</ele>
        <time>2025-07-12T16:04:08Z</time>
      </trkpt>
      <trkpt lat="44.5802" lon="3.69984">
        <ele>1205.63</ele>
        <time>2025-07-12T16:03:50Z</time>
      </trkpt>
      <trkpt lat="44.58018" lon="3.69996">
        <ele>1205.15</ele>
        <time>2025-07-12T16:03:36Z</time>
      </trkpt>
      <trkpt lat="44.58019" lon="3.70004">
        <ele>1207.07</ele>
        <time>2025-07-12T16:03:06Z</time>
      </trkpt>
      <trkpt lat="44.58019" lon="3.70029">
        <ele>1209</ele>
        <time>2025-07-12T16:02:49Z</time>
      </trkpt>
      <trkpt lat="44.58017" lon="3.7006">
        <ele>1209.48</ele>
        <time>2025-07-12T16:02:33Z</time>
      </trkpt>
      <trkpt lat="44.58014" lon="3.70098">
        <ele>1211.88</ele>
        <time>2025-07-12T16:02:15Z</time>
      </trkpt>
      <trkpt lat="44.58013" lon="3.7014">
        <ele>1213.32</ele>
        <time>2025-07-12T16:01:53Z</time>
      </trkpt>
      <trkpt lat="44.58014" lon="3.70176">
        <ele>1216.21</ele>
        <time>2025-07-12T16:01:34Z</time>
      </trkpt>
      <trkpt lat="44.58013" lon="3.70207">
        <ele>1219.57</ele>
        <time>2025-07-12T16:01:18Z</time>
      </trkpt>
      <trkpt lat="44.58012" lon="3.70237">
        <ele>1222.45</ele>
        <time>2025-07-12T16:01:03Z</time>
      </trkpt>
      <trkpt lat="44.58006" lon="3.70274">
        <ele>1223.9</ele>
        <time>2025-07-12T16:00:46Z</time>
      </trkpt>
      <trkpt lat="44.58002" lon="3.70308">
        <ele>1221.01</ele>
        <time>2025-07-12T16:00:31Z</time>
      </trkpt>
      <trkpt lat="44.58003" lon="3.70343">
        <ele>1219.09</ele>
        <time>2025-07-12T16:00:14Z</time>
      </trkpt>
      <trkpt lat="44.58007" lon="3.70366">
        <ele>1216.69</ele>
        <time>2025-07-12T15:59:57Z</time>
      </trkpt>
      <trkpt lat="44.58007" lon="3.70368">
        <ele>1216.69</ele>
        <time>2025-07-12T15:59:56Z</time>
      </trkpt>
      <trkpt lat="44.58007" lon="3.7037">
        <ele>1216.69</ele>
        <time>2025-07-12T15:59:55Z</time>
      </trkpt>
      <trkpt lat="44.58007" lon="3.70373">
        <ele>1216.69</ele>
        <time>2025-07-12T15:59:54Z</time>
      </trkpt>
      <trkpt lat="44.58007" lon="3.70375">
        <ele>1216.69</ele>
        <time>2025-07-12T15:59:53Z</time>
      </trkpt>
      <trkpt lat="44.58006" lon="3.70377">
        <ele>1216.69</ele>
        <time>2025-07-12T15:59:52Z</time>
      </trkpt>
      <trkpt lat="44.58006" lon="3.70379">
        <ele>1216.69</ele>
        <time>2025-07-12T15:59:51Z</time>
      </trkpt>
      <trkpt lat="44.58006" lon="3.70393">
        <ele>1216.69</ele>
        <time>2025-07-12T15:59:43Z</time>
      </trkpt>
      <trkpt lat="44.58003" lon="3.70429">
        <ele>1216.69</ele>
        <time>2025-07-12T15:59:27Z</time>
      </trkpt>
      <trkpt lat="44.57999" lon="3.70461">
        <ele>1212.36</ele>
        <time>2025-07-12T15:59:11Z</time>
      </trkpt>
      <trkpt lat="44.57999" lon="3.7049">
        <ele>1208.51</ele>
        <time>2025-07-12T15:58:55Z</time>
      </trkpt>
      <trkpt lat="44.57997" lon="3.7052">
        <ele>1207.07</ele>
        <time>2025-07-12T15:58:40Z</time>
      </trkpt>
      <trkpt lat="44.57998" lon="3.70553">
        <ele>1204.67</ele>
        <time>2025-07-12T15:58:22Z</time>
      </trkpt>
      <trkpt lat="44.57998" lon="3.70584">
        <ele>1203.23</ele>
        <time>2025-07-12T15:58:05Z</time>
      </trkpt>
      <trkpt lat="44.57999" lon="3.70586">
        <ele>1203.71</ele>
        <time>2025-07-12T15:58:04Z</time>
      </trkpt>
      <trkpt lat="44.57999" lon="3.70594">
        <ele>1204.19</ele>
        <time>2025-07-12T15:58:00Z</time>
      </trkpt>
      <trkpt lat="44.58001" lon="3.70617">
        <ele>1204.67</ele>
        <time>2025-07-12T15:57:46Z</time>
      </trkpt>
      <trkpt lat="44.58016" lon="3.70641">
        <ele>1204.67</ele>
        <time>2025-07-12T15:57:29Z</time>
      </trkpt>
      <trkpt lat="44.58036" lon="3.70668">
        <ele>1204.19</ele>
        <time>2025-07-12T15:57:10Z</time>
      </trkpt>
      <trkpt lat="44.58059" lon="3.70696">
        <ele>1204.19</ele>
        <time>2025-07-12T15:56:52Z</time>
      </trkpt>
      <trkpt lat="44.58087" lon="3.70718">
        <ele>1204.67</ele>
        <time>2025-07-12T15:56:30Z</time>
      </trkpt>
      <trkpt lat="44.58105" lon="3.70731">
        <ele>1204.67</ele>
        <time>2025-07-12T15:56:16Z</time>
      </trkpt>
      <trkpt lat="44.58125" lon="3.70747">
        <ele>1204.19</ele>
        <time>2025-07-12T15:56:00Z</time>
      </trkpt>
      <trkpt lat="44.58146" lon="3.70762">
        <ele>1201.79</ele>
        <time>2025-07-12T15:55:43Z</time>
      </trkpt>
      <trkpt lat="44.58166" lon="3.70779">
        <ele>1201.3</ele>
        <time>2025-07-12T15:55:27Z</time>
      </trkpt>
      <trkpt lat="44.58182" lon="3.70786">
        <ele>1203.23</ele>
        <time>2025-07-12T15:55:13Z</time>
      </trkpt>
      <trkpt lat="44.58203" lon="3.70789">
        <ele>1203.71</ele>
        <time>2025-07-12T15:54:56Z</time>
      </trkpt>
      <trkpt lat="44.58204" lon="3.70789">
        <ele>1203.71</ele>
        <time>2025-07-12T15:54:55Z</time>
      </trkpt>
      <trkpt lat="44.58205" lon="3.70789">
        <ele>1204.19</ele>
        <time>2025-07-12T15:54:54Z</time>
      </trkpt>
      <trkpt lat="44.5821" lon="3.7079">
        <ele>1204.67</ele>
        <time>2025-07-12T15:54:50Z</time>
      </trkpt>
      <trkpt lat="44.58214" lon="3.70786">
        <ele>1204.19</ele>
        <time>2025-07-12T15:54:45Z</time>
      </trkpt>
      <trkpt lat="44.58229" lon="3.70782">
        <ele>1203.71</ele>
        <time>2025-07-12T15:54:34Z</time>
      </trkpt>
      <trkpt lat="44.58257" lon="3.7077">
        <ele>1204.67</ele>
        <time>2025-07-12T15:54:15Z</time>
      </trkpt>
      <trkpt lat="44.58281" lon="3.70762">
        <ele>1204.67</ele>
        <time>2025-07-12T15:53:58Z</time>
      </trkpt>
      <trkpt lat="44.58311" lon="3.70751">
        <ele>1204.19</ele>
        <time>2025-07-12T15:53:39Z</time>
      </trkpt>
      <trkpt lat="44.58336" lon="3.70744">
        <ele>1204.19</ele>
        <time>2025-07-12T15:53:21Z</time>
      </trkpt>
      <trkpt lat="44.58361" lon="3.70739">
        <ele>1204.19</ele>
        <time>2025-07-12T15:53:03Z</time>
      </trkpt>
      <trkpt lat="44.58384" lon="3.70738">
        <ele>1203.71</ele>
        <time>2025-07-12T15:52:46Z</time>
      </trkpt>
      <trkpt lat="44.58404" lon="3.70728">
        <ele>1203.23</ele>
        <time>2025-07-12T15:52:30Z</time>
      </trkpt>
      <trkpt lat="44.58435" lon="3.70716">
        <ele>1204.67</ele>
        <time>2025-07-12T15:52:09Z</time>
      </trkpt>
      <trkpt lat="44.5846" lon="3.70704">
        <ele>1204.19</ele>
        <time>2025-07-12T15:51:50Z</time>
      </trkpt>
      <trkpt lat="44.58476" lon="3.707">
        <ele>1203.71</ele>
        <time>2025-07-12T15:51:38Z</time>
      </trkpt>
      <trkpt lat="44.58499" lon="3.70683">
        <ele>1202.27</ele>
        <time>2025-07-12T15:51:20Z</time>
      </trkpt>
      <trkpt lat="44.58518" lon="3.7066">
        <ele>1202.27</ele>
        <time>2025-07-12T15:51:03Z</time>
      </trkpt>
      <trkpt lat="44.58542" lon="3.70647">
        <ele>1202.75</ele>
        <time>2025-07-12T15:50:45Z</time>
      </trkpt>
      <trkpt lat="44.58572" lon="3.70632">
        <ele>1202.75</ele>
        <time>2025-07-12T15:50:24Z</time>
      </trkpt>
      <trkpt lat="44.58598" lon="3.70619">
        <ele>1203.23</ele>
        <time>2025-07-12T15:50:05Z</time>
      </trkpt>
      <trkpt lat="44.58629" lon="3.706">
        <ele>1203.71</ele>
        <time>2025-07-12T15:49:43Z</time>
      </trkpt>
      <trkpt lat="44.58654" lon="3.70582">
        <ele>1204.67</ele>
        <time>2025-07-12T15:49:24Z</time>
      </trkpt>
      <trkpt lat="44.58683" lon="3.70568">
        <ele>1207.55</ele>
        <time>2025-07-12T15:49:05Z</time>
      </trkpt>
      <trkpt lat="44.58693" lon="3.70563">
        <ele>1207.07</ele>
        <time>2025-07-12T15:48:53Z</time>
      </trkpt>
      <trkpt lat="44.58715" lon="3.70548">
        <ele>1207.55</ele>
        <time>2025-07-12T15:48:36Z</time>
      </trkpt>
      <trkpt lat="44.58737" lon="3.70534">
        <ele>1207.55</ele>
        <time>2025-07-12T15:48:19Z</time>
      </trkpt>
      <trkpt lat="44.58761" lon="3.70517">
        <ele>1208.51</ele>
        <time>2025-07-12T15:48:01Z</time>
      </trkpt>
      <trkpt lat="44.58788" lon="3.705">
        <ele>1209.96</ele>
        <time>2025-07-12T15:47:41Z</time>
      </trkpt>
      <trkpt lat="44.58813" lon="3.70489">
        <ele>1209</ele>
        <time>2025-07-12T15:47:23Z</time>
      </trkpt>
      <trkpt lat="44.58838" lon="3.70469">
        <ele>1209.96</ele>
        <time>2025-07-12T15:47:05Z</time>
      </trkpt>
      <trkpt lat="44.5886" lon="3.70445">
        <ele>1212.84</ele>
        <time>2025-07-12T15:46:46Z</time>
      </trkpt>
      <trkpt lat="44.58881" lon="3.70424">
        <ele>1213.32</ele>
        <time>2025-07-12T15:46:28Z</time>
      </trkpt>
      <trkpt lat="44.58902" lon="3.70403">
        <ele>1215.72</ele>
        <time>2025-07-12T15:46:11Z</time>
      </trkpt>
      <trkpt lat="44.58928" lon="3.70382">
        <ele>1218.61</ele>
        <time>2025-07-12T15:45:52Z</time>
      </trkpt>
      <trkpt lat="44.5895" lon="3.70365">
        <ele>1219.57</ele>
        <time>2025-07-12T15:45:34Z</time>
      </trkpt>
      <trkpt lat="44.58975" lon="3.70354">
        <ele>1221.01</ele>
        <time>2025-07-12T15:45:17Z</time>
      </trkpt>
      <trkpt lat="44.58999" lon="3.70345">
        <ele>1224.38</ele>
        <time>2025-07-12T15:45:00Z</time>
      </trkpt>
      <trkpt lat="44.59021" lon="3.7034">
        <ele>1226.3</ele>
        <time>2025-07-12T15:44:43Z</time>
      </trkpt>
      <trkpt lat="44.59049" lon="3.70325">
        <ele>1227.26</ele>
        <time>2025-07-12T15:44:24Z</time>
      </trkpt>
      <trkpt lat="44.59072" lon="3.70312">
        <ele>1228.7</ele>
        <time>2025-07-12T15:44:09Z</time>
      </trkpt>
      <trkpt lat="44.59096" lon="3.70294">
        <ele>1230.62</ele>
        <time>2025-07-12T15:43:51Z</time>
      </trkpt>
      <trkpt lat="44.59128" lon="3.70275">
        <ele>1232.55</ele>
        <time>2025-07-12T15:43:28Z</time>
      </trkpt>
      <trkpt lat="44.59154" lon="3.7026">
        <ele>1233.99</ele>
        <time>2025-07-12T15:43:09Z</time>
      </trkpt>
      <trkpt lat="44.59181" lon="3.70245">
        <ele>1235.43</ele>
        <time>2025-07-12T15:42:50Z</time>
      </trkpt>
      <trkpt lat="44.59208" lon="3.7022">
        <ele>1238.32</ele>
        <time>2025-07-12T15:42:28Z</time>
      </trkpt>
      <trkpt lat="44.59235" lon="3.70198">
        <ele>1240.24</ele>
        <time>2025-07-12T15:42:07Z</time>
      </trkpt>
      <trkpt lat="44.59263" lon="3.70184">
        <ele>1242.16</ele>
        <time>2025-07-12T15:41:47Z</time>
      </trkpt>
      <trkpt lat="44.59291" lon="3.70166">
        <ele>1244.08</ele>
        <time>2025-07-12T15:41:29Z</time>
      </trkpt>
      <trkpt lat="44.59317" lon="3.70143">
        <ele>1246.97</ele>
        <time>2025-07-12T15:41:10Z</time>
      </trkpt>
      <trkpt lat="44.59341" lon="3.70124">
        <ele>1248.41</ele>
        <time>2025-07-12T15:40:53Z</time>
      </trkpt>
      <trkpt lat="44.59363" lon="3.70099">
        <ele>1252.74</ele>
        <time>2025-07-12T15:40:35Z</time>
      </trkpt>
      <trkpt lat="44.59373" lon="3.70089">
        <ele>1255.14</ele>
        <time>2025-07-12T15:40:18Z</time>
      </trkpt>
      <trkpt lat="44.59395" lon="3.70069">
        <ele>1258.02</ele>
        <time>2025-07-12T15:40:02Z</time>
      </trkpt>
      <trkpt lat="44.59418" lon="3.70046">
        <ele>1260.43</ele>
        <time>2025-07-12T15:39:43Z</time>
      </trkpt>
      <trkpt lat="44.5945" lon="3.70022">
        <ele>1261.87</ele>
        <time>2025-07-12T15:39:21Z</time>
      </trkpt>
      <trkpt lat="44.59473" lon="3.70001">
        <ele>1258.5</ele>
        <time>2025-07-12T15:39:00Z</time>
      </trkpt>
      <trkpt lat="44.59493" lon="3.69977">
        <ele>1258.5</ele>
        <time>2025-07-12T15:38:43Z</time>
      </trkpt>
      <trkpt lat="44.59511" lon="3.69954">
        <ele>1258.5</ele>
        <time>2025-07-12T15:38:26Z</time>
      </trkpt>
      <trkpt lat="44.59532" lon="3.69938">
        <ele>1260.91</ele>
        <time>2025-07-12T15:38:11Z</time>
      </trkpt>
      <trkpt lat="44.59557" lon="3.69921">
        <ele>1263.31</ele>
        <time>2025-07-12T15:37:55Z</time>
      </trkpt>
      <trkpt lat="44.59583" lon="3.69898">
        <ele>1267.16</ele>
        <time>2025-07-12T15:37:37Z</time>
      </trkpt>
      <trkpt lat="44.59601" lon="3.69879">
        <ele>1265.71</ele>
        <time>2025-07-12T15:37:19Z</time>
      </trkpt>
      <trkpt lat="44.5962" lon="3.6986">
        <ele>1265.23</ele>
        <time>2025-07-12T15:37:04Z</time>
      </trkpt>
      <trkpt lat="44.59639" lon="3.69846">
        <ele>1265.23</ele>
        <time>2025-07-12T15:36:47Z</time>
      </trkpt>
      <trkpt lat="44.59662" lon="3.69827">
        <ele>1265.23</ele>
        <time>2025-07-12T15:36:30Z</time>
      </trkpt>
      <trkpt lat="44.59686" lon="3.69806">
        <ele>1264.27</ele>
        <time>2025-07-12T15:36:11Z</time>
      </trkpt>
      <trkpt lat="44.59707" lon="3.69788">
        <ele>1264.27</ele>
        <time>2025-07-12T15:35:54Z</time>
      </trkpt>
      <trkpt lat="44.59734" lon="3.69769">
        <ele>1265.71</ele>
        <time>2025-07-12T15:35:35Z</time>
      </trkpt>
      <trkpt lat="44.5976" lon="3.69744">
        <ele>1270.04</ele>
        <time>2025-07-12T15:35:14Z</time>
      </trkpt>
      <trkpt lat="44.5978" lon="3.69731">
        <ele>1271.48</ele>
        <time>2025-07-12T15:34:59Z</time>
      </trkpt>
      <trkpt lat="44.598" lon="3.69708">
        <ele>1273.88</ele>
        <time>2025-07-12T15:34:42Z</time>
      </trkpt>
      <trkpt lat="44.59827" lon="3.69683">
        <ele>1276.77</ele>
        <time>2025-07-12T15:34:21Z</time>
      </trkpt>
      <trkpt lat="44.59843" lon="3.69658">
        <ele>1278.21</ele>
        <time>2025-07-12T15:34:05Z</time>
      </trkpt>
      <trkpt lat="44.59861" lon="3.69637">
        <ele>1280.13</ele>
        <time>2025-07-12T15:33:49Z</time>
      </trkpt>
      <trkpt lat="44.59878" lon="3.69614">
        <ele>1278.21</ele>
        <time>2025-07-12T15:33:30Z</time>
      </trkpt>
      <trkpt lat="44.59896" lon="3.69592">
        <ele>1279.17</ele>
        <time>2025-07-12T15:33:14Z</time>
      </trkpt>
      <trkpt lat="44.59912" lon="3.69567">
        <ele>1277.25</ele>
        <time>2025-07-12T15:32:55Z</time>
      </trkpt>
      <trkpt lat="44.59913" lon="3.69566">
        <ele>1277.25</ele>
        <time>2025-07-12T15:32:54Z</time>
      </trkpt>
      <trkpt lat="44.59919" lon="3.69557">
        <ele>1275.81</ele>
        <time>2025-07-12T15:32:46Z</time>
      </trkpt>
      <trkpt lat="44.59933" lon="3.69534">
        <ele>1274.36</ele>
        <time>2025-07-12T15:32:30Z</time>
      </trkpt>
      <trkpt lat="44.59953" lon="3.69507">
        <ele>1275.81</ele>
        <time>2025-07-12T15:32:11Z</time>
      </trkpt>
      <trkpt lat="44.59955" lon="3.69506">
        <ele>1275.81</ele>
        <time>2025-07-12T15:32:10Z</time>
      </trkpt>
      <trkpt lat="44.59956" lon="3.69504">
        <ele>1275.33</ele>
        <time>2025-07-12T15:32:09Z</time>
      </trkpt>
      <trkpt lat="44.5998" lon="3.6949">
        <ele>1276.29</ele>
        <time>2025-07-12T15:31:51Z</time>
      </trkpt>
      <trkpt lat="44.60003" lon="3.69486">
        <ele>1272.92</ele>
        <time>2025-07-12T15:31:33Z</time>
      </trkpt>
      <trkpt lat="44.60022" lon="3.69474">
        <ele>1271</ele>
        <time>2025-07-12T15:31:14Z</time>
      </trkpt>
      <trkpt lat="44.60042" lon="3.69461">
        <ele>1271</ele>
        <time>2025-07-12T15:30:56Z</time>
      </trkpt>
      <trkpt lat="44.60065" lon="3.69448">
        <ele>1271</ele>
        <time>2025-07-12T15:30:39Z</time>
      </trkpt>
      <trkpt lat="44.60088" lon="3.69436">
        <ele>1272.44</ele>
        <time>2025-07-12T15:30:22Z</time>
      </trkpt>
      <trkpt lat="44.60115" lon="3.69433">
        <ele>1273.4</ele>
        <time>2025-07-12T15:30:01Z</time>
      </trkpt>
      <trkpt lat="44.60142" lon="3.69436">
        <ele>1274.85</ele>
        <time>2025-07-12T15:29:41Z</time>
      </trkpt>
      <trkpt lat="44.60168" lon="3.69439">
        <ele>1274.36</ele>
        <time>2025-07-12T15:29:21Z</time>
      </trkpt>
      <trkpt lat="44.60192" lon="3.69445">
        <ele>1273.4</ele>
        <time>2025-07-12T15:29:02Z</time>
      </trkpt>
      <trkpt lat="44.60218" lon="3.69447">
        <ele>1273.4</ele>
        <time>2025-07-12T15:28:44Z</time>
      </trkpt>
      <trkpt lat="44.60237" lon="3.69447">
        <ele>1274.36</ele>
        <time>2025-07-12T15:28:30Z</time>
      </trkpt>
      <trkpt lat="44.60261" lon="3.6944">
        <ele>1273.88</ele>
        <time>2025-07-12T15:28:12Z</time>
      </trkpt>
      <trkpt lat="44.60283" lon="3.69437">
        <ele>1271.96</ele>
        <time>2025-07-12T15:27:55Z</time>
      </trkpt>
      <trkpt lat="44.60302" lon="3.69442">
        <ele>1272.44</ele>
        <time>2025-07-12T15:27:40Z</time>
      </trkpt>
      <trkpt lat="44.60324" lon="3.69454">
        <ele>1271</ele>
        <time>2025-07-12T15:27:23Z</time>
      </trkpt>
      <trkpt lat="44.60349" lon="3.69458">
        <ele>1271.48</ele>
        <time>2025-07-12T15:27:06Z</time>
      </trkpt>
      <trkpt lat="44.60379" lon="3.69453">
        <ele>1271.96</ele>
        <time>2025-07-12T15:26:47Z</time>
      </trkpt>
      <trkpt lat="44.60406" lon="3.69443">
        <ele>1274.36</ele>
        <time>2025-07-12T15:26:27Z</time>
      </trkpt>
      <trkpt lat="44.60436" lon="3.69432">
        <ele>1275.81</ele>
        <time>2025-07-12T15:26:08Z</time>
      </trkpt>
      <trkpt lat="44.60463" lon="3.69421">
        <ele>1276.77</ele>
        <time>2025-07-12T15:25:49Z</time>
      </trkpt>
      <trkpt lat="44.60499" lon="3.69403">
        <ele>1277.25</ele>
        <time>2025-07-12T15:25:24Z</time>
      </trkpt>
      <trkpt lat="44.60532" lon="3.69386">
        <ele>1278.21</ele>
        <time>2025-07-12T15:25:01Z</time>
      </trkpt>
      <trkpt lat="44.60557" lon="3.69372">
        <ele>1278.69</ele>
        <time>2025-07-12T15:24:43Z</time>
      </trkpt>
      <trkpt lat="44.60584" lon="3.69356">
        <ele>1281.09</ele>
        <time>2025-07-12T15:24:25Z</time>
      </trkpt>
      <trkpt lat="44.60608" lon="3.69342">
        <ele>1281.57</ele>
        <time>2025-07-12T15:24:08Z</time>
      </trkpt>
      <trkpt lat="44.60634" lon="3.69332">
        <ele>1286.38</ele>
        <time>2025-07-12T15:23:51Z</time>
      </trkpt>
      <trkpt lat="44.60657" lon="3.69319">
        <ele>1287.82</ele>
        <time>2025-07-12T15:23:33Z</time>
      </trkpt>
      <trkpt lat="44.60673" lon="3.6932">
        <ele>1288.3</ele>
        <time>2025-07-12T15:23:17Z</time>
      </trkpt>
      <trkpt lat="44.60694" lon="3.69331">
        <ele>1289.27</ele>
        <time>2025-07-12T15:23:00Z</time>
      </trkpt>
      <trkpt lat="44.60717" lon="3.69337">
        <ele>1291.67</ele>
        <time>2025-07-12T15:22:44Z</time>
      </trkpt>
      <trkpt lat="44.60738" lon="3.69344">
        <ele>1292.15</ele>
        <time>2025-07-12T15:22:29Z</time>
      </trkpt>
      <trkpt lat="44.60759" lon="3.69351">
        <ele>1290.23</ele>
        <time>2025-07-12T15:22:13Z</time>
      </trkpt>
      <trkpt lat="44.60786" lon="3.69362">
        <ele>1289.75</ele>
        <time>2025-07-12T15:21:54Z</time>
      </trkpt>
      <trkpt lat="44.60812" lon="3.69368">
        <ele>1291.19</ele>
        <time>2025-07-12T15:21:37Z</time>
      </trkpt>
      <trkpt lat="44.60838" lon="3.69365">
        <ele>1292.63</ele>
        <time>2025-07-12T15:21:20Z</time>
      </trkpt>
      <trkpt lat="44.60856" lon="3.69358">
        <ele>1293.11</ele>
        <time>2025-07-12T15:21:07Z</time>
      </trkpt>
      <trkpt lat="44.60879" lon="3.69353">
        <ele>1295.99</ele>
        <time>2025-07-12T15:20:52Z</time>
      </trkpt>
      <trkpt lat="44.60907" lon="3.69342">
        <ele>1301.28</ele>
        <time>2025-07-12T15:20:34Z</time>
      </trkpt>
      <trkpt lat="44.60935" lon="3.69322">
        <ele>1305.61</ele>
        <time>2025-07-12T15:20:17Z</time>
      </trkpt>
      <trkpt lat="44.60955" lon="3.69306">
        <ele>1306.57</ele>
        <time>2025-07-12T15:20:01Z</time>
      </trkpt>
      <trkpt lat="44.60976" lon="3.69283">
        <ele>1305.13</ele>
        <time>2025-07-12T15:19:43Z</time>
      </trkpt>
      <trkpt lat="44.61002" lon="3.69266">
        <ele>1308.01</ele>
        <time>2025-07-12T15:19:28Z</time>
      </trkpt>
      <trkpt lat="44.61019" lon="3.69248">
        <ele>1308.01</ele>
        <time>2025-07-12T15:19:13Z</time>
      </trkpt>
      <trkpt lat="44.61038" lon="3.69224">
        <ele>1308.49</ele>
        <time>2025-07-12T15:18:57Z</time>
      </trkpt>
      <trkpt lat="44.61057" lon="3.692">
        <ele>1308.97</ele>
        <time>2025-07-12T15:18:39Z</time>
      </trkpt>
      <trkpt lat="44.61078" lon="3.69183">
        <ele>1309.45</ele>
        <time>2025-07-12T15:18:25Z</time>
      </trkpt>
      <trkpt lat="44.611" lon="3.69163">
        <ele>1309.45</ele>
        <time>2025-07-12T15:18:10Z</time>
      </trkpt>
      <trkpt lat="44.61122" lon="3.69156">
        <ele>1314.26</ele>
        <time>2025-07-12T15:17:54Z</time>
      </trkpt>
      <trkpt lat="44.6114" lon="3.69151">
        <ele>1318.1</ele>
        <time>2025-07-12T15:17:41Z</time>
      </trkpt>
      <trkpt lat="44.61167" lon="3.69144">
        <ele>1322.43</ele>
        <time>2025-07-12T15:17:24Z</time>
      </trkpt>
      <trkpt lat="44.61192" lon="3.69142">
        <ele>1328.2</ele>
        <time>2025-07-12T15:17:08Z</time>
      </trkpt>
      <trkpt lat="44.61217" lon="3.69131">
        <ele>1331.08</ele>
        <time>2025-07-12T15:16:50Z</time>
      </trkpt>
      <trkpt lat="44.61241" lon="3.6912">
        <ele>1333.97</ele>
        <time>2025-07-12T15:16:31Z</time>
      </trkpt>
      <trkpt lat="44.61262" lon="3.6912">
        <ele>1336.37</ele>
        <time>2025-07-12T15:16:16Z</time>
      </trkpt>
      <trkpt lat="44.61291" lon="3.69103">
        <ele>1336.85</ele>
        <time>2025-07-12T15:15:54Z</time>
      </trkpt>
      <trkpt lat="44.6131" lon="3.69089">
        <ele>1337.33</ele>
        <time>2025-07-12T15:15:40Z</time>
      </trkpt>
      <trkpt lat="44.61332" lon="3.6907">
        <ele>1337.81</ele>
        <time>2025-07-12T15:15:23Z</time>
      </trkpt>
      <trkpt lat="44.61359" lon="3.69047">
        <ele>1336.85</ele>
        <time>2025-07-12T15:15:03Z</time>
      </trkpt>
      <trkpt lat="44.61377" lon="3.69039">
        <ele>1335.41</ele>
        <time>2025-07-12T15:14:45Z</time>
      </trkpt>
      <trkpt lat="44.61394" lon="3.69025">
        <ele>1333.97</ele>
        <time>2025-07-12T15:14:29Z</time>
      </trkpt>
      <trkpt lat="44.61396" lon="3.69024">
        <ele>1333.97</ele>
        <time>2025-07-12T15:14:27Z</time>
      </trkpt>
      <trkpt lat="44.61411" lon="3.69022">
        <ele>1331.56</ele>
        <time>2025-07-12T15:14:17Z</time>
      </trkpt>
      <trkpt lat="44.61432" lon="3.69011">
        <ele>1329.16</ele>
        <time>2025-07-12T15:14:00Z</time>
      </trkpt>
      <trkpt lat="44.61449" lon="3.69001">
        <ele>1327.72</ele>
        <time>2025-07-12T15:13:45Z</time>
      </trkpt>
      <trkpt lat="44.61465" lon="3.68995">
        <ele>1326.28</ele>
        <time>2025-07-12T15:13:31Z</time>
      </trkpt>
      <trkpt lat="44.61485" lon="3.68979">
        <ele>1324.35</ele>
        <time>2025-07-12T15:13:15Z</time>
      </trkpt>
      <trkpt lat="44.61501" lon="3.68966">
        <ele>1322.91</ele>
        <time>2025-07-12T15:13:01Z</time>
      </trkpt>
      <trkpt lat="44.6152" lon="3.68963">
        <ele>1324.83</ele>
        <time>2025-07-12T15:12:47Z</time>
      </trkpt>
      <trkpt lat="44.61545" lon="3.6897">
        <ele>1327.72</ele>
        <time>2025-07-12T15:12:30Z</time>
      </trkpt>
      <trkpt lat="44.61565" lon="3.68969">
        <ele>1329.16</ele>
        <time>2025-07-12T15:12:16Z</time>
      </trkpt>
      <trkpt lat="44.61589" lon="3.68976">
        <ele>1332.04</ele>
        <time>2025-07-12T15:12:00Z</time>
      </trkpt>
      <trkpt lat="44.61612" lon="3.68977">
        <ele>1332.52</ele>
        <time>2025-07-12T15:11:45Z</time>
      </trkpt>
      <trkpt lat="44.61637" lon="3.68971">
        <ele>1332.04</ele>
        <time>2025-07-12T15:11:31Z</time>
      </trkpt>
      <trkpt lat="44.61657" lon="3.68972">
        <ele>1329.16</ele>
        <time>2025-07-12T15:11:17Z</time>
      </trkpt>
      <trkpt lat="44.61681" lon="3.68974">
        <ele>1327.72</ele>
        <time>2025-07-12T15:11:02Z</time>
      </trkpt>
      <trkpt lat="44.61708" lon="3.68973">
        <ele>1326.76</ele>
        <time>2025-07-12T15:10:44Z</time>
      </trkpt>
      <trkpt lat="44.61733" lon="3.68976">
        <ele>1325.8</ele>
        <time>2025-07-12T15:10:27Z</time>
      </trkpt>
      <trkpt lat="44.61754" lon="3.68976">
        <ele>1326.28</ele>
        <time>2025-07-12T15:10:12Z</time>
      </trkpt>
      <trkpt lat="44.61783" lon="3.68975">
        <ele>1323.39</ele>
        <time>2025-07-12T15:09:57Z</time>
      </trkpt>
      <trkpt lat="44.61785" lon="3.68975">
        <ele>1322.91</ele>
        <time>2025-07-12T15:09:56Z</time>
      </trkpt>
      <trkpt lat="44.61812" lon="3.69013">
        <ele>1322.43</ele>
        <time>2025-07-12T15:09:28Z</time>
      </trkpt>
      <trkpt lat="44.61835" lon="3.69009">
        <ele>1325.8</ele>
        <time>2025-07-12T15:09:11Z</time>
      </trkpt>
      <trkpt lat="44.61836" lon="3.69008">
        <ele>1325.8</ele>
        <time>2025-07-12T15:09:10Z</time>
      </trkpt>
      <trkpt lat="44.61838" lon="3.69007">
        <ele>1325.8</ele>
        <time>2025-07-12T15:09:09Z</time>
      </trkpt>
      <trkpt lat="44.61841" lon="3.69007">
        <ele>1326.76</ele>
        <time>2025-07-12T15:09:07Z</time>
      </trkpt>
      <trkpt lat="44.61857" lon="3.6902">
        <ele>1333.97</ele>
        <time>2025-07-12T15:08:50Z</time>
      </trkpt>
      <trkpt lat="44.61872" lon="3.69026">
        <ele>1332.04</ele>
        <time>2025-07-12T15:08:36Z</time>
      </trkpt>
      <trkpt lat="44.61894" lon="3.69034">
        <ele>1328.68</ele>
        <time>2025-07-12T15:08:18Z</time>
      </trkpt>
      <trkpt lat="44.61917" lon="3.6903">
        <ele>1324.35</ele>
        <time>2025-07-12T15:08:02Z</time>
      </trkpt>
      <trkpt lat="44.61939" lon="3.69023">
        <ele>1320.03</ele>
        <time>2025-07-12T15:07:48Z</time>
      </trkpt>
      <trkpt lat="44.61963" lon="3.69019">
        <ele>1317.14</ele>
        <time>2025-07-12T15:07:31Z</time>
      </trkpt>
      <trkpt lat="44.61984" lon="3.69031">
        <ele>1311.38</ele>
        <time>2025-07-12T15:07:14Z</time>
      </trkpt>
      <trkpt lat="44.61987" lon="3.6904">
        <ele>1311.38</ele>
        <time>2025-07-12T15:07:09Z</time>
      </trkpt>
      <trkpt lat="44.61993" lon="3.69053">
        <ele>1310.41</ele>
        <time>2025-07-12T15:07:01Z</time>
      </trkpt>
      <trkpt lat="44.62" lon="3.69078">
        <ele>1312.34</ele>
        <time>2025-07-12T15:06:47Z</time>
      </trkpt>
      <trkpt lat="44.62009" lon="3.69102">
        <ele>1313.3</ele>
        <time>2025-07-12T15:06:32Z</time>
      </trkpt>
      <trkpt lat="44.62017" lon="3.69134">
        <ele>1312.82</ele>
        <time>2025-07-12T15:06:16Z</time>
      </trkpt>
      <trkpt lat="44.62024" lon="3.69152">
        <ele>1311.86</ele>
        <time>2025-07-12T15:06:02Z</time>
      </trkpt>
      <trkpt lat="44.62035" lon="3.69181">
        <ele>1311.86</ele>
        <time>2025-07-12T15:05:44Z</time>
      </trkpt>
      <trkpt lat="44.62044" lon="3.69211">
        <ele>1311.86</ele>
        <time>2025-07-12T15:05:26Z</time>
      </trkpt>
      <trkpt lat="44.62051" lon="3.69238">
        <ele>1311.86</ele>
        <time>2025-07-12T15:05:10Z</time>
      </trkpt>
      <trkpt lat="44.62068" lon="3.69268">
        <ele>1310.41</ele>
        <time>2025-07-12T15:04:51Z</time>
      </trkpt>
      <trkpt lat="44.62078" lon="3.69294">
        <ele>1310.41</ele>
        <time>2025-07-12T15:04:34Z</time>
      </trkpt>
      <trkpt lat="44.62097" lon="3.69303">
        <ele>1305.61</ele>
        <time>2025-07-12T15:04:17Z</time>
      </trkpt>
      <trkpt lat="44.62118" lon="3.69313">
        <ele>1298.4</ele>
        <time>2025-07-12T15:04:01Z</time>
      </trkpt>
      <trkpt lat="44.62131" lon="3.69328">
        <ele>1296.48</ele>
        <time>2025-07-12T15:03:46Z</time>
      </trkpt>
      <trkpt lat="44.62143" lon="3.6935">
        <ele>1294.55</ele>
        <time>2025-07-12T15:03:29Z</time>
      </trkpt>
      <trkpt lat="44.62144" lon="3.69352">
        <ele>1294.55</ele>
        <time>2025-07-12T15:03:28Z</time>
      </trkpt>
      <trkpt lat="44.62146" lon="3.69358">
        <ele>1295.03</ele>
        <time>2025-07-12T15:03:24Z</time>
      </trkpt>
      <trkpt lat="44.62155" lon="3.69382">
        <ele>1293.11</ele>
        <time>2025-07-12T15:03:08Z</time>
      </trkpt>
      <trkpt lat="44.62161" lon="3.69399">
        <ele>1291.67</ele>
        <time>2025-07-12T15:02:53Z</time>
      </trkpt>
      <trkpt lat="44.62171" lon="3.69425">
        <ele>1289.75</ele>
        <time>2025-07-12T15:02:35Z</time>
      </trkpt>
      <trkpt lat="44.62178" lon="3.69447">
        <ele>1289.27</ele>
        <time>2025-07-12T15:02:19Z</time>
      </trkpt>
      <trkpt lat="44.62192" lon="3.69463">
        <ele>1287.34</ele>
        <time>2025-07-12T15:02:03Z</time>
      </trkpt>
      <trkpt lat="44.622" lon="3.69484">
        <ele>1285.9</ele>
        <time>2025-07-12T15:01:49Z</time>
      </trkpt>
      <trkpt lat="44.6221" lon="3.69507">
        <ele>1283.98</ele>
        <time>2025-07-12T15:01:31Z</time>
      </trkpt>
      <trkpt lat="44.62217" lon="3.69529">
        <ele>1283.5</ele>
        <time>2025-07-12T15:01:16Z</time>
      </trkpt>
      <trkpt lat="44.62224" lon="3.69546">
        <ele>1284.46</ele>
        <time>2025-07-12T15:01:03Z</time>
      </trkpt>
      <trkpt lat="44.62234" lon="3.69566">
        <ele>1284.46</ele>
        <time>2025-07-12T15:00:48Z</time>
      </trkpt>
      <trkpt lat="44.62244" lon="3.69579">
        <ele>1284.46</ele>
        <time>2025-07-12T15:00:36Z</time>
      </trkpt>
      <trkpt lat="44.62244" lon="3.6958">
        <ele>1284.46</ele>
        <time>2025-07-12T15:00:35Z</time>
      </trkpt>
      <trkpt lat="44.62258" lon="3.69599">
        <ele>1285.42</ele>
        <time>2025-07-12T15:00:18Z</time>
      </trkpt>
      <trkpt lat="44.62259" lon="3.696">
        <ele>1285.9</ele>
        <time>2025-07-12T15:00:17Z</time>
      </trkpt>
      <trkpt lat="44.62269" lon="3.69614">
        <ele>1285.9</ele>
        <time>2025-07-12T15:00:05Z</time>
      </trkpt>
      <trkpt lat="44.6227" lon="3.69616">
        <ele>1285.9</ele>
        <time>2025-07-12T15:00:04Z</time>
      </trkpt>
      <trkpt lat="44.62281" lon="3.69633">
        <ele>1285.42</ele>
        <time>2025-07-12T14:59:51Z</time>
      </trkpt>
      <trkpt lat="44.62289" lon="3.69655">
        <ele>1283.5</ele>
        <time>2025-07-12T14:59:37Z</time>
      </trkpt>
      <trkpt lat="44.623" lon="3.69675">
        <ele>1285.42</ele>
        <time>2025-07-12T14:59:22Z</time>
      </trkpt>
      <trkpt lat="44.62304" lon="3.69681">
        <ele>1286.86</ele>
        <time>2025-07-12T14:59:11Z</time>
      </trkpt>
      <trkpt lat="44.62305" lon="3.69681">
        <ele>1285.42</ele>
        <time>2025-07-12T14:58:49Z</time>
      </trkpt>
      <trkpt lat="44.62305" lon="3.69683">
        <ele>1282.54</ele>
        <time>2025-07-12T14:58:31Z</time>
      </trkpt>
      <trkpt lat="44.62306" lon="3.69681">
        <ele>1279.17</ele>
        <time>2025-07-12T14:58:17Z</time>
      </trkpt>
      <trkpt lat="44.62305" lon="3.69683">
        <ele>1279.65</ele>
        <time>2025-07-12T14:57:59Z</time>
      </trkpt>
      <trkpt lat="44.62311" lon="3.69679">
        <ele>1277.73</ele>
        <time>2025-07-12T14:57:38Z</time>
      </trkpt>
      <trkpt lat="44.62311" lon="3.69688">
        <ele>1276.77</ele>
        <time>2025-07-12T14:57:21Z</time>
      </trkpt>
      <trkpt lat="44.62317" lon="3.69687">
        <ele>1276.29</ele>
        <time>2025-07-12T14:56:58Z</time>
      </trkpt>
      <trkpt lat="44.62322" lon="3.69706">
        <ele>1276.77</ele>
        <time>2025-07-12T14:56:43Z</time>
      </trkpt>
      <trkpt lat="44.62338" lon="3.69715">
        <ele>1279.65</ele>
        <time>2025-07-12T14:56:26Z</time>
      </trkpt>
      <trkpt lat="44.62339" lon="3.69715">
        <ele>1279.17</ele>
        <time>2025-07-12T14:56:25Z</time>
      </trkpt>
      <trkpt lat="44.6234" lon="3.69715">
        <ele>1278.69</ele>
        <time>2025-07-12T14:56:24Z</time>
      </trkpt>
      <trkpt lat="44.62341" lon="3.69716">
        <ele>1279.17</ele>
        <time>2025-07-12T14:56:23Z</time>
      </trkpt>
      <trkpt lat="44.62435" lon="3.69754">
        <ele>1271.96</ele>
        <time>2025-07-12T12:33:18Z</time>
      </trkpt>
      <trkpt lat="44.62434" lon="3.69753">
        <ele>1271.96</ele>
        <time>2025-07-12T12:33:17Z</time>
      </trkpt>
      <trkpt lat="44.62434" lon="3.69753">
        <ele>1271.48</ele>
        <time>2025-07-12T12:33:15Z</time>
      </trkpt>
      <trkpt lat="44.62434" lon="3.69754">
        <ele>1271.48</ele>
        <time>2025-07-12T12:32:57Z</time>
      </trkpt>
      <trkpt lat="44.62433" lon="3.69752">
        <ele>1270.52</ele>
        <time>2025-07-12T12:32:37Z</time>
      </trkpt>
      <trkpt lat="44.62433" lon="3.69754">
        <ele>1269.08</ele>
        <time>2025-07-12T12:32:21Z</time>
      </trkpt>
      <trkpt lat="44.62433" lon="3.69756">
        <ele>1266.19</ele>
        <time>2025-07-12T12:32:01Z</time>
      </trkpt>
      <trkpt lat="44.62433" lon="3.6976">
        <ele>1264.75</ele>
        <time>2025-07-12T12:31:46Z</time>
      </trkpt>
      <trkpt lat="44.62428" lon="3.69772">
        <ele>1264.75</ele>
        <time>2025-07-12T12:31:38Z</time>
      </trkpt>
      <trkpt lat="44.62415" lon="3.69793">
        <ele>1265.71</ele>
        <time>2025-07-12T12:31:24Z</time>
      </trkpt>
      <trkpt lat="44.62405" lon="3.69819">
        <ele>1266.67</ele>
        <time>2025-07-12T12:31:10Z</time>
      </trkpt>
      <trkpt lat="44.62404" lon="3.69821">
        <ele>1266.67</ele>
        <time>2025-07-12T12:31:09Z</time>
      </trkpt>
      <trkpt lat="44.62404" lon="3.69823">
        <ele>1266.67</ele>
        <time>2025-07-12T12:31:08Z</time>
      </trkpt>
      <trkpt lat="44.62403" lon="3.69824">
        <ele>1266.67</ele>
        <time>2025-07-12T12:31:07Z</time>
      </trkpt>
      <trkpt lat="44.62402" lon="3.69825">
        <ele>1266.67</ele>
        <time>2025-07-12T12:31:06Z</time>
      </trkpt>
      <trkpt lat="44.62393" lon="3.69849">
        <ele>1267.16</ele>
        <time>2025-07-12T12:30:53Z</time>
      </trkpt>
      <trkpt lat="44.62385" lon="3.69878">
        <ele>1269.56</ele>
        <time>2025-07-12T12:30:37Z</time>
      </trkpt>
      <trkpt lat="44.62384" lon="3.6988">
        <ele>1270.04</ele>
        <time>2025-07-12T12:30:36Z</time>
      </trkpt>
      <trkpt lat="44.62381" lon="3.69888">
        <ele>1271.48</ele>
        <time>2025-07-12T12:30:31Z</time>
      </trkpt>
      <trkpt lat="44.62381" lon="3.6989">
        <ele>1271.96</ele>
        <time>2025-07-12T12:30:30Z</time>
      </trkpt>
      <trkpt lat="44.6238" lon="3.69891">
        <ele>1272.44</ele>
        <time>2025-07-12T12:30:29Z</time>
      </trkpt>
      <trkpt lat="44.6238" lon="3.69895">
        <ele>1272.92</ele>
        <time>2025-07-12T12:30:24Z</time>
      </trkpt>
      <trkpt lat="44.62386" lon="3.69879">
        <ele>1276.29</ele>
        <time>2025-07-12T12:30:08Z</time>
      </trkpt>
      <trkpt lat="44.62393" lon="3.69851">
        <ele>1280.13</ele>
        <time>2025-07-12T12:29:51Z</time>
      </trkpt>
      <trkpt lat="44.62398" lon="3.69837">
        <ele>1280.61</ele>
        <time>2025-07-12T12:29:43Z</time>
      </trkpt>
      <trkpt lat="44.62409" lon="3.69807">
        <ele>1274.36</ele>
        <time>2025-07-12T12:29:29Z</time>
      </trkpt>
      <trkpt lat="44.6242" lon="3.69785">
        <ele>1274.85</ele>
        <time>2025-07-12T12:29:16Z</time>
      </trkpt>
      <trkpt lat="44.6243" lon="3.6976">
        <ele>1274.85</ele>
        <time>2025-07-12T12:29:02Z</time>
      </trkpt>
      <trkpt lat="44.62433" lon="3.69755">
        <ele>1275.33</ele>
        <time>2025-07-12T12:28:58Z</time>
      </trkpt>
      <trkpt lat="44.62434" lon="3.69754">
        <ele>1275.81</ele>
        <time>2025-07-12T12:28:57Z</time>
      </trkpt>
      <trkpt lat="44.62435" lon="3.69752">
        <ele>1275.81</ele>
        <time>2025-07-12T12:28:56Z</time>
      </trkpt>
      <trkpt lat="44.62435" lon="3.69748">
        <ele>1275.33</ele>
        <time>2025-07-12T12:28:54Z</time>
      </trkpt>
      <trkpt lat="44.62428" lon="3.69748">
        <ele>1274.85</ele>
        <time>2025-07-12T12:28:44Z</time>
      </trkpt>
      <trkpt lat="44.62427" lon="3.69748">
        <ele>1274.85</ele>
        <time>2025-07-12T12:28:43Z</time>
      </trkpt>
      <trkpt lat="44.62428" lon="3.6975">
        <ele>1275.33</ele>
        <time>2025-07-12T12:28:28Z</time>
      </trkpt>
      <trkpt lat="44.62448" lon="3.69743">
        <ele>1272.44</ele>
        <time>2025-07-12T12:28:13Z</time>
      </trkpt>
      <trkpt lat="44.6247" lon="3.69729">
        <ele>1270.04</ele>
        <time>2025-07-12T12:27:56Z</time>
      </trkpt>
      <trkpt lat="44.62486" lon="3.69713">
        <ele>1270.52</ele>
        <time>2025-07-12T12:27:41Z</time>
      </trkpt>
      <trkpt lat="44.62502" lon="3.69693">
        <ele>1270.04</ele>
        <time>2025-07-12T12:27:26Z</time>
      </trkpt>
      <trkpt lat="44.62518" lon="3.69683">
        <ele>1270.52</ele>
        <time>2025-07-12T12:27:12Z</time>
      </trkpt>
      <trkpt lat="44.62536" lon="3.69673">
        <ele>1268.12</ele>
        <time>2025-07-12T12:26:57Z</time>
      </trkpt>
      <trkpt lat="44.62552" lon="3.69663">
        <ele>1264.75</ele>
        <time>2025-07-12T12:26:44Z</time>
      </trkpt>
      <trkpt lat="44.62571" lon="3.69649">
        <ele>1264.27</ele>
        <time>2025-07-12T12:26:28Z</time>
      </trkpt>
      <trkpt lat="44.62594" lon="3.69636">
        <ele>1261.87</ele>
        <time>2025-07-12T12:26:09Z</time>
      </trkpt>
      <trkpt lat="44.62615" lon="3.69625">
        <ele>1260.43</ele>
        <time>2025-07-12T12:25:53Z</time>
      </trkpt>
      <trkpt lat="44.62633" lon="3.69616">
        <ele>1259.94</ele>
        <time>2025-07-12T12:25:38Z</time>
      </trkpt>
      <trkpt lat="44.62655" lon="3.69611">
        <ele>1258.98</ele>
        <time>2025-07-12T12:25:21Z</time>
      </trkpt>
      <trkpt lat="44.62673" lon="3.69608">
        <ele>1256.1</ele>
        <time>2025-07-12T12:25:05Z</time>
      </trkpt>
      <trkpt lat="44.62695" lon="3.69607">
        <ele>1253.22</ele>
        <time>2025-07-12T12:24:47Z</time>
      </trkpt>
      <trkpt lat="44.62715" lon="3.69614">
        <ele>1251.29</ele>
        <time>2025-07-12T12:24:30Z</time>
      </trkpt>
      <trkpt lat="44.62734" lon="3.69634">
        <ele>1250.33</ele>
        <time>2025-07-12T12:24:12Z</time>
      </trkpt>
      <trkpt lat="44.62745" lon="3.69644">
        <ele>1250.33</ele>
        <time>2025-07-12T12:24:01Z</time>
      </trkpt>
      <trkpt lat="44.62763" lon="3.69644">
        <ele>1250.33</ele>
        <time>2025-07-12T12:23:47Z</time>
      </trkpt>
      <trkpt lat="44.62784" lon="3.69631">
        <ele>1251.29</ele>
        <time>2025-07-12T12:23:30Z</time>
      </trkpt>
      <trkpt lat="44.62792" lon="3.69628">
        <ele>1252.25</ele>
        <time>2025-07-12T12:23:18Z</time>
      </trkpt>
      <trkpt lat="44.62816" lon="3.69618">
        <ele>1254.66</ele>
        <time>2025-07-12T12:23:02Z</time>
      </trkpt>
      <trkpt lat="44.62834" lon="3.69611">
        <ele>1256.1</ele>
        <time>2025-07-12T12:22:48Z</time>
      </trkpt>
      <trkpt lat="44.6286" lon="3.69608">
        <ele>1257.06</ele>
        <time>2025-07-12T12:22:30Z</time>
      </trkpt>
      <trkpt lat="44.62888" lon="3.69603">
        <ele>1258.02</ele>
        <time>2025-07-12T12:22:11Z</time>
      </trkpt>
      <trkpt lat="44.62889" lon="3.69603">
        <ele>1258.5</ele>
        <time>2025-07-12T12:22:10Z</time>
      </trkpt>
      <trkpt lat="44.62903" lon="3.69599">
        <ele>1259.46</ele>
        <time>2025-07-12T12:22:00Z</time>
      </trkpt>
      <trkpt lat="44.62922" lon="3.69584">
        <ele>1259.46</ele>
        <time>2025-07-12T12:21:45Z</time>
      </trkpt>
      <trkpt lat="44.62943" lon="3.69563">
        <ele>1260.43</ele>
        <time>2025-07-12T12:21:28Z</time>
      </trkpt>
      <trkpt lat="44.62964" lon="3.69551">
        <ele>1263.79</ele>
        <time>2025-07-12T12:21:13Z</time>
      </trkpt>
      <trkpt lat="44.62984" lon="3.69538">
        <ele>1268.12</ele>
        <time>2025-07-12T12:20:57Z</time>
      </trkpt>
      <trkpt lat="44.63001" lon="3.69522">
        <ele>1271</ele>
        <time>2025-07-12T12:20:42Z</time>
      </trkpt>
      <trkpt lat="44.63022" lon="3.69518">
        <ele>1271.48</ele>
        <time>2025-07-12T12:20:27Z</time>
      </trkpt>
      <trkpt lat="44.63051" lon="3.69521">
        <ele>1273.4</ele>
        <time>2025-07-12T12:20:07Z</time>
      </trkpt>
      <trkpt lat="44.63079" lon="3.69525">
        <ele>1273.88</ele>
        <time>2025-07-12T12:19:48Z</time>
      </trkpt>
      <trkpt lat="44.631" lon="3.69528">
        <ele>1273.88</ele>
        <time>2025-07-12T12:19:34Z</time>
      </trkpt>
      <trkpt lat="44.63121" lon="3.69534">
        <ele>1272.92</ele>
        <time>2025-07-12T12:19:18Z</time>
      </trkpt>
      <trkpt lat="44.63147" lon="3.69538">
        <ele>1270.52</ele>
        <time>2025-07-12T12:19:00Z</time>
      </trkpt>
      <trkpt lat="44.63171" lon="3.69535">
        <ele>1269.56</ele>
        <time>2025-07-12T12:18:44Z</time>
      </trkpt>
      <trkpt lat="44.63198" lon="3.69528">
        <ele>1268.6</ele>
        <time>2025-07-12T12:18:25Z</time>
      </trkpt>
      <trkpt lat="44.63222" lon="3.69518">
        <ele>1268.12</ele>
        <time>2025-07-12T12:18:09Z</time>
      </trkpt>
      <trkpt lat="44.63242" lon="3.69518">
        <ele>1267.64</ele>
        <time>2025-07-12T12:17:55Z</time>
      </trkpt>
      <trkpt lat="44.63262" lon="3.69527">
        <ele>1266.19</ele>
        <time>2025-07-12T12:17:39Z</time>
      </trkpt>
      <trkpt lat="44.63285" lon="3.69541">
        <ele>1265.71</ele>
        <time>2025-07-12T12:17:21Z</time>
      </trkpt>
      <trkpt lat="44.63305" lon="3.69557">
        <ele>1264.75</ele>
        <time>2025-07-12T12:17:05Z</time>
      </trkpt>
      <trkpt lat="44.63323" lon="3.69574">
        <ele>1264.27</ele>
        <time>2025-07-12T12:16:49Z</time>
      </trkpt>
      <trkpt lat="44.6334" lon="3.69593">
        <ele>1264.27</ele>
        <time>2025-07-12T12:16:33Z</time>
      </trkpt>
      <trkpt lat="44.63363" lon="3.69619">
        <ele>1264.75</ele>
        <time>2025-07-12T12:16:16Z</time>
      </trkpt>
      <trkpt lat="44.63383" lon="3.69641">
        <ele>1265.71</ele>
        <time>2025-07-12T12:16:00Z</time>
      </trkpt>
      <trkpt lat="44.63405" lon="3.69665">
        <ele>1266.67</ele>
        <time>2025-07-12T12:15:41Z</time>
      </trkpt>
      <trkpt lat="44.63422" lon="3.69683">
        <ele>1267.16</ele>
        <time>2025-07-12T12:15:26Z</time>
      </trkpt>
      <trkpt lat="44.63437" lon="3.69698">
        <ele>1267.64</ele>
        <time>2025-07-12T12:15:13Z</time>
      </trkpt>
      <trkpt lat="44.63455" lon="3.69713">
        <ele>1266.67</ele>
        <time>2025-07-12T12:14:57Z</time>
      </trkpt>
      <trkpt lat="44.63472" lon="3.69728">
        <ele>1267.16</ele>
        <time>2025-07-12T12:14:43Z</time>
      </trkpt>
      <trkpt lat="44.63492" lon="3.69742">
        <ele>1266.67</ele>
        <time>2025-07-12T12:14:27Z</time>
      </trkpt>
      <trkpt lat="44.63514" lon="3.69756">
        <ele>1266.67</ele>
        <time>2025-07-12T12:14:10Z</time>
      </trkpt>
      <trkpt lat="44.63536" lon="3.69768">
        <ele>1267.16</ele>
        <time>2025-07-12T12:13:53Z</time>
      </trkpt>
      <trkpt lat="44.63561" lon="3.6978">
        <ele>1267.16</ele>
        <time>2025-07-12T12:13:37Z</time>
      </trkpt>
      <trkpt lat="44.63583" lon="3.69786">
        <ele>1267.64</ele>
        <time>2025-07-12T12:13:21Z</time>
      </trkpt>
      <trkpt lat="44.63608" lon="3.69807">
        <ele>1266.67</ele>
        <time>2025-07-12T12:13:00Z</time>
      </trkpt>
      <trkpt lat="44.63624" lon="3.69835">
        <ele>1265.71</ele>
        <time>2025-07-12T12:12:43Z</time>
      </trkpt>
      <trkpt lat="44.63624" lon="3.69836">
        <ele>1265.23</ele>
        <time>2025-07-12T12:12:42Z</time>
      </trkpt>
      <trkpt lat="44.63634" lon="3.69866">
        <ele>1264.27</ele>
        <time>2025-07-12T12:12:25Z</time>
      </trkpt>
      <trkpt lat="44.63643" lon="3.69901">
        <ele>1263.79</ele>
        <time>2025-07-12T12:12:06Z</time>
      </trkpt>
      <trkpt lat="44.63653" lon="3.69938">
        <ele>1261.87</ele>
        <time>2025-07-12T12:11:45Z</time>
      </trkpt>
      <trkpt lat="44.63659" lon="3.69973">
        <ele>1261.39</ele>
        <time>2025-07-12T12:11:26Z</time>
      </trkpt>
      <trkpt lat="44.63666" lon="3.69998">
        <ele>1260.91</ele>
        <time>2025-07-12T12:11:12Z</time>
      </trkpt>
      <trkpt lat="44.63681" lon="3.70029">
        <ele>1258.98</ele>
        <time>2025-07-12T12:10:52Z</time>
      </trkpt>
      <trkpt lat="44.63694" lon="3.70055">
        <ele>1258.02</ele>
        <time>2025-07-12T12:10:37Z</time>
      </trkpt>
      <trkpt lat="44.63712" lon="3.70076">
        <ele>1257.06</ele>
        <time>2025-07-12T12:10:20Z</time>
      </trkpt>
      <trkpt lat="44.63736" lon="3.70086">
        <ele>1255.14</ele>
        <time>2025-07-12T12:10:01Z</time>
      </trkpt>
      <trkpt lat="44.63758" lon="3.70094">
        <ele>1253.22</ele>
        <time>2025-07-12T12:09:46Z</time>
      </trkpt>
      <trkpt lat="44.63784" lon="3.70108">
        <ele>1251.29</ele>
        <time>2025-07-12T12:09:27Z</time>
      </trkpt>
      <trkpt lat="44.63811" lon="3.7013">
        <ele>1248.41</ele>
        <time>2025-07-12T12:09:04Z</time>
      </trkpt>
      <trkpt lat="44.63837" lon="3.70145">
        <ele>1246.97</ele>
        <time>2025-07-12T12:08:42Z</time>
      </trkpt>
      <trkpt lat="44.63856" lon="3.7016">
        <ele>1245.04</ele>
        <time>2025-07-12T12:08:29Z</time>
      </trkpt>
      <trkpt lat="44.6388" lon="3.70181">
        <ele>1245.04</ele>
        <time>2025-07-12T12:08:13Z</time>
      </trkpt>
      <trkpt lat="44.63902" lon="3.70209">
        <ele>1243.6</ele>
        <time>2025-07-12T12:07:53Z</time>
      </trkpt>
      <trkpt lat="44.63924" lon="3.70231">
        <ele>1243.6</ele>
        <time>2025-07-12T12:07:32Z</time>
      </trkpt>
      <trkpt lat="44.63946" lon="3.70243">
        <ele>1242.64</ele>
        <time>2025-07-12T12:07:13Z</time>
      </trkpt>
      <trkpt lat="44.63969" lon="3.70244">
        <ele>1242.16</ele>
        <time>2025-07-12T12:06:55Z</time>
      </trkpt>
      <trkpt lat="44.63993" lon="3.7024">
        <ele>1243.6</ele>
        <time>2025-07-12T12:06:39Z</time>
      </trkpt>
      <trkpt lat="44.64011" lon="3.7022">
        <ele>1243.6</ele>
        <time>2025-07-12T12:06:21Z</time>
      </trkpt>
      <trkpt lat="44.64012" lon="3.70219">
        <ele>1243.6</ele>
        <time>2025-07-12T12:06:20Z</time>
      </trkpt>
      <trkpt lat="44.64015" lon="3.70219">
        <ele>1244.08</ele>
        <time>2025-07-12T12:06:18Z</time>
      </trkpt>
      <trkpt lat="44.64027" lon="3.70212">
        <ele>1245.04</ele>
        <time>2025-07-12T12:06:08Z</time>
      </trkpt>
      <trkpt lat="44.64049" lon="3.70208">
        <ele>1246.49</ele>
        <time>2025-07-12T12:05:51Z</time>
      </trkpt>
      <trkpt lat="44.6405" lon="3.70208">
        <ele>1246.49</ele>
        <time>2025-07-12T12:05:50Z</time>
      </trkpt>
      <trkpt lat="44.64051" lon="3.70208">
        <ele>1246.49</ele>
        <time>2025-07-12T12:05:49Z</time>
      </trkpt>
      <trkpt lat="44.64052" lon="3.70209">
        <ele>1246.49</ele>
        <time>2025-07-12T12:05:48Z</time>
      </trkpt>
      <trkpt lat="44.64054" lon="3.70209">
        <ele>1246.49</ele>
        <time>2025-07-12T12:05:37Z</time>
      </trkpt>
      <trkpt lat="44.64075" lon="3.70217">
        <ele>1246.01</ele>
        <time>2025-07-12T12:05:19Z</time>
      </trkpt>
      <trkpt lat="44.64091" lon="3.70236">
        <ele>1246.97</ele>
        <time>2025-07-12T12:05:04Z</time>
      </trkpt>
      <trkpt lat="44.64109" lon="3.70257">
        <ele>1249.37</ele>
        <time>2025-07-12T12:04:47Z</time>
      </trkpt>
      <trkpt lat="44.64128" lon="3.70279">
        <ele>1252.25</ele>
        <time>2025-07-12T12:04:29Z</time>
      </trkpt>
      <trkpt lat="44.64146" lon="3.70299">
        <ele>1254.66</ele>
        <time>2025-07-12T12:04:11Z</time>
      </trkpt>
      <trkpt lat="44.64147" lon="3.70301">
        <ele>1254.66</ele>
        <time>2025-07-12T12:04:10Z</time>
      </trkpt>
      <trkpt lat="44.64148" lon="3.70302">
        <ele>1254.66</ele>
        <time>2025-07-12T12:04:09Z</time>
      </trkpt>
      <trkpt lat="44.64149" lon="3.70303">
        <ele>1254.66</ele>
        <time>2025-07-12T12:04:08Z</time>
      </trkpt>
      <trkpt lat="44.6415" lon="3.70305">
        <ele>1254.66</ele>
        <time>2025-07-12T12:04:07Z</time>
      </trkpt>
      <trkpt lat="44.64152" lon="3.70313">
        <ele>1254.66</ele>
        <time>2025-07-12T12:04:00Z</time>
      </trkpt>
      <trkpt lat="44.64161" lon="3.7035">
        <ele>1257.06</ele>
        <time>2025-07-12T12:03:42Z</time>
      </trkpt>
      <trkpt lat="44.64179" lon="3.7037">
        <ele>1258.02</ele>
        <time>2025-07-12T12:03:26Z</time>
      </trkpt>
      <trkpt lat="44.64201" lon="3.70402">
        <ele>1257.54</ele>
        <time>2025-07-12T12:03:05Z</time>
      </trkpt>
      <trkpt lat="44.64221" lon="3.70424">
        <ele>1255.14</ele>
        <time>2025-07-12T12:02:47Z</time>
      </trkpt>
      <trkpt lat="44.64236" lon="3.70453">
        <ele>1254.18</ele>
        <time>2025-07-12T12:02:32Z</time>
      </trkpt>
      <trkpt lat="44.64249" lon="3.70487">
        <ele>1255.14</ele>
        <time>2025-07-12T12:02:14Z</time>
      </trkpt>
      <trkpt lat="44.64258" lon="3.70532">
        <ele>1256.58</ele>
        <time>2025-07-12T12:01:52Z</time>
      </trkpt>
      <trkpt lat="44.64259" lon="3.70568">
        <ele>1255.62</ele>
        <time>2025-07-12T12:01:34Z</time>
      </trkpt>
      <trkpt lat="44.64266" lon="3.70604">
        <ele>1255.62</ele>
        <time>2025-07-12T12:01:18Z</time>
      </trkpt>
      <trkpt lat="44.64277" lon="3.70641">
        <ele>1254.66</ele>
        <time>2025-07-12T12:00:59Z</time>
      </trkpt>
      <trkpt lat="44.64288" lon="3.70672">
        <ele>1255.62</ele>
        <time>2025-07-12T12:00:43Z</time>
      </trkpt>
      <trkpt lat="44.64308" lon="3.70716">
        <ele>1256.58</ele>
        <time>2025-07-12T12:00:19Z</time>
      </trkpt>
      <trkpt lat="44.64324" lon="3.70748">
        <ele>1258.02</ele>
        <time>2025-07-12T12:00:01Z</time>
      </trkpt>
      <trkpt lat="44.64348" lon="3.70782">
        <ele>1258.5</ele>
        <time>2025-07-12T11:59:39Z</time>
      </trkpt>
      <trkpt lat="44.64365" lon="3.70818">
        <ele>1259.46</ele>
        <time>2025-07-12T11:59:19Z</time>
      </trkpt>
      <trkpt lat="44.6438" lon="3.70852">
        <ele>1259.94</ele>
        <time>2025-07-12T11:59:01Z</time>
      </trkpt>
      <trkpt lat="44.64381" lon="3.70854">
        <ele>1259.94</ele>
        <time>2025-07-12T11:59:00Z</time>
      </trkpt>
      <trkpt lat="44.64383" lon="3.70856">
        <ele>1260.43</ele>
        <time>2025-07-12T11:58:58Z</time>
      </trkpt>
      <trkpt lat="44.64401" lon="3.70881">
        <ele>1261.87</ele>
        <time>2025-07-12T11:58:41Z</time>
      </trkpt>
      <trkpt lat="44.64414" lon="3.70914">
        <ele>1263.31</ele>
        <time>2025-07-12T11:58:25Z</time>
      </trkpt>
      <trkpt lat="44.64431" lon="3.70944">
        <ele>1261.87</ele>
        <time>2025-07-12T11:58:06Z</time>
      </trkpt>
      <trkpt lat="44.64452" lon="3.70972">
        <ele>1263.31</ele>
        <time>2025-07-12T11:57:47Z</time>
      </trkpt>
      <trkpt lat="44.64467" lon="3.71004">
        <ele>1265.71</ele>
        <time>2025-07-12T11:57:30Z</time>
      </trkpt>
      <trkpt lat="44.64475" lon="3.71036">
        <ele>1269.08</ele>
        <time>2025-07-12T11:57:14Z</time>
      </trkpt>
      <trkpt lat="44.64486" lon="3.71068">
        <ele>1270.52</ele>
        <time>2025-07-12T11:56:58Z</time>
      </trkpt>
      <trkpt lat="44.64498" lon="3.71097">
        <ele>1271.96</ele>
        <time>2025-07-12T11:56:42Z</time>
      </trkpt>
      <trkpt lat="44.64519" lon="3.71125">
        <ele>1274.85</ele>
        <time>2025-07-12T11:56:25Z</time>
      </trkpt>
      <trkpt lat="44.64538" lon="3.71151">
        <ele>1278.69</ele>
        <time>2025-07-12T11:56:08Z</time>
      </trkpt>
      <trkpt lat="44.64562" lon="3.71178">
        <ele>1283.5</ele>
        <time>2025-07-12T11:55:49Z</time>
      </trkpt>
      <trkpt lat="44.64588" lon="3.71201">
        <ele>1291.19</ele>
        <time>2025-07-12T11:55:33Z</time>
      </trkpt>
      <trkpt lat="44.64616" lon="3.71234">
        <ele>1296.96</ele>
        <time>2025-07-12T11:55:11Z</time>
      </trkpt>
      <trkpt lat="44.64636" lon="3.71253">
        <ele>1295.51</ele>
        <time>2025-07-12T11:54:54Z</time>
      </trkpt>
      <trkpt lat="44.64658" lon="3.71278">
        <ele>1294.07</ele>
        <time>2025-07-12T11:54:36Z</time>
      </trkpt>
      <trkpt lat="44.64676" lon="3.71296">
        <ele>1288.3</ele>
        <time>2025-07-12T11:54:22Z</time>
      </trkpt>
      <trkpt lat="44.64697" lon="3.71323">
        <ele>1285.42</ele>
        <time>2025-07-12T11:54:06Z</time>
      </trkpt>
      <trkpt lat="44.64715" lon="3.71347">
        <ele>1282.06</ele>
        <time>2025-07-12T11:53:51Z</time>
      </trkpt>
      <trkpt lat="44.64735" lon="3.7137">
        <ele>1276.77</ele>
        <time>2025-07-12T11:53:36Z</time>
      </trkpt>
      <trkpt lat="44.64752" lon="3.71389">
        <ele>1272.92</ele>
        <time>2025-07-12T11:53:24Z</time>
      </trkpt>
      <trkpt lat="44.6477" lon="3.71413">
        <ele>1268.6</ele>
        <time>2025-07-12T11:53:10Z</time>
      </trkpt>
      <trkpt lat="44.64783" lon="3.71422">
        <ele>1268.12</ele>
        <time>2025-07-12T11:52:54Z</time>
      </trkpt>
      <trkpt lat="44.64789" lon="3.71424">
        <ele>1266.67</ele>
        <time>2025-07-12T11:52:38Z</time>
      </trkpt>
      <trkpt lat="44.6481" lon="3.71444">
        <ele>1264.75</ele>
        <time>2025-07-12T11:52:23Z</time>
      </trkpt>
      <trkpt lat="44.64828" lon="3.71468">
        <ele>1263.31</ele>
        <time>2025-07-12T11:52:04Z</time>
      </trkpt>
      <trkpt lat="44.64846" lon="3.71487">
        <ele>1261.87</ele>
        <time>2025-07-12T11:51:47Z</time>
      </trkpt>
      <trkpt lat="44.6486" lon="3.71504">
        <ele>1261.87</ele>
        <time>2025-07-12T11:51:31Z</time>
      </trkpt>
      <trkpt lat="44.64877" lon="3.71532">
        <ele>1262.35</ele>
        <time>2025-07-12T11:51:12Z</time>
      </trkpt>
      <trkpt lat="44.64899" lon="3.71541">
        <ele>1264.27</ele>
        <time>2025-07-12T11:50:55Z</time>
      </trkpt>
      <trkpt lat="44.64924" lon="3.71549">
        <ele>1266.19</ele>
        <time>2025-07-12T11:50:38Z</time>
      </trkpt>
      <trkpt lat="44.64956" lon="3.71554">
        <ele>1267.64</ele>
        <time>2025-07-12T11:50:18Z</time>
      </trkpt>
      <trkpt lat="44.64982" lon="3.71559">
        <ele>1269.56</ele>
        <time>2025-07-12T11:50:02Z</time>
      </trkpt>
      <trkpt lat="44.65013" lon="3.71568">
        <ele>1271.48</ele>
        <time>2025-07-12T11:49:42Z</time>
      </trkpt>
      <trkpt lat="44.65037" lon="3.71573">
        <ele>1272.44</ele>
        <time>2025-07-12T11:49:30Z</time>
      </trkpt>
      <trkpt lat="44.65061" lon="3.71579">
        <ele>1272.92</ele>
        <time>2025-07-12T11:49:15Z</time>
      </trkpt>
      <trkpt lat="44.65088" lon="3.71584">
        <ele>1272.92</ele>
        <time>2025-07-12T11:49:00Z</time>
      </trkpt>
      <trkpt lat="44.65111" lon="3.71586">
        <ele>1273.4</ele>
        <time>2025-07-12T11:48:45Z</time>
      </trkpt>
      <trkpt lat="44.65152" lon="3.7159">
        <ele>1273.88</ele>
        <time>2025-07-12T11:48:31Z</time>
      </trkpt>
      <trkpt lat="44.6517" lon="3.71591">
        <ele>1275.81</ele>
        <time>2025-07-12T11:48:18Z</time>
      </trkpt>
      <trkpt lat="44.65178" lon="3.71593">
        <ele>1276.77</ele>
        <time>2025-07-12T11:48:06Z</time>
      </trkpt>
      <trkpt lat="44.6521" lon="3.71586">
        <ele>1277.25</ele>
        <time>2025-07-12T11:47:45Z</time>
      </trkpt>
      <trkpt lat="44.65233" lon="3.71584">
        <ele>1279.17</ele>
        <time>2025-07-12T11:47:31Z</time>
      </trkpt>
      <trkpt lat="44.65265" lon="3.71579">
        <ele>1277.73</ele>
        <time>2025-07-12T11:47:10Z</time>
      </trkpt>
      <trkpt lat="44.65291" lon="3.71573">
        <ele>1276.29</ele>
        <time>2025-07-12T11:46:52Z</time>
      </trkpt>
      <trkpt lat="44.65316" lon="3.71558">
        <ele>1275.33</ele>
        <time>2025-07-12T11:46:36Z</time>
      </trkpt>
      <trkpt lat="44.65338" lon="3.71541">
        <ele>1276.29</ele>
        <time>2025-07-12T11:46:21Z</time>
      </trkpt>
      <trkpt lat="44.65356" lon="3.71531">
        <ele>1278.21</ele>
        <time>2025-07-12T11:46:07Z</time>
      </trkpt>
      <trkpt lat="44.6536" lon="3.71532">
        <ele>1278.69</ele>
        <time>2025-07-12T11:46:04Z</time>
      </trkpt>
      <trkpt lat="44.65385" lon="3.71532">
        <ele>1280.61</ele>
        <time>2025-07-12T11:45:46Z</time>
      </trkpt>
      <trkpt lat="44.65405" lon="3.71536">
        <ele>1278.21</ele>
        <time>2025-07-12T11:45:32Z</time>
      </trkpt>
      <trkpt lat="44.6543" lon="3.71544">
        <ele>1278.21</ele>
        <time>2025-07-12T11:45:13Z</time>
      </trkpt>
      <trkpt lat="44.65452" lon="3.71548">
        <ele>1275.81</ele>
        <time>2025-07-12T11:44:59Z</time>
      </trkpt>
      <trkpt lat="44.65475" lon="3.71558">
        <ele>1274.85</ele>
        <time>2025-07-12T11:44:43Z</time>
      </trkpt>
      <trkpt lat="44.65498" lon="3.71567">
        <ele>1274.85</ele>
        <time>2025-07-12T11:44:28Z</time>
      </trkpt>
      <trkpt lat="44.6552" lon="3.71575">
        <ele>1275.81</ele>
        <time>2025-07-12T11:44:12Z</time>
      </trkpt>
      <trkpt lat="44.65538" lon="3.71584">
        <ele>1276.77</ele>
        <time>2025-07-12T11:43:56Z</time>
      </trkpt>
      <trkpt lat="44.65559" lon="3.71593">
        <ele>1278.21</ele>
        <time>2025-07-12T11:43:39Z</time>
      </trkpt>
      <trkpt lat="44.65587" lon="3.71595">
        <ele>1278.69</ele>
        <time>2025-07-12T11:43:20Z</time>
      </trkpt>
      <trkpt lat="44.65611" lon="3.71599">
        <ele>1277.25</ele>
        <time>2025-07-12T11:42:59Z</time>
      </trkpt>
      <trkpt lat="44.65637" lon="3.71605">
        <ele>1276.77</ele>
        <time>2025-07-12T11:42:40Z</time>
      </trkpt>
      <trkpt lat="44.65666" lon="3.7161">
        <ele>1271</ele>
        <time>2025-07-12T11:42:21Z</time>
      </trkpt>
      <trkpt lat="44.65686" lon="3.71614">
        <ele>1271.48</ele>
        <time>2025-07-12T11:42:01Z</time>
      </trkpt>
      <trkpt lat="44.65697" lon="3.71618">
        <ele>1272.44</ele>
        <time>2025-07-12T11:41:43Z</time>
      </trkpt>
      <trkpt lat="44.65723" lon="3.7163">
        <ele>1275.33</ele>
        <time>2025-07-12T11:41:21Z</time>
      </trkpt>
      <trkpt lat="44.65747" lon="3.71641">
        <ele>1276.77</ele>
        <time>2025-07-12T11:41:01Z</time>
      </trkpt>
      <trkpt lat="44.65768" lon="3.71648">
        <ele>1277.25</ele>
        <time>2025-07-12T11:40:42Z</time>
      </trkpt>
      <trkpt lat="44.65769" lon="3.71649">
        <ele>1277.25</ele>
        <time>2025-07-12T11:40:41Z</time>
      </trkpt>
      <trkpt lat="44.65774" lon="3.71656">
        <ele>1278.21</ele>
        <time>2025-07-12T11:40:34Z</time>
      </trkpt>
      <trkpt lat="44.65775" lon="3.71657">
        <ele>1278.21</ele>
        <time>2025-07-12T11:40:33Z</time>
      </trkpt>
      <trkpt lat="44.65774" lon="3.71665">
        <ele>1278.69</ele>
        <time>2025-07-12T11:40:28Z</time>
      </trkpt>
      <trkpt lat="44.65774" lon="3.71667">
        <ele>1279.17</ele>
        <time>2025-07-12T11:40:27Z</time>
      </trkpt>
      <trkpt lat="44.65769" lon="3.71673">
        <ele>1279.65</ele>
        <time>2025-07-12T11:40:18Z</time>
      </trkpt>
      <trkpt lat="44.6577" lon="3.71674">
        <ele>1278.21</ele>
        <time>2025-07-12T11:40:00Z</time>
      </trkpt>
      <trkpt lat="44.65775" lon="3.71671">
        <ele>1276.29</ele>
        <time>2025-07-12T11:39:45Z</time>
      </trkpt>
      <trkpt lat="44.65776" lon="3.7167">
        <ele>1276.29</ele>
        <time>2025-07-12T11:39:44Z</time>
      </trkpt>
      <trkpt lat="44.65777" lon="3.71668">
        <ele>1276.29</ele>
        <time>2025-07-12T11:39:43Z</time>
      </trkpt>
      <trkpt lat="44.65777" lon="3.71666">
        <ele>1275.81</ele>
        <time>2025-07-12T11:39:42Z</time>
      </trkpt>
      <trkpt lat="44.65777" lon="3.71665">
        <ele>1275.81</ele>
        <time>2025-07-12T11:39:41Z</time>
      </trkpt>
      <trkpt lat="44.65781" lon="3.71659">
        <ele>1270.04</ele>
        <time>2025-07-12T11:39:28Z</time>
      </trkpt>
      <trkpt lat="44.65792" lon="3.71662">
        <ele>1262.35</ele>
        <time>2025-07-12T11:39:20Z</time>
      </trkpt>
      <trkpt lat="44.65795" lon="3.71663">
        <ele>1261.39</ele>
        <time>2025-07-12T11:39:19Z</time>
      </trkpt>
      <trkpt lat="44.65817" lon="3.71671">
        <ele>1261.87</ele>
        <time>2025-07-12T11:39:04Z</time>
      </trkpt>
      <trkpt lat="44.65841" lon="3.71685">
        <ele>1267.16</ele>
        <time>2025-07-12T11:38:44Z</time>
      </trkpt>
      <trkpt lat="44.65868" lon="3.71703">
        <ele>1274.85</ele>
        <time>2025-07-12T11:38:21Z</time>
      </trkpt>
      <trkpt lat="44.659" lon="3.71724">
        <ele>1275.33</ele>
        <time>2025-07-12T11:37:57Z</time>
      </trkpt>
      <trkpt lat="44.65919" lon="3.71746">
        <ele>1275.33</ele>
        <time>2025-07-12T11:37:40Z</time>
      </trkpt>
      <trkpt lat="44.65944" lon="3.71773">
        <ele>1271.96</ele>
        <time>2025-07-12T11:37:20Z</time>
      </trkpt>
      <trkpt lat="44.65966" lon="3.71789">
        <ele>1276.77</ele>
        <time>2025-07-12T11:37:03Z</time>
      </trkpt>
      <trkpt lat="44.66" lon="3.71792">
        <ele>1278.21</ele>
        <time>2025-07-12T11:36:45Z</time>
      </trkpt>
      <trkpt lat="44.66024" lon="3.71793">
        <ele>1281.57</ele>
        <time>2025-07-12T11:36:25Z</time>
      </trkpt>
      <trkpt lat="44.66026" lon="3.71795">
        <ele>1282.06</ele>
        <time>2025-07-12T11:36:23Z</time>
      </trkpt>
      <trkpt lat="44.66027" lon="3.71796">
        <ele>1282.06</ele>
        <time>2025-07-12T11:36:22Z</time>
      </trkpt>
      <trkpt lat="44.66042" lon="3.71802">
        <ele>1283.02</ele>
        <time>2025-07-12T11:36:10Z</time>
      </trkpt>
      <trkpt lat="44.66067" lon="3.71809">
        <ele>1281.57</ele>
        <time>2025-07-12T11:35:52Z</time>
      </trkpt>
      <trkpt lat="44.6609" lon="3.71815">
        <ele>1280.61</ele>
        <time>2025-07-12T11:35:33Z</time>
      </trkpt>
      <trkpt lat="44.66109" lon="3.71819">
        <ele>1280.13</ele>
        <time>2025-07-12T11:35:18Z</time>
      </trkpt>
      <trkpt lat="44.6613" lon="3.71819">
        <ele>1280.61</ele>
        <time>2025-07-12T11:35:02Z</time>
      </trkpt>
      <trkpt lat="44.6615" lon="3.71817">
        <ele>1280.13</ele>
        <time>2025-07-12T11:34:45Z</time>
      </trkpt>
      <trkpt lat="44.6617" lon="3.71813">
        <ele>1279.17</ele>
        <time>2025-07-12T11:34:28Z</time>
      </trkpt>
      <trkpt lat="44.66171" lon="3.71813">
        <ele>1279.17</ele>
        <time>2025-07-12T11:34:27Z</time>
      </trkpt>
      <trkpt lat="44.66173" lon="3.71813">
        <ele>1279.65</ele>
        <time>2025-07-12T11:34:12Z</time>
      </trkpt>
      <trkpt lat="44.66174" lon="3.71814">
        <ele>1280.61</ele>
        <time>2025-07-12T11:33:51Z</time>
      </trkpt>
      <trkpt lat="44.66174" lon="3.71812">
        <ele>1278.69</ele>
        <time>2025-07-12T11:33:33Z</time>
      </trkpt>
      <trkpt lat="44.66175" lon="3.71812">
        <ele>1279.17</ele>
        <time>2025-07-12T11:33:18Z</time>
      </trkpt>
      <trkpt lat="44.66183" lon="3.7181">
        <ele>1278.69</ele>
        <time>2025-07-12T11:33:01Z</time>
      </trkpt>
      <trkpt lat="44.66206" lon="3.71805">
        <ele>1277.73</ele>
        <time>2025-07-12T11:32:43Z</time>
      </trkpt>
      <trkpt lat="44.66226" lon="3.71801">
        <ele>1276.77</ele>
        <time>2025-07-12T11:32:28Z</time>
      </trkpt>
      <trkpt lat="44.66247" lon="3.71802">
        <ele>1276.29</ele>
        <time>2025-07-12T11:32:11Z</time>
      </trkpt>
      <trkpt lat="44.66271" lon="3.71802">
        <ele>1273.88</ele>
        <time>2025-07-12T11:31:54Z</time>
      </trkpt>
      <trkpt lat="44.6629" lon="3.71802">
        <ele>1272.44</ele>
        <time>2025-07-12T11:31:40Z</time>
      </trkpt>
      <trkpt lat="44.66291" lon="3.71801">
        <ele>1271.96</ele>
        <time>2025-07-12T11:31:39Z</time>
      </trkpt>
      <trkpt lat="44.66311" lon="3.718">
        <ele>1270.52</ele>
        <time>2025-07-12T11:31:26Z</time>
      </trkpt>
      <trkpt lat="44.66329" lon="3.71796">
        <ele>1269.08</ele>
        <time>2025-07-12T11:31:11Z</time>
      </trkpt>
      <trkpt lat="44.66348" lon="3.7179">
        <ele>1268.12</ele>
        <time>2025-07-12T11:30:59Z</time>
      </trkpt>
      <trkpt lat="44.6635" lon="3.71789">
        <ele>1268.12</ele>
        <time>2025-07-12T11:30:58Z</time>
      </trkpt>
      <trkpt lat="44.66352" lon="3.71789">
        <ele>1268.12</ele>
        <time>2025-07-12T11:30:57Z</time>
      </trkpt>
      <trkpt lat="44.66353" lon="3.7179">
        <ele>1268.12</ele>
        <time>2025-07-12T11:30:56Z</time>
      </trkpt>
      <trkpt lat="44.66355" lon="3.7179">
        <ele>1268.12</ele>
        <time>2025-07-12T11:30:55Z</time>
      </trkpt>
      <trkpt lat="44.66361" lon="3.71788">
        <ele>1267.16</ele>
        <time>2025-07-12T11:30:50Z</time>
      </trkpt>
      <trkpt lat="44.66381" lon="3.71781">
        <ele>1267.16</ele>
        <time>2025-07-12T11:30:36Z</time>
      </trkpt>
      <trkpt lat="44.66401" lon="3.71772">
        <ele>1265.71</ele>
        <time>2025-07-12T11:30:22Z</time>
      </trkpt>
      <trkpt lat="44.66419" lon="3.7176">
        <ele>1263.31</ele>
        <time>2025-07-12T11:30:08Z</time>
      </trkpt>
      <trkpt lat="44.66434" lon="3.71752">
        <ele>1260.91</ele>
        <time>2025-07-12T11:29:56Z</time>
      </trkpt>
      <trkpt lat="44.66436" lon="3.71751">
        <ele>1260.91</ele>
        <time>2025-07-12T11:29:55Z</time>
      </trkpt>
      <trkpt lat="44.66437" lon="3.7175">
        <ele>1260.91</ele>
        <time>2025-07-12T11:29:54Z</time>
      </trkpt>
      <trkpt lat="44.66438" lon="3.71749">
        <ele>1260.91</ele>
        <time>2025-07-12T11:29:53Z</time>
      </trkpt>
      <trkpt lat="44.66439" lon="3.71748">
        <ele>1260.91</ele>
        <time>2025-07-12T11:29:52Z</time>
      </trkpt>
      <trkpt lat="44.6644" lon="3.71748">
        <ele>1260.43</ele>
        <time>2025-07-12T11:29:51Z</time>
      </trkpt>
      <trkpt lat="44.66447" lon="3.7175">
        <ele>1259.94</ele>
        <time>2025-07-12T11:29:46Z</time>
      </trkpt>
      <trkpt lat="44.66449" lon="3.71751">
        <ele>1259.46</ele>
        <time>2025-07-12T11:29:45Z</time>
      </trkpt>
      <trkpt lat="44.66461" lon="3.71769">
        <ele>1257.06</ele>
        <time>2025-07-12T11:29:33Z</time>
      </trkpt>
      <trkpt lat="44.66473" lon="3.71793">
        <ele>1256.1</ele>
        <time>2025-07-12T11:29:20Z</time>
      </trkpt>
      <trkpt lat="44.66488" lon="3.71812">
        <ele>1255.62</ele>
        <time>2025-07-12T11:29:05Z</time>
      </trkpt>
      <trkpt lat="44.66497" lon="3.71829">
        <ele>1255.62</ele>
        <time>2025-07-12T11:28:54Z</time>
      </trkpt>
      <trkpt lat="44.66512" lon="3.71869">
        <ele>1257.06</ele>
        <time>2025-07-12T11:28:36Z</time>
      </trkpt>
      <trkpt lat="44.66525" lon="3.71904">
        <ele>1257.06</ele>
        <time>2025-07-12T11:28:17Z</time>
      </trkpt>
      <trkpt lat="44.66539" lon="3.71941">
        <ele>1258.5</ele>
        <time>2025-07-12T11:27:58Z</time>
      </trkpt>
      <trkpt lat="44.66554" lon="3.71985">
        <ele>1261.87</ele>
        <time>2025-07-12T11:27:37Z</time>
      </trkpt>
      <trkpt lat="44.66568" lon="3.72021">
        <ele>1261.39</ele>
        <time>2025-07-12T11:27:20Z</time>
      </trkpt>
      <trkpt lat="44.66581" lon="3.72066">
        <ele>1262.35</ele>
        <time>2025-07-12T11:26:57Z</time>
      </trkpt>
      <trkpt lat="44.66584" lon="3.72105">
        <ele>1266.67</ele>
        <time>2025-07-12T11:26:38Z</time>
      </trkpt>
      <trkpt lat="44.66595" lon="3.72157">
        <ele>1271.48</ele>
        <time>2025-07-12T11:26:17Z</time>
      </trkpt>
      <trkpt lat="44.66618" lon="3.72186">
        <ele>1271.96</ele>
        <time>2025-07-12T11:25:55Z</time>
      </trkpt>
      <trkpt lat="44.66645" lon="3.72212">
        <ele>1269.56</ele>
        <time>2025-07-12T11:25:34Z</time>
      </trkpt>
      <trkpt lat="44.66661" lon="3.72236">
        <ele>1269.56</ele>
        <time>2025-07-12T11:25:18Z</time>
      </trkpt>
      <trkpt lat="44.66677" lon="3.72259">
        <ele>1267.64</ele>
        <time>2025-07-12T11:25:04Z</time>
      </trkpt>
      <trkpt lat="44.66705" lon="3.72289">
        <ele>1268.12</ele>
        <time>2025-07-12T11:24:49Z</time>
      </trkpt>
      <trkpt lat="44.6672" lon="3.7234">
        <ele>1266.19</ele>
        <time>2025-07-12T11:24:33Z</time>
      </trkpt>
      <trkpt lat="44.66733" lon="3.72374">
        <ele>1262.35</ele>
        <time>2025-07-12T11:24:15Z</time>
      </trkpt>
      <trkpt lat="44.66736" lon="3.72384">
        <ele>1261.87</ele>
        <time>2025-07-12T11:24:11Z</time>
      </trkpt>
      <trkpt lat="44.66745" lon="3.72413">
        <ele>1257.54</ele>
        <time>2025-07-12T11:23:57Z</time>
      </trkpt>
      <trkpt lat="44.66766" lon="3.72426">
        <ele>1255.62</ele>
        <time>2025-07-12T11:23:44Z</time>
      </trkpt>
      <trkpt lat="44.66769" lon="3.72427">
        <ele>1255.62</ele>
        <time>2025-07-12T11:23:43Z</time>
      </trkpt>
      <trkpt lat="44.66772" lon="3.72428">
        <ele>1255.14</ele>
        <time>2025-07-12T11:23:42Z</time>
      </trkpt>
      <trkpt lat="44.66786" lon="3.7244">
        <ele>1250.33</ele>
        <time>2025-07-12T11:23:30Z</time>
      </trkpt>
      <trkpt lat="44.66804" lon="3.72457">
        <ele>1246.49</ele>
        <time>2025-07-12T11:23:14Z</time>
      </trkpt>
      <trkpt lat="44.66827" lon="3.7249">
        <ele>1246.97</ele>
        <time>2025-07-12T11:23:00Z</time>
      </trkpt>
      <trkpt lat="44.66834" lon="3.72506">
        <ele>1248.41</ele>
        <time>2025-07-12T11:22:44Z</time>
      </trkpt>
      <trkpt lat="44.66844" lon="3.72528">
        <ele>1250.81</ele>
        <time>2025-07-12T11:22:31Z</time>
      </trkpt>
      <trkpt lat="44.66872" lon="3.72558">
        <ele>1250.33</ele>
        <time>2025-07-12T11:22:12Z</time>
      </trkpt>
      <trkpt lat="44.66886" lon="3.72589">
        <ele>1246.97</ele>
        <time>2025-07-12T11:21:55Z</time>
      </trkpt>
      <trkpt lat="44.66906" lon="3.72625">
        <ele>1244.08</ele>
        <time>2025-07-12T11:21:38Z</time>
      </trkpt>
      <trkpt lat="44.66929" lon="3.72659">
        <ele>1239.28</ele>
        <time>2025-07-12T11:21:18Z</time>
      </trkpt>
      <trkpt lat="44.66944" lon="3.72693">
        <ele>1237.83</ele>
        <time>2025-07-12T11:20:55Z</time>
      </trkpt>
      <trkpt lat="44.66963" lon="3.72728">
        <ele>1234.95</ele>
        <time>2025-07-12T11:20:35Z</time>
      </trkpt>
      <trkpt lat="44.66979" lon="3.72762">
        <ele>1238.32</ele>
        <time>2025-07-12T11:20:15Z</time>
      </trkpt>
      <trkpt lat="44.67001" lon="3.72781">
        <ele>1238.8</ele>
        <time>2025-07-12T11:19:56Z</time>
      </trkpt>
      <trkpt lat="44.67019" lon="3.72806">
        <ele>1240.24</ele>
        <time>2025-07-12T11:19:38Z</time>
      </trkpt>
      <trkpt lat="44.67039" lon="3.72829">
        <ele>1241.2</ele>
        <time>2025-07-12T11:19:21Z</time>
      </trkpt>
      <trkpt lat="44.67053" lon="3.72851">
        <ele>1242.64</ele>
        <time>2025-07-12T11:19:06Z</time>
      </trkpt>
      <trkpt lat="44.67065" lon="3.72872">
        <ele>1244.08</ele>
        <time>2025-07-12T11:18:53Z</time>
      </trkpt>
      <trkpt lat="44.67081" lon="3.72902">
        <ele>1245.53</ele>
        <time>2025-07-12T11:18:34Z</time>
      </trkpt>
      <trkpt lat="44.67098" lon="3.72926">
        <ele>1245.53</ele>
        <time>2025-07-12T11:18:17Z</time>
      </trkpt>
      <trkpt lat="44.67114" lon="3.72949">
        <ele>1244.56</ele>
        <time>2025-07-12T11:18:01Z</time>
      </trkpt>
      <trkpt lat="44.67127" lon="3.7298">
        <ele>1243.6</ele>
        <time>2025-07-12T11:17:44Z</time>
      </trkpt>
      <trkpt lat="44.67139" lon="3.7301">
        <ele>1244.56</ele>
        <time>2025-07-12T11:17:28Z</time>
      </trkpt>
      <trkpt lat="44.67151" lon="3.73032">
        <ele>1242.64</ele>
        <time>2025-07-12T11:17:14Z</time>
      </trkpt>
      <trkpt lat="44.67168" lon="3.73065">
        <ele>1241.2</ele>
        <time>2025-07-12T11:16:56Z</time>
      </trkpt>
      <trkpt lat="44.67186" lon="3.73081">
        <ele>1238.32</ele>
        <time>2025-07-12T11:16:41Z</time>
      </trkpt>
      <trkpt lat="44.67201" lon="3.73104">
        <ele>1240.24</ele>
        <time>2025-07-12T11:16:26Z</time>
      </trkpt>
      <trkpt lat="44.67215" lon="3.73134">
        <ele>1242.16</ele>
        <time>2025-07-12T11:16:10Z</time>
      </trkpt>
      <trkpt lat="44.6723" lon="3.73161">
        <ele>1241.68</ele>
        <time>2025-07-12T11:15:52Z</time>
      </trkpt>
      <trkpt lat="44.67242" lon="3.73182">
        <ele>1243.12</ele>
        <time>2025-07-12T11:15:40Z</time>
      </trkpt>
      <trkpt lat="44.67256" lon="3.73211">
        <ele>1240.24</ele>
        <time>2025-07-12T11:15:25Z</time>
      </trkpt>
      <trkpt lat="44.67265" lon="3.73237">
        <ele>1239.76</ele>
        <time>2025-07-12T11:15:11Z</time>
      </trkpt>
      <trkpt lat="44.67275" lon="3.73263">
        <ele>1238.8</ele>
        <time>2025-07-12T11:14:57Z</time>
      </trkpt>
      <trkpt lat="44.67277" lon="3.73266">
        <ele>1238.8</ele>
        <time>2025-07-12T11:14:54Z</time>
      </trkpt>
      <trkpt lat="44.67278" lon="3.73267">
        <ele>1238.8</ele>
        <time>2025-07-12T11:14:53Z</time>
      </trkpt>
      <trkpt lat="44.67279" lon="3.73267">
        <ele>1238.8</ele>
        <time>2025-07-12T11:14:52Z</time>
      </trkpt>
      <trkpt lat="44.6728" lon="3.73269">
        <ele>1238.8</ele>
        <time>2025-07-12T11:14:51Z</time>
      </trkpt>
      <trkpt lat="44.67299" lon="3.73286">
        <ele>1239.76</ele>
        <time>2025-07-12T11:14:36Z</time>
      </trkpt>
      <trkpt lat="44.67301" lon="3.73287">
        <ele>1239.76</ele>
        <time>2025-07-12T11:14:35Z</time>
      </trkpt>
      <trkpt lat="44.67305" lon="3.73292">
        <ele>1239.28</ele>
        <time>2025-07-12T11:14:31Z</time>
      </trkpt>
      <trkpt lat="44.67316" lon="3.73314">
        <ele>1238.8</ele>
        <time>2025-07-12T11:14:18Z</time>
      </trkpt>
      <trkpt lat="44.67322" lon="3.73333">
        <ele>1239.76</ele>
        <time>2025-07-12T11:14:05Z</time>
      </trkpt>
      <trkpt lat="44.67335" lon="3.73362">
        <ele>1242.64</ele>
        <time>2025-07-12T11:13:49Z</time>
      </trkpt>
      <trkpt lat="44.67352" lon="3.73394">
        <ele>1242.64</ele>
        <time>2025-07-12T11:13:34Z</time>
      </trkpt>
      <trkpt lat="44.67369" lon="3.73414">
        <ele>1242.16</ele>
        <time>2025-07-12T11:13:19Z</time>
      </trkpt>
      <trkpt lat="44.67385" lon="3.73441">
        <ele>1239.76</ele>
        <time>2025-07-12T11:13:01Z</time>
      </trkpt>
      <trkpt lat="44.67392" lon="3.73455">
        <ele>1239.76</ele>
        <time>2025-07-12T11:12:54Z</time>
      </trkpt>
      <trkpt lat="44.67401" lon="3.73467">
        <ele>1238.32</ele>
        <time>2025-07-12T11:12:46Z</time>
      </trkpt>
      <trkpt lat="44.67414" lon="3.7349">
        <ele>1238.8</ele>
        <time>2025-07-12T11:12:31Z</time>
      </trkpt>
      <trkpt lat="44.67435" lon="3.73521">
        <ele>1239.28</ele>
        <time>2025-07-12T11:12:12Z</time>
      </trkpt>
      <trkpt lat="44.67454" lon="3.73551">
        <ele>1238.32</ele>
        <time>2025-07-12T11:11:52Z</time>
      </trkpt>
      <trkpt lat="44.67471" lon="3.73578">
        <ele>1239.76</ele>
        <time>2025-07-12T11:11:34Z</time>
      </trkpt>
      <trkpt lat="44.67488" lon="3.7361">
        <ele>1240.72</ele>
        <time>2025-07-12T11:11:15Z</time>
      </trkpt>
      <trkpt lat="44.67504" lon="3.73639">
        <ele>1241.68</ele>
        <time>2025-07-12T11:10:59Z</time>
      </trkpt>
      <trkpt lat="44.67504" lon="3.73642">
        <ele>1241.68</ele>
        <time>2025-07-12T11:10:58Z</time>
      </trkpt>
      <trkpt lat="44.67506" lon="3.73648">
        <ele>1242.16</ele>
        <time>2025-07-12T11:10:55Z</time>
      </trkpt>
      <trkpt lat="44.67526" lon="3.73683">
        <ele>1243.6</ele>
        <time>2025-07-12T11:10:36Z</time>
      </trkpt>
      <trkpt lat="44.67534" lon="3.73711">
        <ele>1244.08</ele>
        <time>2025-07-12T11:10:18Z</time>
      </trkpt>
      <trkpt lat="44.67546" lon="3.73748">
        <ele>1245.04</ele>
        <time>2025-07-12T11:09:58Z</time>
      </trkpt>
      <trkpt lat="44.67562" lon="3.73784">
        <ele>1246.49</ele>
        <time>2025-07-12T11:09:38Z</time>
      </trkpt>
      <trkpt lat="44.67578" lon="3.73824">
        <ele>1249.37</ele>
        <time>2025-07-12T11:09:16Z</time>
      </trkpt>
      <trkpt lat="44.67593" lon="3.7386">
        <ele>1249.85</ele>
        <time>2025-07-12T11:08:56Z</time>
      </trkpt>
      <trkpt lat="44.67613" lon="3.73893">
        <ele>1248.89</ele>
        <time>2025-07-12T11:08:36Z</time>
      </trkpt>
      <trkpt lat="44.67627" lon="3.73927">
        <ele>1249.37</ele>
        <time>2025-07-12T11:08:15Z</time>
      </trkpt>
      <trkpt lat="44.67645" lon="3.73959">
        <ele>1248.41</ele>
        <time>2025-07-12T11:07:53Z</time>
      </trkpt>
      <trkpt lat="44.67656" lon="3.73993">
        <ele>1247.93</ele>
        <time>2025-07-12T11:07:33Z</time>
      </trkpt>
      <trkpt lat="44.67656" lon="3.73995">
        <ele>1247.93</ele>
        <time>2025-07-12T11:07:32Z</time>
      </trkpt>
      <trkpt lat="44.67657" lon="3.73998">
        <ele>1247.45</ele>
        <time>2025-07-12T11:07:31Z</time>
      </trkpt>
      <trkpt lat="44.67658" lon="3.74003">
        <ele>1247.45</ele>
        <time>2025-07-12T11:07:29Z</time>
      </trkpt>
      <trkpt lat="44.67672" lon="3.74036">
        <ele>1249.85</ele>
        <time>2025-07-12T11:07:09Z</time>
      </trkpt>
      <trkpt lat="44.67693" lon="3.74062">
        <ele>1245.53</ele>
        <time>2025-07-12T11:06:50Z</time>
      </trkpt>
      <trkpt lat="44.67716" lon="3.74091">
        <ele>1244.56</ele>
        <time>2025-07-12T11:06:29Z</time>
      </trkpt>
      <trkpt lat="44.67726" lon="3.74117">
        <ele>1243.12</ele>
        <time>2025-07-12T11:06:12Z</time>
      </trkpt>
      <trkpt lat="44.67739" lon="3.74147">
        <ele>1241.2</ele>
        <time>2025-07-12T11:05:56Z</time>
      </trkpt>
      <trkpt lat="44.6775" lon="3.74174">
        <ele>1239.28</ele>
        <time>2025-07-12T11:05:37Z</time>
      </trkpt>
      <trkpt lat="44.67756" lon="3.74212">
        <ele>1238.8</ele>
        <time>2025-07-12T11:05:20Z</time>
      </trkpt>
      <trkpt lat="44.67762" lon="3.74241">
        <ele>1237.83</ele>
        <time>2025-07-12T11:05:02Z</time>
      </trkpt>
      <trkpt lat="44.67782" lon="3.7427">
        <ele>1233.51</ele>
        <time>2025-07-12T11:04:43Z</time>
      </trkpt>
      <trkpt lat="44.67797" lon="3.7429">
        <ele>1230.14</ele>
        <time>2025-07-12T11:04:27Z</time>
      </trkpt>
      <trkpt lat="44.67812" lon="3.74325">
        <ele>1228.22</ele>
        <time>2025-07-12T11:04:05Z</time>
      </trkpt>
      <trkpt lat="44.67821" lon="3.74355">
        <ele>1228.22</ele>
        <time>2025-07-12T11:03:47Z</time>
      </trkpt>
      <trkpt lat="44.67831" lon="3.74391">
        <ele>1226.3</ele>
        <time>2025-07-12T11:03:34Z</time>
      </trkpt>
      <trkpt lat="44.67839" lon="3.74416">
        <ele>1224.86</ele>
        <time>2025-07-12T11:03:18Z</time>
      </trkpt>
      <trkpt lat="44.67839" lon="3.74418">
        <ele>1224.38</ele>
        <time>2025-07-12T11:03:17Z</time>
      </trkpt>
      <trkpt lat="44.67842" lon="3.74429">
        <ele>1223.9</ele>
        <time>2025-07-12T11:03:10Z</time>
      </trkpt>
      <trkpt lat="44.67853" lon="3.74456">
        <ele>1224.38</ele>
        <time>2025-07-12T11:02:55Z</time>
      </trkpt>
      <trkpt lat="44.67862" lon="3.74487">
        <ele>1223.42</ele>
        <time>2025-07-12T11:02:38Z</time>
      </trkpt>
      <trkpt lat="44.67871" lon="3.7452">
        <ele>1221.49</ele>
        <time>2025-07-12T11:02:21Z</time>
      </trkpt>
      <trkpt lat="44.67875" lon="3.74564">
        <ele>1221.49</ele>
        <time>2025-07-12T11:01:58Z</time>
      </trkpt>
      <trkpt lat="44.67875" lon="3.74604">
        <ele>1221.97</ele>
        <time>2025-07-12T11:01:38Z</time>
      </trkpt>
      <trkpt lat="44.6788" lon="3.74637">
        <ele>1219.09</ele>
        <time>2025-07-12T11:01:18Z</time>
      </trkpt>
      <trkpt lat="44.67887" lon="3.7467">
        <ele>1219.57</ele>
        <time>2025-07-12T11:01:01Z</time>
      </trkpt>
      <trkpt lat="44.67897" lon="3.74709">
        <ele>1218.61</ele>
        <time>2025-07-12T11:00:43Z</time>
      </trkpt>
      <trkpt lat="44.67904" lon="3.74741">
        <ele>1217.65</ele>
        <time>2025-07-12T11:00:28Z</time>
      </trkpt>
      <trkpt lat="44.6791" lon="3.74771">
        <ele>1217.65</ele>
        <time>2025-07-12T11:00:11Z</time>
      </trkpt>
      <trkpt lat="44.6792" lon="3.74813">
        <ele>1219.09</ele>
        <time>2025-07-12T10:59:54Z</time>
      </trkpt>
      <trkpt lat="44.67927" lon="3.74842">
        <ele>1218.61</ele>
        <time>2025-07-12T10:59:37Z</time>
      </trkpt>
      <trkpt lat="44.67936" lon="3.74878">
        <ele>1219.57</ele>
        <time>2025-07-12T10:59:18Z</time>
      </trkpt>
      <trkpt lat="44.67942" lon="3.74913">
        <ele>1221.49</ele>
        <time>2025-07-12T10:59:03Z</time>
      </trkpt>
      <trkpt lat="44.67943" lon="3.74914">
        <ele>1221.49</ele>
        <time>2025-07-12T10:59:02Z</time>
      </trkpt>
      <trkpt lat="44.67943" lon="3.74916">
        <ele>1221.01</ele>
        <time>2025-07-12T10:59:01Z</time>
      </trkpt>
      <trkpt lat="44.67944" lon="3.74918">
        <ele>1221.01</ele>
        <time>2025-07-12T10:59:00Z</time>
      </trkpt>
      <trkpt lat="44.67945" lon="3.7492">
        <ele>1221.01</ele>
        <time>2025-07-12T10:58:59Z</time>
      </trkpt>
      <trkpt lat="44.67952" lon="3.74928">
        <ele>1220.05</ele>
        <time>2025-07-12T10:58:53Z</time>
      </trkpt>
      <trkpt lat="44.67966" lon="3.74964">
        <ele>1218.61</ele>
        <time>2025-07-12T10:58:40Z</time>
      </trkpt>
      <trkpt lat="44.67978" lon="3.74991">
        <ele>1220.05</ele>
        <time>2025-07-12T10:58:24Z</time>
      </trkpt>
      <trkpt lat="44.67978" lon="3.74993">
        <ele>1220.05</ele>
        <time>2025-07-12T10:58:23Z</time>
      </trkpt>
      <trkpt lat="44.67981" lon="3.75001">
        <ele>1219.57</ele>
        <time>2025-07-12T10:58:18Z</time>
      </trkpt>
      <trkpt lat="44.67996" lon="3.75025">
        <ele>1217.65</ele>
        <time>2025-07-12T10:57:58Z</time>
      </trkpt>
      <trkpt lat="44.68011" lon="3.7505">
        <ele>1216.21</ele>
        <time>2025-07-12T10:57:44Z</time>
      </trkpt>
      <trkpt lat="44.68026" lon="3.75083">
        <ele>1214.28</ele>
        <time>2025-07-12T10:57:24Z</time>
      </trkpt>
      <trkpt lat="44.68041" lon="3.75106">
        <ele>1212.84</ele>
        <time>2025-07-12T10:57:10Z</time>
      </trkpt>
      <trkpt lat="44.68051" lon="3.75132">
        <ele>1211.4</ele>
        <time>2025-07-12T10:56:56Z</time>
      </trkpt>
      <trkpt lat="44.68069" lon="3.75184">
        <ele>1208.03</ele>
        <time>2025-07-12T10:56:40Z</time>
      </trkpt>
      <trkpt lat="44.68078" lon="3.75237">
        <ele>1202.27</ele>
        <time>2025-07-12T10:56:28Z</time>
      </trkpt>
      <trkpt lat="44.68091" lon="3.75304">
        <ele>1198.42</ele>
        <time>2025-07-12T10:56:15Z</time>
      </trkpt>
      <trkpt lat="44.6811" lon="3.75371">
        <ele>1195.54</ele>
        <time>2025-07-12T10:56:03Z</time>
      </trkpt>
      <trkpt lat="44.68113" lon="3.75419">
        <ele>1195.54</ele>
        <time>2025-07-12T10:55:49Z</time>
      </trkpt>
      <trkpt lat="44.68119" lon="3.75451">
        <ele>1196.5</ele>
        <time>2025-07-12T10:55:34Z</time>
      </trkpt>
      <trkpt lat="44.68129" lon="3.7549">
        <ele>1196.02</ele>
        <time>2025-07-12T10:55:18Z</time>
      </trkpt>
      <trkpt lat="44.68144" lon="3.75509">
        <ele>1195.54</ele>
        <time>2025-07-12T10:55:02Z</time>
      </trkpt>
      <trkpt lat="44.6816" lon="3.75533">
        <ele>1196.5</ele>
        <time>2025-07-12T10:54:44Z</time>
      </trkpt>
      <trkpt lat="44.68172" lon="3.75559">
        <ele>1198.42</ele>
        <time>2025-07-12T10:54:28Z</time>
      </trkpt>
      <trkpt lat="44.68183" lon="3.75585">
        <ele>1199.38</ele>
        <time>2025-07-12T10:54:13Z</time>
      </trkpt>
      <trkpt lat="44.682" lon="3.75609">
        <ele>1198.9</ele>
        <time>2025-07-12T10:53:55Z</time>
      </trkpt>
      <trkpt lat="44.68215" lon="3.75623">
        <ele>1198.9</ele>
        <time>2025-07-12T10:53:42Z</time>
      </trkpt>
      <trkpt lat="44.68236" lon="3.75636">
        <ele>1199.38</ele>
        <time>2025-07-12T10:53:25Z</time>
      </trkpt>
      <trkpt lat="44.68253" lon="3.7565">
        <ele>1201.3</ele>
        <time>2025-07-12T10:53:10Z</time>
      </trkpt>
      <trkpt lat="44.68274" lon="3.75664">
        <ele>1201.79</ele>
        <time>2025-07-12T10:52:52Z</time>
      </trkpt>
      <trkpt lat="44.68292" lon="3.75678">
        <ele>1202.75</ele>
        <time>2025-07-12T10:52:35Z</time>
      </trkpt>
      <trkpt lat="44.68306" lon="3.75688">
        <ele>1199.86</ele>
        <time>2025-07-12T10:52:20Z</time>
      </trkpt>
      <trkpt lat="44.68323" lon="3.75697">
        <ele>1202.27</ele>
        <time>2025-07-12T10:52:05Z</time>
      </trkpt>
      <trkpt lat="44.6834" lon="3.75705">
        <ele>1200.82</ele>
        <time>2025-07-12T10:51:49Z</time>
      </trkpt>
      <trkpt lat="44.68363" lon="3.75714">
        <ele>1198.42</ele>
        <time>2025-07-12T10:51:31Z</time>
      </trkpt>
      <trkpt lat="44.68382" lon="3.75729">
        <ele>1197.46</ele>
        <time>2025-07-12T10:51:14Z</time>
      </trkpt>
      <trkpt lat="44.68404" lon="3.75745">
        <ele>1196.98</ele>
        <time>2025-07-12T10:50:56Z</time>
      </trkpt>
      <trkpt lat="44.6842" lon="3.75753">
        <ele>1196.98</ele>
        <time>2025-07-12T10:50:44Z</time>
      </trkpt>
      <trkpt lat="44.68437" lon="3.75765">
        <ele>1198.9</ele>
        <time>2025-07-12T10:50:29Z</time>
      </trkpt>
      <trkpt lat="44.68438" lon="3.75766">
        <ele>1198.9</ele>
        <time>2025-07-12T10:50:28Z</time>
      </trkpt>
      <trkpt lat="44.68455" lon="3.7578">
        <ele>1199.86</ele>
        <time>2025-07-12T10:50:14Z</time>
      </trkpt>
      <trkpt lat="44.68467" lon="3.7579">
        <ele>1200.82</ele>
        <time>2025-07-12T10:50:02Z</time>
      </trkpt>
      <trkpt lat="44.68471" lon="3.75792">
        <ele>1200.82</ele>
        <time>2025-07-12T10:49:59Z</time>
      </trkpt>
      <trkpt lat="44.68484" lon="3.75801">
        <ele>1196.98</ele>
        <time>2025-07-12T10:49:46Z</time>
      </trkpt>
      <trkpt lat="44.68478" lon="3.75796">
        <ele>1198.42</ele>
        <time>2025-07-12T10:49:32Z</time>
      </trkpt>
      <trkpt lat="44.68481" lon="3.75798">
        <ele>1199.38</ele>
        <time>2025-07-12T10:49:14Z</time>
      </trkpt>
      <trkpt lat="44.68483" lon="3.75803">
        <ele>1199.38</ele>
        <time>2025-07-12T10:48:47Z</time>
      </trkpt>
      <trkpt lat="44.68484" lon="3.75811">
        <ele>1202.75</ele>
        <time>2025-07-12T10:48:23Z</time>
      </trkpt>
      <trkpt lat="44.68488" lon="3.75816">
        <ele>1202.27</ele>
        <time>2025-07-12T10:48:01Z</time>
      </trkpt>
      <trkpt lat="44.68496" lon="3.75817">
        <ele>1198.42</ele>
        <time>2025-07-12T10:47:44Z</time>
      </trkpt>
      <trkpt lat="44.68506" lon="3.75821">
        <ele>1196.02</ele>
        <time>2025-07-12T10:47:28Z</time>
      </trkpt>
      <trkpt lat="44.68509" lon="3.75823">
        <ele>1196.02</ele>
        <time>2025-07-12T10:47:26Z</time>
      </trkpt>
      <trkpt lat="44.6851" lon="3.75824">
        <ele>1196.02</ele>
        <time>2025-07-12T10:47:25Z</time>
      </trkpt>
      <trkpt lat="44.68512" lon="3.75825">
        <ele>1196.02</ele>
        <time>2025-07-12T10:47:24Z</time>
      </trkpt>
      <trkpt lat="44.68526" lon="3.75833">
        <ele>1198.42</ele>
        <time>2025-07-12T10:47:15Z</time>
      </trkpt>
      <trkpt lat="44.68544" lon="3.75845">
        <ele>1198.42</ele>
        <time>2025-07-12T10:47:01Z</time>
      </trkpt>
      <trkpt lat="44.68558" lon="3.75859">
        <ele>1196.98</ele>
        <time>2025-07-12T10:46:46Z</time>
      </trkpt>
      <trkpt lat="44.68569" lon="3.75867">
        <ele>1196.5</ele>
        <time>2025-07-12T10:46:36Z</time>
      </trkpt>
      <trkpt lat="44.68577" lon="3.75879">
        <ele>1196.98</ele>
        <time>2025-07-12T10:46:27Z</time>
      </trkpt>
      <trkpt lat="44.68596" lon="3.75898">
        <ele>1196.98</ele>
        <time>2025-07-12T10:46:12Z</time>
      </trkpt>
      <trkpt lat="44.68604" lon="3.759">
        <ele>1194.58</ele>
        <time>2025-07-12T10:46:05Z</time>
      </trkpt>
      <trkpt lat="44.68623" lon="3.75905">
        <ele>1193.61</ele>
        <time>2025-07-12T10:45:51Z</time>
      </trkpt>
      <trkpt lat="44.68632" lon="3.75909">
        <ele>1194.09</ele>
        <time>2025-07-12T10:45:42Z</time>
      </trkpt>
      <trkpt lat="44.68633" lon="3.75908">
        <ele>1194.09</ele>
        <time>2025-07-12T10:45:41Z</time>
      </trkpt>
      <trkpt lat="44.68634" lon="3.75907">
        <ele>1194.09</ele>
        <time>2025-07-12T10:45:40Z</time>
      </trkpt>
      <trkpt lat="44.68634" lon="3.75906">
        <ele>1193.61</ele>
        <time>2025-07-12T10:45:39Z</time>
      </trkpt>
      <trkpt lat="44.68635" lon="3.75899">
        <ele>1193.61</ele>
        <time>2025-07-12T10:45:34Z</time>
      </trkpt>
      <trkpt lat="44.68635" lon="3.75897">
        <ele>1193.61</ele>
        <time>2025-07-12T10:45:33Z</time>
      </trkpt>
      <trkpt lat="44.68634" lon="3.75895">
        <ele>1193.13</ele>
        <time>2025-07-12T10:45:32Z</time>
      </trkpt>
      <trkpt lat="44.68634" lon="3.75894">
        <ele>1193.13</ele>
        <time>2025-07-12T10:45:31Z</time>
      </trkpt>
      <trkpt lat="44.68634" lon="3.75892">
        <ele>1193.13</ele>
        <time>2025-07-12T10:45:30Z</time>
      </trkpt>
      <trkpt lat="44.68633" lon="3.75891">
        <ele>1192.65</ele>
        <time>2025-07-12T10:45:29Z</time>
      </trkpt>
      <trkpt lat="44.68635" lon="3.75858">
        <ele>1193.13</ele>
        <time>2025-07-12T10:45:15Z</time>
      </trkpt>
      <trkpt lat="44.68635" lon="3.75849">
        <ele>1193.61</ele>
        <time>2025-07-12T10:45:12Z</time>
      </trkpt>
      <trkpt lat="44.68635" lon="3.75848">
        <ele>1193.61</ele>
        <time>2025-07-12T10:45:11Z</time>
      </trkpt>
      <trkpt lat="44.68634" lon="3.75846">
        <ele>1193.61</ele>
        <time>2025-07-12T10:45:03Z</time>
      </trkpt>
      <trkpt lat="44.68634" lon="3.75845">
        <ele>1193.13</ele>
        <time>2025-07-12T10:44:43Z</time>
      </trkpt>
      <trkpt lat="44.68631" lon="3.75876">
        <ele>1193.13</ele>
        <time>2025-07-12T10:44:27Z</time>
      </trkpt>
      <trkpt lat="44.68638" lon="3.759">
        <ele>1192.17</ele>
        <time>2025-07-12T10:44:14Z</time>
      </trkpt>
      <trkpt lat="44.6864" lon="3.75897">
        <ele>1191.69</ele>
        <time>2025-07-12T10:44:12Z</time>
      </trkpt>
      <trkpt lat="44.6867" lon="3.75877">
        <ele>1192.17</ele>
        <time>2025-07-12T10:43:53Z</time>
      </trkpt>
      <trkpt lat="44.68697" lon="3.75851">
        <ele>1193.61</ele>
        <time>2025-07-12T10:43:33Z</time>
      </trkpt>
      <trkpt lat="44.68726" lon="3.7584">
        <ele>1196.5</ele>
        <time>2025-07-12T10:43:16Z</time>
      </trkpt>
      <trkpt lat="44.68748" lon="3.75857">
        <ele>1196.98</ele>
        <time>2025-07-12T10:42:59Z</time>
      </trkpt>
      <trkpt lat="44.68771" lon="3.75873">
        <ele>1196.5</ele>
        <time>2025-07-12T10:42:41Z</time>
      </trkpt>
      <trkpt lat="44.68793" lon="3.75886">
        <ele>1196.02</ele>
        <time>2025-07-12T10:42:25Z</time>
      </trkpt>
      <trkpt lat="44.6882" lon="3.75896">
        <ele>1196.98</ele>
        <time>2025-07-12T10:42:08Z</time>
      </trkpt>
      <trkpt lat="44.68844" lon="3.75908">
        <ele>1198.9</ele>
        <time>2025-07-12T10:41:53Z</time>
      </trkpt>
      <trkpt lat="44.68867" lon="3.75938">
        <ele>1202.27</ele>
        <time>2025-07-12T10:41:35Z</time>
      </trkpt>
      <trkpt lat="44.68884" lon="3.75974">
        <ele>1206.11</ele>
        <time>2025-07-12T10:41:21Z</time>
      </trkpt>
      <trkpt lat="44.68945" lon="3.76009">
        <ele>1197.46</ele>
        <time>2025-07-12T10:41:05Z</time>
      </trkpt>
      <trkpt lat="44.6895" lon="3.76011">
        <ele>1196.98</ele>
        <time>2025-07-12T10:41:04Z</time>
      </trkpt>
      <trkpt lat="44.68986" lon="3.76014">
        <ele>1192.65</ele>
        <time>2025-07-12T10:40:54Z</time>
      </trkpt>
      <trkpt lat="44.69004" lon="3.76009">
        <ele>1191.21</ele>
        <time>2025-07-12T10:40:50Z</time>
      </trkpt>
      <trkpt lat="44.69052" lon="3.75973">
        <ele>1186.4</ele>
        <time>2025-07-12T10:40:38Z</time>
      </trkpt>
      <trkpt lat="44.69055" lon="3.75969">
        <ele>1185.92</ele>
        <time>2025-07-12T10:40:37Z</time>
      </trkpt>
      <trkpt lat="44.69058" lon="3.75964">
        <ele>1185.44</ele>
        <time>2025-07-12T10:40:36Z</time>
      </trkpt>
      <trkpt lat="44.69061" lon="3.75961">
        <ele>1184.96</ele>
        <time>2025-07-12T10:40:35Z</time>
      </trkpt>
      <trkpt lat="44.69065" lon="3.75957">
        <ele>1184.48</ele>
        <time>2025-07-12T10:40:34Z</time>
      </trkpt>
      <trkpt lat="44.69069" lon="3.75955">
        <ele>1184</ele>
        <time>2025-07-12T10:40:33Z</time>
      </trkpt>
      <trkpt lat="44.69118" lon="3.75944">
        <ele>1181.12</ele>
        <time>2025-07-12T10:40:21Z</time>
      </trkpt>
      <trkpt lat="44.69161" lon="3.75944">
        <ele>1178.23</ele>
        <time>2025-07-12T10:40:08Z</time>
      </trkpt>
      <trkpt lat="44.69192" lon="3.75942">
        <ele>1176.79</ele>
        <time>2025-07-12T10:39:52Z</time>
      </trkpt>
      <trkpt lat="44.69204" lon="3.75959">
        <ele>1175.83</ele>
        <time>2025-07-12T10:39:34Z</time>
      </trkpt>
      <trkpt lat="44.69207" lon="3.75997">
        <ele>1173.91</ele>
        <time>2025-07-12T10:39:14Z</time>
      </trkpt>
      <trkpt lat="44.69202" lon="3.76033">
        <ele>1168.62</ele>
        <time>2025-07-12T10:38:54Z</time>
      </trkpt>
      <trkpt lat="44.69196" lon="3.76067">
        <ele>1169.58</ele>
        <time>2025-07-12T10:38:34Z</time>
      </trkpt>
      <trkpt lat="44.69192" lon="3.76096">
        <ele>1170.06</ele>
        <time>2025-07-12T10:38:19Z</time>
      </trkpt>
      <trkpt lat="44.69186" lon="3.7613">
        <ele>1172.95</ele>
        <time>2025-07-12T10:38:00Z</time>
      </trkpt>
      <trkpt lat="44.69176" lon="3.76165">
        <ele>1173.43</ele>
        <time>2025-07-12T10:37:42Z</time>
      </trkpt>
      <trkpt lat="44.69157" lon="3.76199">
        <ele>1175.35</ele>
        <time>2025-07-12T10:37:21Z</time>
      </trkpt>
      <trkpt lat="44.69148" lon="3.76226">
        <ele>1174.87</ele>
        <time>2025-07-12T10:37:05Z</time>
      </trkpt>
      <trkpt lat="44.69139" lon="3.76255">
        <ele>1175.83</ele>
        <time>2025-07-12T10:36:49Z</time>
      </trkpt>
      <trkpt lat="44.69125" lon="3.76277">
        <ele>1177.75</ele>
        <time>2025-07-12T10:36:33Z</time>
      </trkpt>
      <trkpt lat="44.69116" lon="3.76312">
        <ele>1184.48</ele>
        <time>2025-07-12T10:36:15Z</time>
      </trkpt>
      <trkpt lat="44.69126" lon="3.76335">
        <ele>1186.4</ele>
        <time>2025-07-12T10:36:01Z</time>
      </trkpt>
      <trkpt lat="44.69141" lon="3.76369">
        <ele>1186.4</ele>
        <time>2025-07-12T10:35:40Z</time>
      </trkpt>
      <trkpt lat="44.69156" lon="3.76404">
        <ele>1187.85</ele>
        <time>2025-07-12T10:35:19Z</time>
      </trkpt>
      <trkpt lat="44.69168" lon="3.76434">
        <ele>1185.92</ele>
        <time>2025-07-12T10:35:00Z</time>
      </trkpt>
      <trkpt lat="44.69179" lon="3.76467">
        <ele>1184.96</ele>
        <time>2025-07-12T10:34:39Z</time>
      </trkpt>
      <trkpt lat="44.6919" lon="3.76502">
        <ele>1185.44</ele>
        <time>2025-07-12T10:34:20Z</time>
      </trkpt>
      <trkpt lat="44.69201" lon="3.76535">
        <ele>1188.81</ele>
        <time>2025-07-12T10:34:01Z</time>
      </trkpt>
      <trkpt lat="44.69211" lon="3.76559">
        <ele>1187.85</ele>
        <time>2025-07-12T10:33:43Z</time>
      </trkpt>
      <trkpt lat="44.69227" lon="3.7659">
        <ele>1187.85</ele>
        <time>2025-07-12T10:33:23Z</time>
      </trkpt>
      <trkpt lat="44.69239" lon="3.76617">
        <ele>1181.12</ele>
        <time>2025-07-12T10:33:06Z</time>
      </trkpt>
      <trkpt lat="44.69256" lon="3.76647">
        <ele>1176.79</ele>
        <time>2025-07-12T10:32:47Z</time>
      </trkpt>
      <trkpt lat="44.69276" lon="3.76661">
        <ele>1173.43</ele>
        <time>2025-07-12T10:32:27Z</time>
      </trkpt>
      <trkpt lat="44.693" lon="3.76685">
        <ele>1163.81</ele>
        <time>2025-07-12T10:32:02Z</time>
      </trkpt>
      <trkpt lat="44.69322" lon="3.76691">
        <ele>1158.53</ele>
        <time>2025-07-12T10:31:41Z</time>
      </trkpt>
      <trkpt lat="44.6933" lon="3.76703">
        <ele>1159.49</ele>
        <time>2025-07-12T10:31:20Z</time>
      </trkpt>
      <trkpt lat="44.69351" lon="3.76719">
        <ele>1157.56</ele>
        <time>2025-07-12T10:30:58Z</time>
      </trkpt>
      <trkpt lat="44.69379" lon="3.76731">
        <ele>1155.64</ele>
        <time>2025-07-12T10:30:37Z</time>
      </trkpt>
      <trkpt lat="44.69393" lon="3.76766">
        <ele>1150.84</ele>
        <time>2025-07-12T10:30:14Z</time>
      </trkpt>
      <trkpt lat="44.69404" lon="3.76796">
        <ele>1146.51</ele>
        <time>2025-07-12T10:29:57Z</time>
      </trkpt>
      <trkpt lat="44.69421" lon="3.7682">
        <ele>1135.94</ele>
        <time>2025-07-12T10:29:41Z</time>
      </trkpt>
      <trkpt lat="44.69422" lon="3.76823">
        <ele>1136.9</ele>
        <time>2025-07-12T10:29:39Z</time>
      </trkpt>
      <trkpt lat="44.69435" lon="3.76854">
        <ele>1136.9</ele>
        <time>2025-07-12T10:29:20Z</time>
      </trkpt>
      <trkpt lat="44.69447" lon="3.76895">
        <ele>1144.59</ele>
        <time>2025-07-12T10:28:59Z</time>
      </trkpt>
      <trkpt lat="44.69466" lon="3.76932">
        <ele>1147.47</ele>
        <time>2025-07-12T10:28:39Z</time>
      </trkpt>
      <trkpt lat="44.69483" lon="3.7696">
        <ele>1151.8</ele>
        <time>2025-07-12T10:28:18Z</time>
      </trkpt>
      <trkpt lat="44.69507" lon="3.76989">
        <ele>1152.28</ele>
        <time>2025-07-12T10:27:58Z</time>
      </trkpt>
      <trkpt lat="44.69522" lon="3.77014">
        <ele>1151.32</ele>
        <time>2025-07-12T10:27:38Z</time>
      </trkpt>
      <trkpt lat="44.69545" lon="3.7704">
        <ele>1144.11</ele>
        <time>2025-07-12T10:27:14Z</time>
      </trkpt>
      <trkpt lat="44.69562" lon="3.77061">
        <ele>1140.26</ele>
        <time>2025-07-12T10:26:56Z</time>
      </trkpt>
      <trkpt lat="44.69582" lon="3.77086">
        <ele>1133.05</ele>
        <time>2025-07-12T10:26:36Z</time>
      </trkpt>
      <trkpt lat="44.69597" lon="3.77118">
        <ele>1128.24</ele>
        <time>2025-07-12T10:26:16Z</time>
      </trkpt>
      <trkpt lat="44.69611" lon="3.77146">
        <ele>1125.84</ele>
        <time>2025-07-12T10:26:00Z</time>
      </trkpt>
      <trkpt lat="44.69612" lon="3.77148">
        <ele>1125.36</ele>
        <time>2025-07-12T10:25:59Z</time>
      </trkpt>
      <trkpt lat="44.69613" lon="3.77152">
        <ele>1125.36</ele>
        <time>2025-07-12T10:25:57Z</time>
      </trkpt>
      <trkpt lat="44.69614" lon="3.77156">
        <ele>1125.36</ele>
        <time>2025-07-12T10:25:54Z</time>
      </trkpt>
      <trkpt lat="44.69623" lon="3.77188">
        <ele>1122</ele>
        <time>2025-07-12T10:25:37Z</time>
      </trkpt>
      <trkpt lat="44.69629" lon="3.77209">
        <ele>1119.59</ele>
        <time>2025-07-12T10:25:24Z</time>
      </trkpt>
      <trkpt lat="44.69639" lon="3.77242">
        <ele>1115.75</ele>
        <time>2025-07-12T10:25:15Z</time>
      </trkpt>
      <trkpt lat="44.69649" lon="3.77278">
        <ele>1109.98</ele>
        <time>2025-07-12T10:25:03Z</time>
      </trkpt>
      <trkpt lat="44.69651" lon="3.77305">
        <ele>1108.06</ele>
        <time>2025-07-12T10:24:50Z</time>
      </trkpt>
      <trkpt lat="44.69653" lon="3.7733">
        <ele>1106.61</ele>
        <time>2025-07-12T10:24:37Z</time>
      </trkpt>
      <trkpt lat="44.6966" lon="3.77359">
        <ele>1105.17</ele>
        <time>2025-07-12T10:24:22Z</time>
      </trkpt>
      <trkpt lat="44.69672" lon="3.77388">
        <ele>1106.61</ele>
        <time>2025-07-12T10:24:06Z</time>
      </trkpt>
      <trkpt lat="44.69682" lon="3.77409">
        <ele>1107.58</ele>
        <time>2025-07-12T10:23:50Z</time>
      </trkpt>
      <trkpt lat="44.69692" lon="3.77436">
        <ele>1109.5</ele>
        <time>2025-07-12T10:23:32Z</time>
      </trkpt>
      <trkpt lat="44.69692" lon="3.77438">
        <ele>1109.98</ele>
        <time>2025-07-12T10:23:31Z</time>
      </trkpt>
      <trkpt lat="44.69694" lon="3.77444">
        <ele>1110.46</ele>
        <time>2025-07-12T10:23:26Z</time>
      </trkpt>
      <trkpt lat="44.69696" lon="3.7745">
        <ele>1111.9</ele>
        <time>2025-07-12T10:23:10Z</time>
      </trkpt>
      <trkpt lat="44.69696" lon="3.77453">
        <ele>1116.23</ele>
        <time>2025-07-12T10:22:54Z</time>
      </trkpt>
      <trkpt lat="44.69708" lon="3.77461">
        <ele>1119.59</ele>
        <time>2025-07-12T10:22:40Z</time>
      </trkpt>
      <trkpt lat="44.69714" lon="3.77465">
        <ele>1121.52</ele>
        <time>2025-07-12T10:22:29Z</time>
      </trkpt>
      <trkpt lat="44.69715" lon="3.77483">
        <ele>1120.55</ele>
        <time>2025-07-12T10:22:13Z</time>
      </trkpt>
      <trkpt lat="44.69713" lon="3.77502">
        <ele>1122</ele>
        <time>2025-07-12T10:21:59Z</time>
      </trkpt>
      <trkpt lat="44.6972" lon="3.77526">
        <ele>1122.48</ele>
        <time>2025-07-12T10:21:43Z</time>
      </trkpt>
      <trkpt lat="44.6972" lon="3.77528">
        <ele>1122.48</ele>
        <time>2025-07-12T10:21:42Z</time>
      </trkpt>
      <trkpt lat="44.69721" lon="3.7753">
        <ele>1122.48</ele>
        <time>2025-07-12T10:21:41Z</time>
      </trkpt>
      <trkpt lat="44.69722" lon="3.77531">
        <ele>1122.96</ele>
        <time>2025-07-12T10:21:40Z</time>
      </trkpt>
      <trkpt lat="44.69734" lon="3.77551">
        <ele>1125.36</ele>
        <time>2025-07-12T10:21:24Z</time>
      </trkpt>
      <trkpt lat="44.69735" lon="3.77551">
        <ele>1125.36</ele>
        <time>2025-07-12T10:21:23Z</time>
      </trkpt>
      <trkpt lat="44.69737" lon="3.77552">
        <ele>1126.32</ele>
        <time>2025-07-12T10:21:20Z</time>
      </trkpt>
      <trkpt lat="44.69738" lon="3.77552">
        <ele>1126.32</ele>
        <time>2025-07-12T10:21:19Z</time>
      </trkpt>
      <trkpt lat="44.69739" lon="3.77553">
        <ele>1126.8</ele>
        <time>2025-07-12T10:21:18Z</time>
      </trkpt>
      <trkpt lat="44.6974" lon="3.77554">
        <ele>1126.8</ele>
        <time>2025-07-12T10:21:17Z</time>
      </trkpt>
      <trkpt lat="44.69741" lon="3.77555">
        <ele>1127.28</ele>
        <time>2025-07-12T10:21:16Z</time>
      </trkpt>
      <trkpt lat="44.69741" lon="3.77557">
        <ele>1127.76</ele>
        <time>2025-07-12T10:21:15Z</time>
      </trkpt>
      <trkpt lat="44.69741" lon="3.77558">
        <ele>1127.76</ele>
        <time>2025-07-12T10:21:14Z</time>
      </trkpt>
      <trkpt lat="44.69735" lon="3.77567">
        <ele>1129.21</ele>
        <time>2025-07-12T10:21:07Z</time>
      </trkpt>
      <trkpt lat="44.69713" lon="3.77577">
        <ele>1131.13</ele>
        <time>2025-07-12T10:20:50Z</time>
      </trkpt>
      <trkpt lat="44.69711" lon="3.77588">
        <ele>1131.61</ele>
        <time>2025-07-12T10:20:43Z</time>
      </trkpt>
      <trkpt lat="44.6971" lon="3.7759">
        <ele>1131.61</ele>
        <time>2025-07-12T10:20:42Z</time>
      </trkpt>
      <trkpt lat="44.6971" lon="3.77592">
        <ele>1132.09</ele>
        <time>2025-07-12T10:20:41Z</time>
      </trkpt>
      <trkpt lat="44.69711" lon="3.77595">
        <ele>1132.09</ele>
        <time>2025-07-12T10:20:40Z</time>
      </trkpt>
      <trkpt lat="44.69711" lon="3.77597">
        <ele>1132.09</ele>
        <time>2025-07-12T10:20:39Z</time>
      </trkpt>
      <trkpt lat="44.69711" lon="3.77616">
        <ele>1134.49</ele>
        <time>2025-07-12T10:20:27Z</time>
      </trkpt>
      <trkpt lat="44.6972" lon="3.77627">
        <ele>1136.9</ele>
        <time>2025-07-12T10:20:12Z</time>
      </trkpt>
      <trkpt lat="44.69719" lon="3.77642">
        <ele>1139.3</ele>
        <time>2025-07-12T10:19:57Z</time>
      </trkpt>
      <trkpt lat="44.69698" lon="3.77662">
        <ele>1141.7</ele>
        <time>2025-07-12T10:19:39Z</time>
      </trkpt>
      <trkpt lat="44.69695" lon="3.77664">
        <ele>1141.7</ele>
        <time>2025-07-12T10:19:34Z</time>
      </trkpt>
      <trkpt lat="44.69694" lon="3.77672">
        <ele>1141.22</ele>
        <time>2025-07-12T10:19:21Z</time>
      </trkpt>
      <trkpt lat="44.69695" lon="3.77674">
        <ele>1141.22</ele>
        <time>2025-07-12T10:19:20Z</time>
      </trkpt>
      <trkpt lat="44.69695" lon="3.77675">
        <ele>1141.22</ele>
        <time>2025-07-12T10:19:19Z</time>
      </trkpt>
      <trkpt lat="44.69696" lon="3.77677">
        <ele>1141.22</ele>
        <time>2025-07-12T10:19:18Z</time>
      </trkpt>
      <trkpt lat="44.69696" lon="3.77679">
        <ele>1141.22</ele>
        <time>2025-07-12T10:19:17Z</time>
      </trkpt>
      <trkpt lat="44.69697" lon="3.77681">
        <ele>1141.7</ele>
        <time>2025-07-12T10:19:16Z</time>
      </trkpt>
      <trkpt lat="44.69697" lon="3.77683">
        <ele>1141.7</ele>
        <time>2025-07-12T10:19:15Z</time>
      </trkpt>
      <trkpt lat="44.69698" lon="3.77684">
        <ele>1141.7</ele>
        <time>2025-07-12T10:19:14Z</time>
      </trkpt>
      <trkpt lat="44.69704" lon="3.77695">
        <ele>1143.63</ele>
        <time>2025-07-12T10:19:05Z</time>
      </trkpt>
      <trkpt lat="44.69704" lon="3.77697">
        <ele>1144.11</ele>
        <time>2025-07-12T10:19:04Z</time>
      </trkpt>
      <trkpt lat="44.69705" lon="3.77698">
        <ele>1144.59</ele>
        <time>2025-07-12T10:19:03Z</time>
      </trkpt>
      <trkpt lat="44.69706" lon="3.77704">
        <ele>1146.03</ele>
        <time>2025-07-12T10:18:59Z</time>
      </trkpt>
      <trkpt lat="44.69706" lon="3.7772">
        <ele>1149.39</ele>
        <time>2025-07-12T10:18:48Z</time>
      </trkpt>
      <trkpt lat="44.69705" lon="3.77742">
        <ele>1151.8</ele>
        <time>2025-07-12T10:18:34Z</time>
      </trkpt>
      <trkpt lat="44.69706" lon="3.77774">
        <ele>1151.8</ele>
        <time>2025-07-12T10:18:18Z</time>
      </trkpt>
      <trkpt lat="44.69709" lon="3.778">
        <ele>1152.76</ele>
        <time>2025-07-12T10:18:03Z</time>
      </trkpt>
      <trkpt lat="44.69715" lon="3.77825">
        <ele>1154.2</ele>
        <time>2025-07-12T10:17:49Z</time>
      </trkpt>
      <trkpt lat="44.69719" lon="3.77838">
        <ele>1155.16</ele>
        <time>2025-07-12T10:17:36Z</time>
      </trkpt>
      <trkpt lat="44.6972" lon="3.77839">
        <ele>1155.16</ele>
        <time>2025-07-12T10:17:35Z</time>
      </trkpt>
      <trkpt lat="44.69721" lon="3.77841">
        <ele>1155.16</ele>
        <time>2025-07-12T10:17:34Z</time>
      </trkpt>
      <trkpt lat="44.69722" lon="3.77848">
        <ele>1155.16</ele>
        <time>2025-07-12T10:17:28Z</time>
      </trkpt>
      <trkpt lat="44.69728" lon="3.77882">
        <ele>1159.49</ele>
        <time>2025-07-12T10:17:11Z</time>
      </trkpt>
      <trkpt lat="44.69724" lon="3.77921">
        <ele>1161.41</ele>
        <time>2025-07-12T10:16:52Z</time>
      </trkpt>
      <trkpt lat="44.69717" lon="3.77957">
        <ele>1162.37</ele>
        <time>2025-07-12T10:16:35Z</time>
      </trkpt>
      <trkpt lat="44.69714" lon="3.77996">
        <ele>1162.37</ele>
        <time>2025-07-12T10:16:16Z</time>
      </trkpt>
      <trkpt lat="44.69713" lon="3.78029">
        <ele>1161.41</ele>
        <time>2025-07-12T10:16:00Z</time>
      </trkpt>
      <trkpt lat="44.69721" lon="3.78057">
        <ele>1160.45</ele>
        <time>2025-07-12T10:15:45Z</time>
      </trkpt>
      <trkpt lat="44.69749" lon="3.78057">
        <ele>1159.01</ele>
        <time>2025-07-12T10:15:25Z</time>
      </trkpt>
      <trkpt lat="44.69781" lon="3.78056">
        <ele>1158.05</ele>
        <time>2025-07-12T10:15:03Z</time>
      </trkpt>
      <trkpt lat="44.69808" lon="3.78059">
        <ele>1155.64</ele>
        <time>2025-07-12T10:14:45Z</time>
      </trkpt>
      <trkpt lat="44.69836" lon="3.78059">
        <ele>1153.24</ele>
        <time>2025-07-12T10:14:25Z</time>
      </trkpt>
      <trkpt lat="44.69863" lon="3.78062">
        <ele>1150.84</ele>
        <time>2025-07-12T10:14:05Z</time>
      </trkpt>
      <trkpt lat="44.69889" lon="3.78062">
        <ele>1154.2</ele>
        <time>2025-07-12T10:13:46Z</time>
      </trkpt>
      <trkpt lat="44.69913" lon="3.78061">
        <ele>1155.64</ele>
        <time>2025-07-12T10:13:29Z</time>
      </trkpt>
      <trkpt lat="44.6994" lon="3.7806">
        <ele>1155.16</ele>
        <time>2025-07-12T10:13:11Z</time>
      </trkpt>
      <trkpt lat="44.69968" lon="3.7807">
        <ele>1153.72</ele>
        <time>2025-07-12T10:12:55Z</time>
      </trkpt>
      <trkpt lat="44.6998" lon="3.78068">
        <ele>1153.72</ele>
        <time>2025-07-12T10:12:47Z</time>
      </trkpt>
      <trkpt lat="44.69989" lon="3.78034">
        <ele>1150.84</ele>
        <time>2025-07-12T10:12:30Z</time>
      </trkpt>
      <trkpt lat="44.69998" lon="3.77995">
        <ele>1154.2</ele>
        <time>2025-07-12T10:12:11Z</time>
      </trkpt>
      <trkpt lat="44.70023" lon="3.77964">
        <ele>1153.72</ele>
        <time>2025-07-12T10:11:49Z</time>
      </trkpt>
      <trkpt lat="44.70043" lon="3.77935">
        <ele>1153.24</ele>
        <time>2025-07-12T10:11:29Z</time>
      </trkpt>
      <trkpt lat="44.7006" lon="3.77909">
        <ele>1154.2</ele>
        <time>2025-07-12T10:11:11Z</time>
      </trkpt>
      <trkpt lat="44.70061" lon="3.77908">
        <ele>1154.68</ele>
        <time>2025-07-12T10:11:10Z</time>
      </trkpt>
      <trkpt lat="44.70062" lon="3.77907">
        <ele>1154.68</ele>
        <time>2025-07-12T10:11:09Z</time>
      </trkpt>
      <trkpt lat="44.70078" lon="3.77887">
        <ele>1153.24</ele>
        <time>2025-07-12T10:10:54Z</time>
      </trkpt>
      <trkpt lat="44.70102" lon="3.77876">
        <ele>1151.8</ele>
        <time>2025-07-12T10:10:36Z</time>
      </trkpt>
      <trkpt lat="44.7013" lon="3.77879">
        <ele>1152.28</ele>
        <time>2025-07-12T10:10:16Z</time>
      </trkpt>
      <trkpt lat="44.70155" lon="3.77875">
        <ele>1152.28</ele>
        <time>2025-07-12T10:09:58Z</time>
      </trkpt>
      <trkpt lat="44.70179" lon="3.77863">
        <ele>1152.76</ele>
        <time>2025-07-12T10:09:40Z</time>
      </trkpt>
      <trkpt lat="44.7021" lon="3.77843">
        <ele>1153.72</ele>
        <time>2025-07-12T10:09:19Z</time>
      </trkpt>
      <trkpt lat="44.70233" lon="3.77829">
        <ele>1156.6</ele>
        <time>2025-07-12T10:09:03Z</time>
      </trkpt>
      <trkpt lat="44.70256" lon="3.77819">
        <ele>1159.49</ele>
        <time>2025-07-12T10:08:44Z</time>
      </trkpt>
      <trkpt lat="44.70276" lon="3.77802">
        <ele>1159.97</ele>
        <time>2025-07-12T10:08:27Z</time>
      </trkpt>
      <trkpt lat="44.70295" lon="3.77781">
        <ele>1158.05</ele>
        <time>2025-07-12T10:08:10Z</time>
      </trkpt>
      <trkpt lat="44.70315" lon="3.77761">
        <ele>1157.08</ele>
        <time>2025-07-12T10:07:53Z</time>
      </trkpt>
      <trkpt lat="44.70334" lon="3.77739">
        <ele>1155.16</ele>
        <time>2025-07-12T10:07:36Z</time>
      </trkpt>
      <trkpt lat="44.70352" lon="3.77716">
        <ele>1152.76</ele>
        <time>2025-07-12T10:07:18Z</time>
      </trkpt>
      <trkpt lat="44.70367" lon="3.777">
        <ele>1150.84</ele>
        <time>2025-07-12T10:07:02Z</time>
      </trkpt>
      <trkpt lat="44.70385" lon="3.7767">
        <ele>1148.91</ele>
        <time>2025-07-12T10:06:48Z</time>
      </trkpt>
      <trkpt lat="44.704" lon="3.77654">
        <ele>1147.47</ele>
        <time>2025-07-12T10:06:34Z</time>
      </trkpt>
      <trkpt lat="44.70422" lon="3.77622">
        <ele>1146.03</ele>
        <time>2025-07-12T10:06:20Z</time>
      </trkpt>
      <trkpt lat="44.70442" lon="3.77597">
        <ele>1143.14</ele>
        <time>2025-07-12T10:06:07Z</time>
      </trkpt>
      <trkpt lat="44.70462" lon="3.7757">
        <ele>1143.63</ele>
        <time>2025-07-12T10:05:48Z</time>
      </trkpt>
      <trkpt lat="44.70483" lon="3.77555">
        <ele>1144.59</ele>
        <time>2025-07-12T10:05:33Z</time>
      </trkpt>
      <trkpt lat="44.70507" lon="3.77542">
        <ele>1145.07</ele>
        <time>2025-07-12T10:05:16Z</time>
      </trkpt>
      <trkpt lat="44.70525" lon="3.77527">
        <ele>1144.59</ele>
        <time>2025-07-12T10:05:02Z</time>
      </trkpt>
      <trkpt lat="44.70546" lon="3.77502">
        <ele>1141.7</ele>
        <time>2025-07-12T10:04:47Z</time>
      </trkpt>
      <trkpt lat="44.70581" lon="3.77462">
        <ele>1136.9</ele>
        <time>2025-07-12T10:04:35Z</time>
      </trkpt>
      <trkpt lat="44.70618" lon="3.77418">
        <ele>1137.86</ele>
        <time>2025-07-12T10:04:23Z</time>
      </trkpt>
      <trkpt lat="44.70663" lon="3.77392">
        <ele>1138.34</ele>
        <time>2025-07-12T10:04:10Z</time>
      </trkpt>
      <trkpt lat="44.70707" lon="3.77377">
        <ele>1138.34</ele>
        <time>2025-07-12T10:03:58Z</time>
      </trkpt>
      <trkpt lat="44.7075" lon="3.77369">
        <ele>1135.45</ele>
        <time>2025-07-12T10:03:46Z</time>
      </trkpt>
      <trkpt lat="44.70788" lon="3.77336">
        <ele>1132.09</ele>
        <time>2025-07-12T10:03:35Z</time>
      </trkpt>
      <trkpt lat="44.70838" lon="3.77311">
        <ele>1129.69</ele>
        <time>2025-07-12T10:03:23Z</time>
      </trkpt>
      <trkpt lat="44.70887" lon="3.77305">
        <ele>1128.24</ele>
        <time>2025-07-12T10:03:09Z</time>
      </trkpt>
      <trkpt lat="44.70929" lon="3.77282">
        <ele>1128.73</ele>
        <time>2025-07-12T10:02:53Z</time>
      </trkpt>
      <trkpt lat="44.70957" lon="3.77259">
        <ele>1128.73</ele>
        <time>2025-07-12T10:02:34Z</time>
      </trkpt>
      <trkpt lat="44.7098" lon="3.77243">
        <ele>1129.69</ele>
        <time>2025-07-12T10:02:19Z</time>
      </trkpt>
      <trkpt lat="44.71001" lon="3.77226">
        <ele>1127.76</ele>
        <time>2025-07-12T10:02:03Z</time>
      </trkpt>
      <trkpt lat="44.71025" lon="3.77205">
        <ele>1128.24</ele>
        <time>2025-07-12T10:01:45Z</time>
      </trkpt>
      <trkpt lat="44.71047" lon="3.77179">
        <ele>1128.73</ele>
        <time>2025-07-12T10:01:27Z</time>
      </trkpt>
      <trkpt lat="44.71073" lon="3.77156">
        <ele>1123.44</ele>
        <time>2025-07-12T10:01:08Z</time>
      </trkpt>
      <trkpt lat="44.71075" lon="3.77153">
        <ele>1123.44</ele>
        <time>2025-07-12T10:01:07Z</time>
      </trkpt>
      <trkpt lat="44.71099" lon="3.77128">
        <ele>1127.76</ele>
        <time>2025-07-12T10:00:47Z</time>
      </trkpt>
      <trkpt lat="44.71121" lon="3.77105">
        <ele>1130.17</ele>
        <time>2025-07-12T10:00:30Z</time>
      </trkpt>
      <trkpt lat="44.71123" lon="3.77104">
        <ele>1130.17</ele>
        <time>2025-07-12T10:00:29Z</time>
      </trkpt>
      <trkpt lat="44.71146" lon="3.77082">
        <ele>1133.53</ele>
        <time>2025-07-12T10:00:09Z</time>
      </trkpt>
      <trkpt lat="44.71167" lon="3.77049">
        <ele>1131.13</ele>
        <time>2025-07-12T09:59:49Z</time>
      </trkpt>
      <trkpt lat="44.71186" lon="3.77023">
        <ele>1130.17</ele>
        <time>2025-07-12T09:59:32Z</time>
      </trkpt>
      <trkpt lat="44.712" lon="3.77007">
        <ele>1122</ele>
        <time>2025-07-12T09:59:17Z</time>
      </trkpt>
      <trkpt lat="44.71227" lon="3.7699">
        <ele>1118.63</ele>
        <time>2025-07-12T09:59:01Z</time>
      </trkpt>
      <trkpt lat="44.71251" lon="3.7698">
        <ele>1115.75</ele>
        <time>2025-07-12T09:58:44Z</time>
      </trkpt>
      <trkpt lat="44.71284" lon="3.7695">
        <ele>1118.15</ele>
        <time>2025-07-12T09:58:29Z</time>
      </trkpt>
      <trkpt lat="44.71312" lon="3.76922">
        <ele>1117.67</ele>
        <time>2025-07-12T09:58:06Z</time>
      </trkpt>
      <trkpt lat="44.71337" lon="3.76906">
        <ele>1119.11</ele>
        <time>2025-07-12T09:57:44Z</time>
      </trkpt>
      <trkpt lat="44.7136" lon="3.76895">
        <ele>1113.82</ele>
        <time>2025-07-12T09:57:25Z</time>
      </trkpt>
      <trkpt lat="44.71383" lon="3.76884">
        <ele>1114.79</ele>
        <time>2025-07-12T09:57:07Z</time>
      </trkpt>
      <trkpt lat="44.71413" lon="3.76874">
        <ele>1113.34</ele>
        <time>2025-07-12T09:56:49Z</time>
      </trkpt>
      <trkpt lat="44.71435" lon="3.76866">
        <ele>1114.31</ele>
        <time>2025-07-12T09:56:33Z</time>
      </trkpt>
      <trkpt lat="44.71456" lon="3.76859">
        <ele>1107.1</ele>
        <time>2025-07-12T09:56:14Z</time>
      </trkpt>
      <trkpt lat="44.71465" lon="3.76856">
        <ele>1100.37</ele>
        <time>2025-07-12T09:55:57Z</time>
      </trkpt>
      <trkpt lat="44.71494" lon="3.7684">
        <ele>1095.08</ele>
        <time>2025-07-12T09:55:38Z</time>
      </trkpt>
      <trkpt lat="44.71532" lon="3.76819">
        <ele>1094.6</ele>
        <time>2025-07-12T09:55:16Z</time>
      </trkpt>
      <trkpt lat="44.71536" lon="3.76806">
        <ele>1094.6</ele>
        <time>2025-07-12T09:55:10Z</time>
      </trkpt>
      <trkpt lat="44.71543" lon="3.76775">
        <ele>1097</ele>
        <time>2025-07-12T09:54:55Z</time>
      </trkpt>
      <trkpt lat="44.71555" lon="3.76736">
        <ele>1099.89</ele>
        <time>2025-07-12T09:54:37Z</time>
      </trkpt>
      <trkpt lat="44.71564" lon="3.76692">
        <ele>1102.29</ele>
        <time>2025-07-12T09:54:17Z</time>
      </trkpt>
      <trkpt lat="44.71555" lon="3.76661">
        <ele>1105.17</ele>
        <time>2025-07-12T09:54:03Z</time>
      </trkpt>
      <trkpt lat="44.71544" lon="3.76628">
        <ele>1107.1</ele>
        <time>2025-07-12T09:53:45Z</time>
      </trkpt>
      <trkpt lat="44.71528" lon="3.766">
        <ele>1109.5</ele>
        <time>2025-07-12T09:53:27Z</time>
      </trkpt>
      <trkpt lat="44.71526" lon="3.76592">
        <ele>1109.98</ele>
        <time>2025-07-12T09:53:22Z</time>
      </trkpt>
      <trkpt lat="44.71529" lon="3.7656">
        <ele>1107.58</ele>
        <time>2025-07-12T09:53:08Z</time>
      </trkpt>
      <trkpt lat="44.71539" lon="3.76524">
        <ele>1096.52</ele>
        <time>2025-07-12T09:52:53Z</time>
      </trkpt>
      <trkpt lat="44.71543" lon="3.76498">
        <ele>1093.64</ele>
        <time>2025-07-12T09:52:40Z</time>
      </trkpt>
      <trkpt lat="44.71545" lon="3.76458">
        <ele>1092.68</ele>
        <time>2025-07-12T09:52:18Z</time>
      </trkpt>
      <trkpt lat="44.71544" lon="3.76456">
        <ele>1092.68</ele>
        <time>2025-07-12T09:52:17Z</time>
      </trkpt>
      <trkpt lat="44.7153" lon="3.76456">
        <ele>1092.2</ele>
        <time>2025-07-12T09:52:01Z</time>
      </trkpt>
      <trkpt lat="44.71526" lon="3.7646">
        <ele>1091.23</ele>
        <time>2025-07-12T09:51:56Z</time>
      </trkpt>
      <trkpt lat="44.71552" lon="3.76444">
        <ele>1085.47</ele>
        <time>2025-07-12T09:51:40Z</time>
      </trkpt>
      <trkpt lat="44.71561" lon="3.76439">
        <ele>1084.99</ele>
        <time>2025-07-12T09:51:36Z</time>
      </trkpt>
      <trkpt lat="44.71565" lon="3.76436">
        <ele>1084.99</ele>
        <time>2025-07-12T09:51:33Z</time>
      </trkpt>
      <trkpt lat="44.71593" lon="3.76419">
        <ele>1085.47</ele>
        <time>2025-07-12T09:51:17Z</time>
      </trkpt>
      <trkpt lat="44.71601" lon="3.76414">
        <ele>1084.02</ele>
        <time>2025-07-12T09:51:12Z</time>
      </trkpt>
      <trkpt lat="44.71622" lon="3.76384">
        <ele>1079.7</ele>
        <time>2025-07-12T09:50:51Z</time>
      </trkpt>
      <trkpt lat="44.71642" lon="3.76363">
        <ele>1078.26</ele>
        <time>2025-07-12T09:50:37Z</time>
      </trkpt>
      <trkpt lat="44.7165" lon="3.76361">
        <ele>1078.74</ele>
        <time>2025-07-12T09:50:32Z</time>
      </trkpt>
      <trkpt lat="44.71646" lon="3.76328">
        <ele>1071.05</ele>
        <time>2025-07-12T09:50:19Z</time>
      </trkpt>
      <trkpt lat="44.71647" lon="3.76314">
        <ele>1065.76</ele>
        <time>2025-07-12T09:50:12Z</time>
      </trkpt>
      <trkpt lat="44.71647" lon="3.76278">
        <ele>1060.95</ele>
        <time>2025-07-12T09:49:54Z</time>
      </trkpt>
      <trkpt lat="44.71634" lon="3.76256">
        <ele>1064.8</ele>
        <time>2025-07-12T09:49:36Z</time>
      </trkpt>
      <trkpt lat="44.7162" lon="3.76218">
        <ele>1070.57</ele>
        <time>2025-07-12T09:49:16Z</time>
      </trkpt>
      <trkpt lat="44.71631" lon="3.76192">
        <ele>1077.78</ele>
        <time>2025-07-12T09:49:00Z</time>
      </trkpt>
      <trkpt lat="44.7164" lon="3.76178">
        <ele>1079.22</ele>
        <time>2025-07-12T09:48:52Z</time>
      </trkpt>
      <trkpt lat="44.71661" lon="3.76149">
        <ele>1082.58</ele>
        <time>2025-07-12T09:48:34Z</time>
      </trkpt>
      <trkpt lat="44.71676" lon="3.76119">
        <ele>1085.95</ele>
        <time>2025-07-12T09:48:18Z</time>
      </trkpt>
      <trkpt lat="44.71696" lon="3.76089">
        <ele>1088.83</ele>
        <time>2025-07-12T09:47:59Z</time>
      </trkpt>
      <trkpt lat="44.71711" lon="3.76066">
        <ele>1088.35</ele>
        <time>2025-07-12T09:47:42Z</time>
      </trkpt>
      <trkpt lat="44.71725" lon="3.76028">
        <ele>1089.79</ele>
        <time>2025-07-12T09:47:23Z</time>
      </trkpt>
      <trkpt lat="44.71739" lon="3.75988">
        <ele>1091.71</ele>
        <time>2025-07-12T09:47:08Z</time>
      </trkpt>
      <trkpt lat="44.71748" lon="3.75957">
        <ele>1093.16</ele>
        <time>2025-07-12T09:46:53Z</time>
      </trkpt>
      <trkpt lat="44.71736" lon="3.75925">
        <ele>1094.6</ele>
        <time>2025-07-12T09:46:35Z</time>
      </trkpt>
      <trkpt lat="44.71722" lon="3.75892">
        <ele>1096.04</ele>
        <time>2025-07-12T09:46:17Z</time>
      </trkpt>
      <trkpt lat="44.71722" lon="3.7589">
        <ele>1096.04</ele>
        <time>2025-07-12T09:46:16Z</time>
      </trkpt>
      <trkpt lat="44.71721" lon="3.75888">
        <ele>1096.52</ele>
        <time>2025-07-12T09:46:15Z</time>
      </trkpt>
      <trkpt lat="44.71719" lon="3.75882">
        <ele>1097.48</ele>
        <time>2025-07-12T09:45:53Z</time>
      </trkpt>
      <trkpt lat="44.71718" lon="3.75883">
        <ele>1097.96</ele>
        <time>2025-07-12T09:45:32Z</time>
      </trkpt>
      <trkpt lat="44.71722" lon="3.75896">
        <ele>1095.08</ele>
        <time>2025-07-12T09:45:16Z</time>
      </trkpt>
      <trkpt lat="44.71735" lon="3.75928">
        <ele>1093.16</ele>
        <time>2025-07-12T09:44:57Z</time>
      </trkpt>
      <trkpt lat="44.71749" lon="3.75956">
        <ele>1090.75</ele>
        <time>2025-07-12T09:44:44Z</time>
      </trkpt>
      <trkpt lat="44.71793" lon="3.76013">
        <ele>1088.35</ele>
        <time>2025-07-12T09:44:30Z</time>
      </trkpt>
      <trkpt lat="44.71825" lon="3.7605">
        <ele>1084.99</ele>
        <time>2025-07-12T09:44:19Z</time>
      </trkpt>
      <trkpt lat="44.71838" lon="3.76107">
        <ele>1082.1</ele>
        <time>2025-07-12T09:44:06Z</time>
      </trkpt>
      <trkpt lat="44.7184" lon="3.76112">
        <ele>1082.1</ele>
        <time>2025-07-12T09:44:05Z</time>
      </trkpt>
      <trkpt lat="44.71843" lon="3.76116">
        <ele>1082.1</ele>
        <time>2025-07-12T09:44:04Z</time>
      </trkpt>
      <trkpt lat="44.71862" lon="3.76135">
        <ele>1080.66</ele>
        <time>2025-07-12T09:43:57Z</time>
      </trkpt>
      <trkpt lat="44.71886" lon="3.76157">
        <ele>1078.74</ele>
        <time>2025-07-12T09:43:43Z</time>
      </trkpt>
      <trkpt lat="44.71905" lon="3.76172">
        <ele>1078.26</ele>
        <time>2025-07-12T09:43:27Z</time>
      </trkpt>
      <trkpt lat="44.71925" lon="3.76183">
        <ele>1077.78</ele>
        <time>2025-07-12T09:43:11Z</time>
      </trkpt>
      <trkpt lat="44.71927" lon="3.76183">
        <ele>1078.26</ele>
        <time>2025-07-12T09:43:09Z</time>
      </trkpt>
      <trkpt lat="44.71949" lon="3.76188">
        <ele>1078.74</ele>
        <time>2025-07-12T09:42:51Z</time>
      </trkpt>
      <trkpt lat="44.71969" lon="3.76202">
        <ele>1078.26</ele>
        <time>2025-07-12T09:42:34Z</time>
      </trkpt>
      <trkpt lat="44.71985" lon="3.76211">
        <ele>1076.81</ele>
        <time>2025-07-12T09:42:19Z</time>
      </trkpt>
      <trkpt lat="44.71988" lon="3.76212">
        <ele>1076.33</ele>
        <time>2025-07-12T09:42:16Z</time>
      </trkpt>
      <trkpt lat="44.71993" lon="3.76214">
        <ele>1078.26</ele>
        <time>2025-07-12T09:42:01Z</time>
      </trkpt>
      <trkpt lat="44.71997" lon="3.76221">
        <ele>1080.18</ele>
        <time>2025-07-12T09:41:49Z</time>
      </trkpt>
      <trkpt lat="44.71999" lon="3.7623">
        <ele>1081.14</ele>
        <time>2025-07-12T09:41:36Z</time>
      </trkpt>
      <trkpt lat="44.7201" lon="3.76243">
        <ele>1081.62</ele>
        <time>2025-07-12T09:41:20Z</time>
      </trkpt>
      <trkpt lat="44.72033" lon="3.7626">
        <ele>1080.66</ele>
        <time>2025-07-12T09:41:02Z</time>
      </trkpt>
      <trkpt lat="44.72045" lon="3.76264">
        <ele>1080.18</ele>
        <time>2025-07-12T09:40:52Z</time>
      </trkpt>
      <trkpt lat="44.72063" lon="3.76289">
        <ele>1079.22</ele>
        <time>2025-07-12T09:40:33Z</time>
      </trkpt>
      <trkpt lat="44.72081" lon="3.76317">
        <ele>1079.7</ele>
        <time>2025-07-12T09:40:14Z</time>
      </trkpt>
      <trkpt lat="44.72095" lon="3.76347">
        <ele>1081.62</ele>
        <time>2025-07-12T09:39:56Z</time>
      </trkpt>
      <trkpt lat="44.72111" lon="3.76371">
        <ele>1083.06</ele>
        <time>2025-07-12T09:39:39Z</time>
      </trkpt>
      <trkpt lat="44.72119" lon="3.764">
        <ele>1085.95</ele>
        <time>2025-07-12T09:39:21Z</time>
      </trkpt>
      <trkpt lat="44.7212" lon="3.76402">
        <ele>1085.95</ele>
        <time>2025-07-12T09:39:20Z</time>
      </trkpt>
      <trkpt lat="44.72121" lon="3.76427">
        <ele>1085.95</ele>
        <time>2025-07-12T09:39:06Z</time>
      </trkpt>
      <trkpt lat="44.72116" lon="3.76464">
        <ele>1084.99</ele>
        <time>2025-07-12T09:38:49Z</time>
      </trkpt>
      <trkpt lat="44.72117" lon="3.76466">
        <ele>1084.02</ele>
        <time>2025-07-12T09:38:48Z</time>
      </trkpt>
      <trkpt lat="44.72116" lon="3.76478">
        <ele>1083.54</ele>
        <time>2025-07-12T09:38:42Z</time>
      </trkpt>
      <trkpt lat="44.72117" lon="3.76519">
        <ele>1085.95</ele>
        <time>2025-07-12T09:38:25Z</time>
      </trkpt>
      <trkpt lat="44.72118" lon="3.76556">
        <ele>1087.39</ele>
        <time>2025-07-12T09:38:09Z</time>
      </trkpt>
      <trkpt lat="44.72122" lon="3.766">
        <ele>1092.2</ele>
        <time>2025-07-12T09:37:52Z</time>
      </trkpt>
      <trkpt lat="44.7213" lon="3.76634">
        <ele>1091.71</ele>
        <time>2025-07-12T09:37:33Z</time>
      </trkpt>
      <trkpt lat="44.72135" lon="3.76645">
        <ele>1092.2</ele>
        <time>2025-07-12T09:37:26Z</time>
      </trkpt>
      <trkpt lat="44.72148" lon="3.76678">
        <ele>1085.47</ele>
        <time>2025-07-12T09:37:11Z</time>
      </trkpt>
      <trkpt lat="44.72153" lon="3.7671">
        <ele>1090.27</ele>
        <time>2025-07-12T09:36:54Z</time>
      </trkpt>
      <trkpt lat="44.7216" lon="3.7675">
        <ele>1090.27</ele>
        <time>2025-07-12T09:36:36Z</time>
      </trkpt>
      <trkpt lat="44.72174" lon="3.76783">
        <ele>1091.71</ele>
        <time>2025-07-12T09:36:20Z</time>
      </trkpt>
      <trkpt lat="44.72187" lon="3.76823">
        <ele>1095.08</ele>
        <time>2025-07-12T09:36:03Z</time>
      </trkpt>
      <trkpt lat="44.72197" lon="3.76853">
        <ele>1098.44</ele>
        <time>2025-07-12T09:35:48Z</time>
      </trkpt>
      <trkpt lat="44.72197" lon="3.76855">
        <ele>1098.44</ele>
        <time>2025-07-12T09:35:47Z</time>
      </trkpt>
      <trkpt lat="44.72198" lon="3.76856">
        <ele>1098.44</ele>
        <time>2025-07-12T09:35:46Z</time>
      </trkpt>
      <trkpt lat="44.72199" lon="3.76866">
        <ele>1098.92</ele>
        <time>2025-07-12T09:35:40Z</time>
      </trkpt>
      <trkpt lat="44.72207" lon="3.76894">
        <ele>1097.96</ele>
        <time>2025-07-12T09:35:28Z</time>
      </trkpt>
      <trkpt lat="44.72222" lon="3.76923">
        <ele>1097.96</ele>
        <time>2025-07-12T09:35:12Z</time>
      </trkpt>
      <trkpt lat="44.72232" lon="3.76946">
        <ele>1097.96</ele>
        <time>2025-07-12T09:34:58Z</time>
      </trkpt>
      <trkpt lat="44.72245" lon="3.76973">
        <ele>1095.56</ele>
        <time>2025-07-12T09:34:43Z</time>
      </trkpt>
      <trkpt lat="44.72256" lon="3.76997">
        <ele>1092.2</ele>
        <time>2025-07-12T09:34:28Z</time>
      </trkpt>
      <trkpt lat="44.7227" lon="3.77026">
        <ele>1093.64</ele>
        <time>2025-07-12T09:34:13Z</time>
      </trkpt>
      <trkpt lat="44.72285" lon="3.77052">
        <ele>1094.12</ele>
        <time>2025-07-12T09:33:56Z</time>
      </trkpt>
      <trkpt lat="44.723" lon="3.77087">
        <ele>1093.16</ele>
        <time>2025-07-12T09:33:38Z</time>
      </trkpt>
      <trkpt lat="44.72313" lon="3.77106">
        <ele>1093.64</ele>
        <time>2025-07-12T09:33:24Z</time>
      </trkpt>
      <trkpt lat="44.72314" lon="3.77109">
        <ele>1093.64</ele>
        <time>2025-07-12T09:33:23Z</time>
      </trkpt>
      <trkpt lat="44.72316" lon="3.77111">
        <ele>1093.64</ele>
        <time>2025-07-12T09:33:22Z</time>
      </trkpt>
      <trkpt lat="44.72317" lon="3.77114">
        <ele>1093.64</ele>
        <time>2025-07-12T09:33:21Z</time>
      </trkpt>
      <trkpt lat="44.72318" lon="3.77116">
        <ele>1093.16</ele>
        <time>2025-07-12T09:33:20Z</time>
      </trkpt>
      <trkpt lat="44.72322" lon="3.77126">
        <ele>1092.68</ele>
        <time>2025-07-12T09:33:13Z</time>
      </trkpt>
      <trkpt lat="44.72332" lon="3.77145">
        <ele>1090.27</ele>
        <time>2025-07-12T09:32:58Z</time>
      </trkpt>
      <trkpt lat="44.72347" lon="3.77168">
        <ele>1088.35</ele>
        <time>2025-07-12T09:32:48Z</time>
      </trkpt>
      <trkpt lat="44.7235" lon="3.77169">
        <ele>1087.87</ele>
        <time>2025-07-12T09:32:47Z</time>
      </trkpt>
      <trkpt lat="44.72353" lon="3.77175">
        <ele>1087.39</ele>
        <time>2025-07-12T09:32:45Z</time>
      </trkpt>
      <trkpt lat="44.72352" lon="3.77222">
        <ele>1085.95</ele>
        <time>2025-07-12T09:32:34Z</time>
      </trkpt>
      <trkpt lat="44.72357" lon="3.77252">
        <ele>1082.58</ele>
        <time>2025-07-12T09:32:21Z</time>
      </trkpt>
      <trkpt lat="44.72367" lon="3.77281">
        <ele>1081.62</ele>
        <time>2025-07-12T09:32:06Z</time>
      </trkpt>
      <trkpt lat="44.72376" lon="3.77303">
        <ele>1078.26</ele>
        <time>2025-07-12T09:31:52Z</time>
      </trkpt>
      <trkpt lat="44.72385" lon="3.77344">
        <ele>1075.37</ele>
        <time>2025-07-12T09:31:39Z</time>
      </trkpt>
      <trkpt lat="44.7239" lon="3.77384">
        <ele>1072.49</ele>
        <time>2025-07-12T09:31:19Z</time>
      </trkpt>
      <trkpt lat="44.72397" lon="3.77418">
        <ele>1071.53</ele>
        <time>2025-07-12T09:30:59Z</time>
      </trkpt>
      <trkpt lat="44.72404" lon="3.7745">
        <ele>1069.6</ele>
        <time>2025-07-12T09:30:42Z</time>
      </trkpt>
      <trkpt lat="44.72414" lon="3.77482">
        <ele>1067.68</ele>
        <time>2025-07-12T09:30:24Z</time>
      </trkpt>
      <trkpt lat="44.72422" lon="3.77522">
        <ele>1065.28</ele>
        <time>2025-07-12T09:30:03Z</time>
      </trkpt>
      <trkpt lat="44.72421" lon="3.77556">
        <ele>1063.36</ele>
        <time>2025-07-12T09:29:46Z</time>
      </trkpt>
      <trkpt lat="44.72422" lon="3.77596">
        <ele>1061.43</ele>
        <time>2025-07-12T09:29:27Z</time>
      </trkpt>
      <trkpt lat="44.72433" lon="3.77631">
        <ele>1059.99</ele>
        <time>2025-07-12T09:29:07Z</time>
      </trkpt>
      <trkpt lat="44.72446" lon="3.77662">
        <ele>1060.47</ele>
        <time>2025-07-12T09:28:49Z</time>
      </trkpt>
      <trkpt lat="44.7246" lon="3.77691">
        <ele>1061.91</ele>
        <time>2025-07-12T09:28:33Z</time>
      </trkpt>
      <trkpt lat="44.72471" lon="3.77712">
        <ele>1064.32</ele>
        <time>2025-07-12T09:28:20Z</time>
      </trkpt>
      <trkpt lat="44.72495" lon="3.77708">
        <ele>1064.8</ele>
        <time>2025-07-12T09:28:03Z</time>
      </trkpt>
      <trkpt lat="44.72497" lon="3.77708">
        <ele>1065.28</ele>
        <time>2025-07-12T09:28:02Z</time>
      </trkpt>
      <trkpt lat="44.72501" lon="3.77711">
        <ele>1064.8</ele>
        <time>2025-07-12T09:27:58Z</time>
      </trkpt>
      <trkpt lat="44.72515" lon="3.77736">
        <ele>1065.28</ele>
        <time>2025-07-12T09:27:42Z</time>
      </trkpt>
      <trkpt lat="44.72522" lon="3.77767">
        <ele>1063.84</ele>
        <time>2025-07-12T09:27:24Z</time>
      </trkpt>
      <trkpt lat="44.72526" lon="3.778">
        <ele>1063.84</ele>
        <time>2025-07-12T09:27:05Z</time>
      </trkpt>
      <trkpt lat="44.7254" lon="3.77824">
        <ele>1063.36</ele>
        <time>2025-07-12T09:26:49Z</time>
      </trkpt>
      <trkpt lat="44.72559" lon="3.77844">
        <ele>1062.87</ele>
        <time>2025-07-12T09:26:31Z</time>
      </trkpt>
      <trkpt lat="44.72574" lon="3.77857">
        <ele>1063.36</ele>
        <time>2025-07-12T09:26:17Z</time>
      </trkpt>
      <trkpt lat="44.72591" lon="3.77874">
        <ele>1063.84</ele>
        <time>2025-07-12T09:26:00Z</time>
      </trkpt>
      <trkpt lat="44.72609" lon="3.77891">
        <ele>1063.84</ele>
        <time>2025-07-12T09:25:43Z</time>
      </trkpt>
      <trkpt lat="44.7261" lon="3.77892">
        <ele>1063.84</ele>
        <time>2025-07-12T09:25:42Z</time>
      </trkpt>
      <trkpt lat="44.72611" lon="3.77893">
        <ele>1064.32</ele>
        <time>2025-07-12T09:25:41Z</time>
      </trkpt>
      <trkpt lat="44.72611" lon="3.77894">
        <ele>1064.32</ele>
        <time>2025-07-12T09:25:40Z</time>
      </trkpt>
      <trkpt lat="44.72611" lon="3.77896">
        <ele>1064.32</ele>
        <time>2025-07-12T09:25:39Z</time>
      </trkpt>
      <trkpt lat="44.72611" lon="3.77898">
        <ele>1064.32</ele>
        <time>2025-07-12T09:25:37Z</time>
      </trkpt>
      <trkpt lat="44.72611" lon="3.779">
        <ele>1064.8</ele>
        <time>2025-07-12T09:25:36Z</time>
      </trkpt>
      <trkpt lat="44.72613" lon="3.77903">
        <ele>1060.5</ele>
      </trkpt>
      <trkpt lat="44.72617" lon="3.77901">
        <ele>1060.6</ele>
      </trkpt>
      <trkpt lat="44.72622" lon="3.77907">
        <ele>1060.8</ele>
      </trkpt>
      <trkpt lat="44.72626" lon="3.77911">
        <ele>1060.9</ele>
      </trkpt>
      <trkpt lat="44.7263" lon="3.77916">
        <ele>1061</ele>
      </trkpt>
      <trkpt lat="44.72642" lon="3.77924">
        <ele>1061.1</ele>
      </trkpt>
      <trkpt lat="44.72652" lon="3.7793">
        <ele>1061.5</ele>
      </trkpt>
      <trkpt lat="44.72665" lon="3.77937">
        <ele>1061.9</ele>
      </trkpt>
      <trkpt lat="44.72672" lon="3.77941">
        <ele>1062</ele>
      </trkpt>
      <trkpt lat="44.72679" lon="3.77946">
        <ele>1061.9</ele>
      </trkpt>
      <trkpt lat="44.72685" lon="3.77952">
        <ele>1061.7</ele>
      </trkpt>
      <trkpt lat="44.72694" lon="3.77962">
        <ele>1061.4</ele>
      </trkpt>
      <trkpt lat="44.72705" lon="3.77975">
        <ele>1061.6</ele>
      </trkpt>
      <trkpt lat="44.72715" lon="3.77989">
        <ele>1061.4</ele>
      </trkpt>
      <trkpt lat="44.72724" lon="3.78">
        <ele>1061.1</ele>
      </trkpt>
      <trkpt lat="44.72732" lon="3.78008">
        <ele>1061.5</ele>
      </trkpt>
      <trkpt lat="44.72741" lon="3.78019">
        <ele>1062.1</ele>
      </trkpt>
      <trkpt lat="44.72749" lon="3.78027">
        <ele>1062.9</ele>
      </trkpt>
      <trkpt lat="44.72752" lon="3.78032">
        <ele>1063</ele>
      </trkpt>
      <trkpt lat="44.72755" lon="3.78037">
        <ele>1063.1</ele>
      </trkpt>
      <trkpt lat="44.72758" lon="3.78041">
        <ele>1063.2</ele>
      </trkpt>
      <trkpt lat="44.72761" lon="3.78049">
        <ele>1063.3</ele>
      </trkpt>
      <trkpt lat="44.72769" lon="3.78069">
        <ele>1063.7</ele>
      </trkpt>
      <trkpt lat="44.72782" lon="3.78097">
        <ele>1063.9</ele>
      </trkpt>
      <trkpt lat="44.72789" lon="3.78111">
        <ele>1064.2</ele>
      </trkpt>
      <trkpt lat="44.72795" lon="3.7812">
        <ele>1064.5</ele>
      </trkpt>
      <trkpt lat="44.72801" lon="3.78129">
        <ele>1064.4</ele>
      </trkpt>
      <trkpt lat="44.72808" lon="3.78138">
        <ele>1064.1</ele>
      </trkpt>
      <trkpt lat="44.72814" lon="3.78144">
        <ele>1064.2</ele>
      </trkpt>
      <trkpt lat="44.72822" lon="3.78151">
        <ele>1064.3</ele>
      </trkpt>
      <trkpt lat="44.72827" lon="3.78157">
        <ele>1064.3</ele>
      </trkpt>
      <trkpt lat="44.72833" lon="3.78165">
        <ele>1064.1</ele>
      </trkpt>
      <trkpt lat="44.72843" lon="3.7818">
        <ele>1063.4</ele>
      </trkpt>
      <trkpt lat="44.72867" lon="3.78217">
        <ele>1061.4</ele>
      </trkpt>
      <trkpt lat="44.72891" lon="3.78259">
        <ele>1060.7</ele>
      </trkpt>
      <trkpt lat="44.72903" lon="3.78283">
        <ele>1060</ele>
      </trkpt>
      <trkpt lat="44.72903" lon="3.78283">
        <ele>1060</ele>
      </trkpt>
      <trkpt lat="44.72908" lon="3.78294">
        <ele>1060</ele>
      </trkpt>
      <trkpt lat="44.72914" lon="3.78308">
        <ele>1060</ele>
      </trkpt>
      <trkpt lat="44.7292" lon="3.78322">
        <ele>1059.7</ele>
      </trkpt>
      <trkpt lat="44.72927" lon="3.78336">
        <ele>1058.9</ele>
      </trkpt>
      <trkpt lat="44.72936" lon="3.7835">
        <ele>1058.1</ele>
      </trkpt>
      <trkpt lat="44.72943" lon="3.78362">
        <ele>1057.2</ele>
      </trkpt>
      <trkpt lat="44.72947" lon="3.78369">
        <ele>1056.7</ele>
      </trkpt>
      <trkpt lat="44.7295" lon="3.78376">
        <ele>1056.3</ele>
      </trkpt>
      <trkpt lat="44.72958" lon="3.78402">
        <ele>1055</ele>
      </trkpt>
      <trkpt lat="44.72961" lon="3.78414">
        <ele>1054.6</ele>
      </trkpt>
      <trkpt lat="44.72962" lon="3.78422">
        <ele>1054.5</ele>
      </trkpt>
      <trkpt lat="44.72965" lon="3.78453">
        <ele>1054.3</ele>
      </trkpt>
      <trkpt lat="44.72965" lon="3.78474">
        <ele>1054.2</ele>
      </trkpt>
      <trkpt lat="44.72964" lon="3.785">
        <ele>1054</ele>
      </trkpt>
      <trkpt lat="44.72965" lon="3.78515">
        <ele>1054.4</ele>
      </trkpt>
      <trkpt lat="44.72966" lon="3.78523">
        <ele>1054.6</ele>
      </trkpt>
      <trkpt lat="44.72969" lon="3.78536">
        <ele>1054.9</ele>
      </trkpt>
      <trkpt lat="44.72971" lon="3.78552">
        <ele>1055</ele>
      </trkpt>
      <trkpt lat="44.72971" lon="3.78564">
        <ele>1054.7</ele>
      </trkpt>
      <trkpt lat="44.72979" lon="3.78575">
        <ele>1054.2</ele>
      </trkpt>
      <trkpt lat="44.72992" lon="3.78598">
        <ele>1054</ele>
      </trkpt>
      <trkpt lat="44.73002" lon="3.78615">
        <ele>1053.9</ele>
      </trkpt>
      <trkpt lat="44.73014" lon="3.78641">
        <ele>1053.5</ele>
      </trkpt>
      <trkpt lat="44.73022" lon="3.78655">
        <ele>1052.7</ele>
      </trkpt>
      <trkpt lat="44.73028" lon="3.78666">
        <ele>1052</ele>
      </trkpt>
      <trkpt lat="44.73038" lon="3.78675">
        <ele>1051</ele>
      </trkpt>
      <trkpt lat="44.73048" lon="3.78685">
        <ele>1049.6</ele>
      </trkpt>
      <trkpt lat="44.73058" lon="3.78694">
        <ele>1047.7</ele>
      </trkpt>
      <trkpt lat="44.7306" lon="3.78695">
        <ele>1047.4</ele>
      </trkpt>
      <trkpt lat="44.73062" lon="3.78698">
        <ele>1047</ele>
      </trkpt>
      <trkpt lat="44.73064" lon="3.78703">
        <ele>1046.7</ele>
      </trkpt>
      <trkpt lat="44.73065" lon="3.7871">
        <ele>1046.4</ele>
      </trkpt>
      <trkpt lat="44.73067" lon="3.78728">
        <ele>1045.5</ele>
      </trkpt>
      <trkpt lat="44.73068" lon="3.78738">
        <ele>1044.6</ele>
      </trkpt>
      <trkpt lat="44.7307" lon="3.78745">
        <ele>1043.8</ele>
      </trkpt>
      <trkpt lat="44.73072" lon="3.7875">
        <ele>1043.2</ele>
      </trkpt>
      <trkpt lat="44.73076" lon="3.78758">
        <ele>1041.9</ele>
      </trkpt>
      <trkpt lat="44.73081" lon="3.78768">
        <ele>1040.3</ele>
      </trkpt>
      <trkpt lat="44.73085" lon="3.78776">
        <ele>1039.1</ele>
      </trkpt>
      <trkpt lat="44.73088" lon="3.78784">
        <ele>1038.2</ele>
      </trkpt>
      <trkpt lat="44.73092" lon="3.78796">
        <ele>1037.1</ele>
      </trkpt>
      <trkpt lat="44.73094" lon="3.78805">
        <ele>1036.3</ele>
      </trkpt>
      <trkpt lat="44.73097" lon="3.78818">
        <ele>1035.6</ele>
      </trkpt>
      <trkpt lat="44.731" lon="3.78829">
        <ele>1035</ele>
      </trkpt>
      <trkpt lat="44.73103" lon="3.78844">
        <ele>1034.2</ele>
      </trkpt>
      <trkpt lat="44.73106" lon="3.78856">
        <ele>1033.6</ele>
      </trkpt>
      <trkpt lat="44.7311" lon="3.78853">
        <ele>1033.4</ele>
      </trkpt>
      <trkpt lat="44.73114" lon="3.78847">
        <ele>1033.2</ele>
        <extensions>
          <visugpx:TrkExtension xmlns:visugpx="https://www.visugpx.com/editgpx/">
            <visugpx:node>1</visugpx:node>
            </visugpx:TrkExtension>
        </extensions>
      </trkpt>
      <trkpt lat="44.73115" lon="3.78846">
        <ele>1033.2</ele>
      </trkpt>
      <trkpt lat="44.73122" lon="3.78831">
        <ele>1033.3</ele>
      </trkpt>
      <trkpt lat="44.73125" lon="3.78818">
        <ele>1033.6</ele>
      </trkpt>
      <trkpt lat="44.73127" lon="3.78806">
        <ele>1033.8</ele>
      </trkpt>
      <trkpt lat="44.73127" lon="3.78795">
        <ele>1034.4</ele>
      </trkpt>
      <trkpt lat="44.73126" lon="3.78784">
        <ele>1035.1</ele>
      </trkpt>
      <trkpt lat="44.73125" lon="3.78774">
        <ele>1035.6</ele>
      </trkpt>
      <trkpt lat="44.73126" lon="3.78763">
        <ele>1035.9</ele>
      </trkpt>
      <trkpt lat="44.73128" lon="3.78752">
        <ele>1036.1</ele>
      </trkpt>
      <trkpt lat="44.73134" lon="3.78736">
        <ele>1036.4</ele>
      </trkpt>
      <trkpt lat="44.7314" lon="3.7872">
        <ele>1037</ele>
      </trkpt>
      <trkpt lat="44.73147" lon="3.78706">
        <ele>1037.3</ele>
      </trkpt>
      <trkpt lat="44.73151" lon="3.78696">
        <ele>1037.6</ele>
      </trkpt>
      <trkpt lat="44.73154" lon="3.78681">
        <ele>1037.9</ele>
      </trkpt>
      <trkpt lat="44.73156" lon="3.78664">
        <ele>1038.2</ele>
      </trkpt>
      <trkpt lat="44.73158" lon="3.78646">
        <ele>1038.7</ele>
      </trkpt>
      <trkpt lat="44.7316" lon="3.7863">
        <ele>1038.8</ele>
      </trkpt>
      <trkpt lat="44.73164" lon="3.7861">
        <ele>1038.4</ele>
      </trkpt>
      <trkpt lat="44.7317" lon="3.78582">
        <ele>1038.7</ele>
      </trkpt>
      <trkpt lat="44.73175" lon="3.78553">
        <ele>1039.5</ele>
      </trkpt>
      <trkpt lat="44.73179" lon="3.78527">
        <ele>1040.2</ele>
      </trkpt>
      <trkpt lat="44.73183" lon="3.78492">
        <ele>1041.5</ele>
      </trkpt>
      <trkpt lat="44.73184" lon="3.78473">
        <ele>1042.1</ele>
      </trkpt>
      <trkpt lat="44.73185" lon="3.78465">
        <ele>1042.1</ele>
      </trkpt>
      <trkpt lat="44.73185" lon="3.7846">
        <ele>1042.2</ele>
      </trkpt>
      <trkpt lat="44.73183" lon="3.78452">
        <ele>1042.4</ele>
      </trkpt>
      <trkpt lat="44.7318" lon="3.78441">
        <ele>1042.4</ele>
      </trkpt>
      <trkpt lat="44.73178" lon="3.78434">
        <ele>1042.2</ele>
      </trkpt>
      <trkpt lat="44.73178" lon="3.78429">
        <ele>1042</ele>
      </trkpt>
      <trkpt lat="44.73178" lon="3.78424">
        <ele>1041.9</ele>
      </trkpt>
      <trkpt lat="44.7318" lon="3.78415">
        <ele>1041.4</ele>
      </trkpt>
      <trkpt lat="44.73181" lon="3.78406">
        <ele>1040.9</ele>
      </trkpt>
      <trkpt lat="44.73181" lon="3.78391">
        <ele>1040.1</ele>
      </trkpt>
      <trkpt lat="44.7318" lon="3.78379">
        <ele>1039.7</ele>
      </trkpt>
      <trkpt lat="44.7318" lon="3.7837">
        <ele>1039.3</ele>
      </trkpt>
      <trkpt lat="44.73179" lon="3.78357">
        <ele>1039.2</ele>
      </trkpt>
      <trkpt lat="44.73179" lon="3.78337">
        <ele>1039.5</ele>
      </trkpt>
      <trkpt lat="44.7318" lon="3.78325">
        <ele>1040.1</ele>
      </trkpt>
      <trkpt lat="44.73182" lon="3.78313">
        <ele>1040.9</ele>
      </trkpt>
      <trkpt lat="44.73183" lon="3.78306">
        <ele>1041.4</ele>
      </trkpt>
      <trkpt lat="44.73186" lon="3.78298">
        <ele>1041.6</ele>
      </trkpt>
      <trkpt lat="44.73194" lon="3.78279">
        <ele>1042</ele>
      </trkpt>
      <trkpt lat="44.732" lon="3.78266">
        <ele>1042.1</ele>
      </trkpt>
      <trkpt lat="44.73202" lon="3.7826">
        <ele>1042.3</ele>
      </trkpt>
      <trkpt lat="44.73202" lon="3.78254">
        <ele>1042.5</ele>
      </trkpt>
      <trkpt lat="44.73203" lon="3.78243">
        <ele>1042.9</ele>
      </trkpt>
      <trkpt lat="44.73204" lon="3.78236">
        <ele>1043</ele>
      </trkpt>
      <trkpt lat="44.73205" lon="3.78228">
        <ele>1043.1</ele>
      </trkpt>
      <trkpt lat="44.73207" lon="3.78212">
        <ele>1042.9</ele>
      </trkpt>
      <trkpt lat="44.73208" lon="3.78202">
        <ele>1042.7</ele>
      </trkpt>
      <trkpt lat="44.73208" lon="3.78194">
        <ele>1042.5</ele>
      </trkpt>
      <trkpt lat="44.73208" lon="3.78182">
        <ele>1042.5</ele>
      </trkpt>
      <trkpt lat="44.73205" lon="3.78157">
        <ele>1043.3</ele>
      </trkpt>
      <trkpt lat="44.73205" lon="3.78151">
        <ele>1043.5</ele>
      </trkpt>
      <trkpt lat="44.73206" lon="3.78145">
        <ele>1043.7</ele>
      </trkpt>
      <trkpt lat="44.73208" lon="3.78138">
        <ele>1044.1</ele>
      </trkpt>
      <trkpt lat="44.73211" lon="3.7813">
        <ele>1044.8</ele>
      </trkpt>
      <trkpt lat="44.73214" lon="3.78124">
        <ele>1045.4</ele>
      </trkpt>
      <trkpt lat="44.73217" lon="3.78117">
        <ele>1046.2</ele>
      </trkpt>
      <trkpt lat="44.73219" lon="3.78109">
        <ele>1047</ele>
      </trkpt>
      <trkpt lat="44.73222" lon="3.78098">
        <ele>1047.9</ele>
      </trkpt>
      <trkpt lat="44.73225" lon="3.78085">
        <ele>1048.9</ele>
      </trkpt>
      <trkpt lat="44.73228" lon="3.78074">
        <ele>1049.3</ele>
      </trkpt>
      <trkpt lat="44.73233" lon="3.78062">
        <ele>1049.8</ele>
      </trkpt>
      <trkpt lat="44.73238" lon="3.78047">
        <ele>1050.1</ele>
      </trkpt>
      <trkpt lat="44.73244" lon="3.78031">
        <ele>1050.2</ele>
      </trkpt>
      <trkpt lat="44.73248" lon="3.78019">
        <ele>1050.4</ele>
      </trkpt>
      <trkpt lat="44.73252" lon="3.78003">
        <ele>1050.8</ele>
      </trkpt>
      <trkpt lat="44.73259" lon="3.78005">
        <ele>1050.5</ele>
      </trkpt>
      <trkpt lat="44.73277" lon="3.78013">
        <ele>1049.6</ele>
      </trkpt>
      <trkpt lat="44.73287" lon="3.7802">
        <ele>1049.2</ele>
      </trkpt>
      <trkpt lat="44.73295" lon="3.78022">
        <ele>1049.1</ele>
      </trkpt>
      <trkpt lat="44.73304" lon="3.78021">
        <ele>1049</ele>
      </trkpt>
      <trkpt lat="44.73321" lon="3.78014">
        <ele>1048.7</ele>
      </trkpt>
      <trkpt lat="44.73332" lon="3.78011">
        <ele>1048.6</ele>
      </trkpt>
      <trkpt lat="44.73336" lon="3.78011">
        <ele>1048.5</ele>
        <extensions>
          <visugpx:TrkExtension xmlns:visugpx="https://www.visugpx.com/editgpx/">
            <visugpx:node>2</visugpx:node>
            </visugpx:TrkExtension>
        </extensions>
      </trkpt>
    </trkseg>
  </trk>
</gpx>